<?xml version="1.0" encoding="UTF-8" standalone="no" ?>
<gpx xmlns="http://www.topografix.com/GPX/1/1" xmlns:xsi="http://www.w3.org/2001/XMLSchema-instance" xsi:schemaLocation="http://www.topografix.com/GPX/1/1 http://www.topografix.com/GPX/1/1/gpx.xsd" version="1.1" creator="VisuGPX - https://www.visugpx.com">
  <metadata>
    <name>rando de Guidel</name>
    <desc><![CDATA[rando de guidel  42 km]]></desc>
  </metadata>
  <wpt lat="47.28195" lon="-2.2425">
    <ele>25</ele>
    <name><![CDATA[002]]></name>
  </wpt>
  <wpt lat="38.85555" lon="-94.79902">
    <ele>3.01</ele>
    <name><![CDATA[GARMIN]]></name>
  </wpt>
  <wpt lat="50.98288" lon="-1.4639">
    <ele>3.01</ele>
    <name><![CDATA[GRMEUR]]></name>
  </wpt>
  <wpt lat="25.06178" lon="121.64027">
    <ele>3.01</ele>
    <name><![CDATA[GRMTWN]]></name>
  </wpt>
  <wpt lat="47.87632" lon="-3.01188">
    <ele>40.02</ele>
    <name><![CDATA[H]]></name>
  </wpt>
  <trk>
    <name><![CDATA[ACTIVE LOG: 17 JUN 2012 07:18]]></name>
    <trkseg>
      <trkpt lat="47.77083" lon="-3.51787">
        <ele>-30.62</ele>
        <time>2012-06-17T06:18:35Z</time>
      </trkpt>
      <trkpt lat="47.77082" lon="-3.51793">
        <ele>-11.88</ele>
        <time>2012-06-17T06:19:00Z</time>
      </trkpt>
      <trkpt lat="47.77088" lon="-3.51805">
        <ele>-21.49</ele>
        <time>2012-06-17T06:19:06Z</time>
      </trkpt>
      <trkpt lat="47.77074" lon="-3.51843">
        <ele>-29.66</ele>
        <time>2012-06-17T06:19:18Z</time>
      </trkpt>
      <trkpt lat="47.77066" lon="-3.51845">
        <ele>-22.93</ele>
        <time>2012-06-17T06:19:23Z</time>
      </trkpt>
      <trkpt lat="47.77046" lon="-3.51838">
        <ele>-14.28</ele>
        <time>2012-06-17T06:19:28Z</time>
      </trkpt>
      <trkpt lat="47.77019" lon="-3.5186">
        <ele>0.62</ele>
        <time>2012-06-17T06:19:32Z</time>
      </trkpt>
      <trkpt lat="47.77011" lon="-3.5189">
        <ele>-2.75</ele>
        <time>2012-06-17T06:19:36Z</time>
      </trkpt>
      <trkpt lat="47.77007" lon="-3.51908">
        <ele>-3.71</ele>
        <time>2012-06-17T06:19:38Z</time>
      </trkpt>
      <trkpt lat="47.77012" lon="-3.51954">
        <ele>-6.59</ele>
        <time>2012-06-17T06:19:42Z</time>
      </trkpt>
      <trkpt lat="47.7701" lon="-3.51984">
        <ele>-9.96</ele>
        <time>2012-06-17T06:19:48Z</time>
      </trkpt>
      <trkpt lat="47.77" lon="-3.52022">
        <ele>-14.28</ele>
        <time>2012-06-17T06:19:57Z</time>
      </trkpt>
      <trkpt lat="47.77003" lon="-3.52047">
        <ele>-16.21</ele>
        <time>2012-06-17T06:20:03Z</time>
      </trkpt>
      <trkpt lat="47.77011" lon="-3.52075">
        <ele>-17.17</ele>
        <time>2012-06-17T06:20:09Z</time>
      </trkpt>
      <trkpt lat="47.77013" lon="-3.52096">
        <ele>-17.65</ele>
        <time>2012-06-17T06:20:12Z</time>
      </trkpt>
      <trkpt lat="47.77007" lon="-3.52154">
        <ele>-17.17</ele>
        <time>2012-06-17T06:20:19Z</time>
      </trkpt>
      <trkpt lat="47.77008" lon="-3.52174">
        <ele>-17.17</ele>
        <time>2012-06-17T06:20:21Z</time>
      </trkpt>
      <trkpt lat="47.7701" lon="-3.52189">
        <ele>-16.21</ele>
        <time>2012-06-17T06:20:23Z</time>
      </trkpt>
      <trkpt lat="47.77012" lon="-3.52224">
        <ele>-13.8</ele>
        <time>2012-06-17T06:20:27Z</time>
      </trkpt>
      <trkpt lat="47.77017" lon="-3.52251">
        <ele>-11.88</ele>
        <time>2012-06-17T06:20:30Z</time>
      </trkpt>
      <trkpt lat="47.7702" lon="-3.52268">
        <ele>-8.51</ele>
        <time>2012-06-17T06:20:32Z</time>
      </trkpt>
      <trkpt lat="47.77021" lon="-3.52292">
        <ele>-7.07</ele>
        <time>2012-06-17T06:20:35Z</time>
      </trkpt>
      <trkpt lat="47.77025" lon="-3.52352">
        <ele>-0.82</ele>
        <time>2012-06-17T06:20:41Z</time>
      </trkpt>
      <trkpt lat="47.77025" lon="-3.52394">
        <ele>1.1</ele>
        <time>2012-06-17T06:20:46Z</time>
      </trkpt>
      <trkpt lat="47.77028" lon="-3.52433">
        <ele>1.1</ele>
        <time>2012-06-17T06:20:51Z</time>
      </trkpt>
      <trkpt lat="47.77032" lon="-3.52454">
        <ele>2.06</ele>
        <time>2012-06-17T06:20:54Z</time>
      </trkpt>
      <trkpt lat="47.77037" lon="-3.52497">
        <ele>6.87</ele>
        <time>2012-06-17T06:21:05Z</time>
      </trkpt>
      <trkpt lat="47.77038" lon="-3.525">
        <ele>7.35</ele>
        <time>2012-06-17T06:21:06Z</time>
      </trkpt>
      <trkpt lat="47.77035" lon="-3.52514">
        <ele>7.35</ele>
        <time>2012-06-17T06:21:10Z</time>
      </trkpt>
      <trkpt lat="47.77063" lon="-3.52556">
        <ele>7.83</ele>
        <time>2012-06-17T06:21:22Z</time>
      </trkpt>
      <trkpt lat="47.7707" lon="-3.52566">
        <ele>8.31</ele>
        <time>2012-06-17T06:21:24Z</time>
      </trkpt>
      <trkpt lat="47.77126" lon="-3.52659">
        <ele>4.94</ele>
        <time>2012-06-17T06:21:41Z</time>
      </trkpt>
      <trkpt lat="47.77156" lon="-3.52713">
        <ele>4.94</ele>
        <time>2012-06-17T06:21:50Z</time>
      </trkpt>
      <trkpt lat="47.77164" lon="-3.52721">
        <ele>4.94</ele>
        <time>2012-06-17T06:21:54Z</time>
      </trkpt>
      <trkpt lat="47.77172" lon="-3.52737">
        <ele>5.42</ele>
        <time>2012-06-17T06:21:58Z</time>
      </trkpt>
      <trkpt lat="47.77178" lon="-3.52748">
        <ele>5.42</ele>
        <time>2012-06-17T06:22:00Z</time>
      </trkpt>
      <trkpt lat="47.77189" lon="-3.52771">
        <ele>6.39</ele>
        <time>2012-06-17T06:22:06Z</time>
      </trkpt>
      <trkpt lat="47.77195" lon="-3.5278">
        <ele>6.87</ele>
        <time>2012-06-17T06:22:18Z</time>
      </trkpt>
      <trkpt lat="47.77201" lon="-3.52799">
        <ele>8.31</ele>
        <time>2012-06-17T06:22:30Z</time>
      </trkpt>
      <trkpt lat="47.77215" lon="-3.52825">
        <ele>7.83</ele>
        <time>2012-06-17T06:22:36Z</time>
      </trkpt>
      <trkpt lat="47.77225" lon="-3.52849">
        <ele>5.91</ele>
        <time>2012-06-17T06:22:40Z</time>
      </trkpt>
      <trkpt lat="47.77263" lon="-3.52861">
        <ele>3.98</ele>
        <time>2012-06-17T06:22:48Z</time>
      </trkpt>
      <trkpt lat="47.77296" lon="-3.5285">
        <ele>5.91</ele>
        <time>2012-06-17T06:22:55Z</time>
      </trkpt>
      <trkpt lat="47.77302" lon="-3.52857">
        <ele>6.39</ele>
        <time>2012-06-17T06:22:57Z</time>
      </trkpt>
      <trkpt lat="47.77341" lon="-3.52894">
        <ele>8.79</ele>
        <time>2012-06-17T06:23:10Z</time>
      </trkpt>
      <trkpt lat="47.77353" lon="-3.529">
        <ele>13.12</ele>
        <time>2012-06-17T06:23:21Z</time>
      </trkpt>
      <trkpt lat="47.77365" lon="-3.5292">
        <ele>16</ele>
        <time>2012-06-17T06:23:31Z</time>
      </trkpt>
      <trkpt lat="47.77377" lon="-3.52941">
        <ele>17.92</ele>
        <time>2012-06-17T06:23:36Z</time>
      </trkpt>
      <trkpt lat="47.77413" lon="-3.52986">
        <ele>18.4</ele>
        <time>2012-06-17T06:23:45Z</time>
      </trkpt>
      <trkpt lat="47.77433" lon="-3.52996">
        <ele>19.36</ele>
        <time>2012-06-17T06:23:51Z</time>
      </trkpt>
      <trkpt lat="47.77437" lon="-3.53008">
        <ele>16</ele>
        <time>2012-06-17T06:23:56Z</time>
      </trkpt>
      <trkpt lat="47.7744" lon="-3.53005">
        <ele>15.52</ele>
        <time>2012-06-17T06:23:57Z</time>
      </trkpt>
      <trkpt lat="47.77449" lon="-3.52984">
        <ele>13.12</ele>
        <time>2012-06-17T06:24:07Z</time>
      </trkpt>
      <trkpt lat="47.77449" lon="-3.52972">
        <ele>12.63</ele>
        <time>2012-06-17T06:24:14Z</time>
      </trkpt>
      <trkpt lat="47.77456" lon="-3.52958">
        <ele>11.19</ele>
        <time>2012-06-17T06:24:18Z</time>
      </trkpt>
      <trkpt lat="47.77471" lon="-3.52945">
        <ele>9.75</ele>
        <time>2012-06-17T06:24:21Z</time>
      </trkpt>
      <trkpt lat="47.7751" lon="-3.52939">
        <ele>12.15</ele>
        <time>2012-06-17T06:24:29Z</time>
      </trkpt>
      <trkpt lat="47.77519" lon="-3.52946">
        <ele>10.23</ele>
        <time>2012-06-17T06:24:32Z</time>
      </trkpt>
      <trkpt lat="47.77527" lon="-3.52957">
        <ele>11.19</ele>
        <time>2012-06-17T06:24:34Z</time>
      </trkpt>
      <trkpt lat="47.77569" lon="-3.52982">
        <ele>17.92</ele>
        <time>2012-06-17T06:24:44Z</time>
      </trkpt>
      <trkpt lat="47.77577" lon="-3.52985">
        <ele>19.36</ele>
        <time>2012-06-17T06:24:46Z</time>
      </trkpt>
      <trkpt lat="47.77596" lon="-3.5297">
        <ele>24.17</ele>
        <time>2012-06-17T06:24:55Z</time>
      </trkpt>
      <trkpt lat="47.77601" lon="-3.52933">
        <ele>27.53</ele>
        <time>2012-06-17T06:25:05Z</time>
      </trkpt>
      <trkpt lat="47.77608" lon="-3.52871">
        <ele>24.65</ele>
        <time>2012-06-17T06:25:16Z</time>
      </trkpt>
      <trkpt lat="47.77612" lon="-3.52801">
        <ele>20.81</ele>
        <time>2012-06-17T06:25:32Z</time>
      </trkpt>
      <trkpt lat="47.77616" lon="-3.52738">
        <ele>25.13</ele>
        <time>2012-06-17T06:25:48Z</time>
      </trkpt>
      <trkpt lat="47.77614" lon="-3.52664">
        <ele>28.5</ele>
        <time>2012-06-17T06:26:04Z</time>
      </trkpt>
      <trkpt lat="47.77616" lon="-3.52591">
        <ele>29.46</ele>
        <time>2012-06-17T06:26:18Z</time>
      </trkpt>
      <trkpt lat="47.77635" lon="-3.526">
        <ele>31.38</ele>
        <time>2012-06-17T06:26:27Z</time>
      </trkpt>
      <trkpt lat="47.77668" lon="-3.52614">
        <ele>32.82</ele>
        <time>2012-06-17T06:26:36Z</time>
      </trkpt>
      <trkpt lat="47.77759" lon="-3.52648">
        <ele>36.67</ele>
        <time>2012-06-17T06:26:54Z</time>
      </trkpt>
      <trkpt lat="47.77889" lon="-3.52699">
        <ele>41.47</ele>
        <time>2012-06-17T06:27:22Z</time>
      </trkpt>
      <trkpt lat="47.77928" lon="-3.52714">
        <ele>42.44</ele>
        <time>2012-06-17T06:27:30Z</time>
      </trkpt>
      <trkpt lat="47.78001" lon="-3.52743">
        <ele>44.84</ele>
        <time>2012-06-17T06:27:46Z</time>
      </trkpt>
      <trkpt lat="47.7807" lon="-3.52768">
        <ele>45.32</ele>
        <time>2012-06-17T06:27:59Z</time>
      </trkpt>
      <trkpt lat="47.78169" lon="-3.52769">
        <ele>44.36</ele>
        <time>2012-06-17T06:28:17Z</time>
      </trkpt>
      <trkpt lat="47.78224" lon="-3.52768">
        <ele>42.92</ele>
        <time>2012-06-17T06:28:27Z</time>
      </trkpt>
      <trkpt lat="47.78251" lon="-3.52733">
        <ele>40.99</ele>
        <time>2012-06-17T06:28:33Z</time>
      </trkpt>
      <trkpt lat="47.78257" lon="-3.52699">
        <ele>42.44</ele>
        <time>2012-06-17T06:28:37Z</time>
      </trkpt>
      <trkpt lat="47.7828" lon="-3.52524">
        <ele>34.74</ele>
        <time>2012-06-17T06:28:56Z</time>
      </trkpt>
      <trkpt lat="47.783" lon="-3.52343">
        <ele>33.78</ele>
        <time>2012-06-17T06:29:15Z</time>
      </trkpt>
      <trkpt lat="47.78315" lon="-3.52291">
        <ele>31.86</ele>
        <time>2012-06-17T06:29:22Z</time>
      </trkpt>
      <trkpt lat="47.7834" lon="-3.52273">
        <ele>31.38</ele>
        <time>2012-06-17T06:29:28Z</time>
      </trkpt>
      <trkpt lat="47.78392" lon="-3.52261">
        <ele>30.42</ele>
        <time>2012-06-17T06:29:36Z</time>
      </trkpt>
      <trkpt lat="47.78425" lon="-3.52259">
        <ele>28.98</ele>
        <time>2012-06-17T06:29:40Z</time>
      </trkpt>
      <trkpt lat="47.78451" lon="-3.52264">
        <ele>28.5</ele>
        <time>2012-06-17T06:29:43Z</time>
      </trkpt>
      <trkpt lat="47.78506" lon="-3.5227">
        <ele>32.82</ele>
        <time>2012-06-17T06:29:53Z</time>
      </trkpt>
      <trkpt lat="47.78528" lon="-3.52274">
        <ele>36.67</ele>
        <time>2012-06-17T06:29:59Z</time>
      </trkpt>
      <trkpt lat="47.78538" lon="-3.52266">
        <ele>40.03</ele>
        <time>2012-06-17T06:30:03Z</time>
      </trkpt>
      <trkpt lat="47.78534" lon="-3.52191">
        <ele>41.95</ele>
        <time>2012-06-17T06:30:16Z</time>
      </trkpt>
      <trkpt lat="47.78532" lon="-3.52085">
        <ele>40.03</ele>
        <time>2012-06-17T06:30:32Z</time>
      </trkpt>
      <trkpt lat="47.78534" lon="-3.52058">
        <ele>41.47</ele>
        <time>2012-06-17T06:30:38Z</time>
      </trkpt>
      <trkpt lat="47.78545" lon="-3.52035">
        <ele>43.88</ele>
        <time>2012-06-17T06:30:45Z</time>
      </trkpt>
      <trkpt lat="47.78543" lon="-3.52022">
        <ele>45.32</ele>
        <time>2012-06-17T06:30:47Z</time>
      </trkpt>
      <trkpt lat="47.78549" lon="-3.51982">
        <ele>49.16</ele>
        <time>2012-06-17T06:30:54Z</time>
      </trkpt>
      <trkpt lat="47.7855" lon="-3.51964">
        <ele>52.53</ele>
        <time>2012-06-17T06:30:58Z</time>
      </trkpt>
      <trkpt lat="47.78547" lon="-3.51933">
        <ele>47.24</ele>
        <time>2012-06-17T06:31:05Z</time>
      </trkpt>
      <trkpt lat="47.78542" lon="-3.51924">
        <ele>45.8</ele>
        <time>2012-06-17T06:31:07Z</time>
      </trkpt>
      <trkpt lat="47.78541" lon="-3.51916">
        <ele>45.8</ele>
        <time>2012-06-17T06:31:09Z</time>
      </trkpt>
      <trkpt lat="47.78541" lon="-3.51898">
        <ele>46.28</ele>
        <time>2012-06-17T06:31:12Z</time>
      </trkpt>
      <trkpt lat="47.78533" lon="-3.51869">
        <ele>49.16</ele>
        <time>2012-06-17T06:31:16Z</time>
      </trkpt>
      <trkpt lat="47.78536" lon="-3.51837">
        <ele>53.49</ele>
        <time>2012-06-17T06:31:20Z</time>
      </trkpt>
      <trkpt lat="47.78537" lon="-3.51805">
        <ele>56.37</ele>
        <time>2012-06-17T06:31:25Z</time>
      </trkpt>
      <trkpt lat="47.78534" lon="-3.51787">
        <ele>58.3</ele>
        <time>2012-06-17T06:31:27Z</time>
      </trkpt>
      <trkpt lat="47.78532" lon="-3.51754">
        <ele>58.3</ele>
        <time>2012-06-17T06:31:32Z</time>
      </trkpt>
      <trkpt lat="47.7853" lon="-3.51731">
        <ele>57.82</ele>
        <time>2012-06-17T06:31:37Z</time>
      </trkpt>
      <trkpt lat="47.78529" lon="-3.51718">
        <ele>56.86</ele>
        <time>2012-06-17T06:31:39Z</time>
      </trkpt>
      <trkpt lat="47.78526" lon="-3.51669">
        <ele>55.89</ele>
        <time>2012-06-17T06:31:45Z</time>
      </trkpt>
      <trkpt lat="47.78526" lon="-3.51655">
        <ele>47.72</ele>
        <time>2012-06-17T06:31:59Z</time>
      </trkpt>
      <trkpt lat="47.78526" lon="-3.51623">
        <ele>38.11</ele>
        <time>2012-06-17T06:32:07Z</time>
      </trkpt>
      <trkpt lat="47.78514" lon="-3.5161">
        <ele>36.67</ele>
        <time>2012-06-17T06:32:11Z</time>
      </trkpt>
      <trkpt lat="47.78502" lon="-3.51586">
        <ele>32.34</ele>
        <time>2012-06-17T06:32:22Z</time>
      </trkpt>
      <trkpt lat="47.78513" lon="-3.51562">
        <ele>28.5</ele>
        <time>2012-06-17T06:32:29Z</time>
      </trkpt>
      <trkpt lat="47.78537" lon="-3.51541">
        <ele>24.17</ele>
        <time>2012-06-17T06:32:35Z</time>
      </trkpt>
      <trkpt lat="47.78554" lon="-3.51529">
        <ele>21.29</ele>
        <time>2012-06-17T06:32:38Z</time>
      </trkpt>
      <trkpt lat="47.78587" lon="-3.51508">
        <ele>18.88</ele>
        <time>2012-06-17T06:32:43Z</time>
      </trkpt>
      <trkpt lat="47.78608" lon="-3.51497">
        <ele>19.36</ele>
        <time>2012-06-17T06:32:46Z</time>
      </trkpt>
      <trkpt lat="47.78631" lon="-3.51478">
        <ele>19.36</ele>
        <time>2012-06-17T06:32:50Z</time>
      </trkpt>
      <trkpt lat="47.7867" lon="-3.51489">
        <ele>20.81</ele>
        <time>2012-06-17T06:32:56Z</time>
      </trkpt>
      <trkpt lat="47.78693" lon="-3.51503">
        <ele>19.36</ele>
        <time>2012-06-17T06:32:59Z</time>
      </trkpt>
      <trkpt lat="47.78741" lon="-3.51529">
        <ele>17.92</ele>
        <time>2012-06-17T06:33:06Z</time>
      </trkpt>
      <trkpt lat="47.78763" lon="-3.51532">
        <ele>20.81</ele>
        <time>2012-06-17T06:33:10Z</time>
      </trkpt>
      <trkpt lat="47.78795" lon="-3.5154">
        <ele>24.65</ele>
        <time>2012-06-17T06:33:16Z</time>
      </trkpt>
      <trkpt lat="47.78832" lon="-3.51561">
        <ele>26.57</ele>
        <time>2012-06-17T06:33:23Z</time>
      </trkpt>
      <trkpt lat="47.78862" lon="-3.51577">
        <ele>28.98</ele>
        <time>2012-06-17T06:33:30Z</time>
      </trkpt>
      <trkpt lat="47.78885" lon="-3.51588">
        <ele>31.86</ele>
        <time>2012-06-17T06:33:35Z</time>
      </trkpt>
      <trkpt lat="47.78922" lon="-3.51599">
        <ele>30.9</ele>
        <time>2012-06-17T06:33:42Z</time>
      </trkpt>
      <trkpt lat="47.78959" lon="-3.51601">
        <ele>32.34</ele>
        <time>2012-06-17T06:33:48Z</time>
      </trkpt>
      <trkpt lat="47.78991" lon="-3.5159">
        <ele>34.26</ele>
        <time>2012-06-17T06:33:55Z</time>
      </trkpt>
      <trkpt lat="47.79005" lon="-3.51588">
        <ele>35.71</ele>
        <time>2012-06-17T06:33:58Z</time>
      </trkpt>
      <trkpt lat="47.79019" lon="-3.51588">
        <ele>34.74</ele>
        <time>2012-06-17T06:34:01Z</time>
      </trkpt>
      <trkpt lat="47.79046" lon="-3.51589">
        <ele>32.82</ele>
        <time>2012-06-17T06:34:08Z</time>
      </trkpt>
      <trkpt lat="47.79086" lon="-3.51596">
        <ele>37.15</ele>
        <time>2012-06-17T06:34:18Z</time>
      </trkpt>
      <trkpt lat="47.79102" lon="-3.51599">
        <ele>38.11</ele>
        <time>2012-06-17T06:34:22Z</time>
      </trkpt>
      <trkpt lat="47.79151" lon="-3.51605">
        <ele>40.51</ele>
        <time>2012-06-17T06:34:32Z</time>
      </trkpt>
      <trkpt lat="47.79174" lon="-3.5161">
        <ele>43.4</ele>
        <time>2012-06-17T06:34:37Z</time>
      </trkpt>
      <trkpt lat="47.792" lon="-3.51642">
        <ele>45.32</ele>
        <time>2012-06-17T06:34:43Z</time>
      </trkpt>
      <trkpt lat="47.79207" lon="-3.51674">
        <ele>42.92</ele>
        <time>2012-06-17T06:34:48Z</time>
      </trkpt>
      <trkpt lat="47.7921" lon="-3.51713">
        <ele>32.34</ele>
        <time>2012-06-17T06:34:57Z</time>
      </trkpt>
      <trkpt lat="47.79202" lon="-3.51741">
        <ele>32.34</ele>
        <time>2012-06-17T06:35:07Z</time>
      </trkpt>
      <trkpt lat="47.79201" lon="-3.51786">
        <ele>29.94</ele>
        <time>2012-06-17T06:35:17Z</time>
      </trkpt>
      <trkpt lat="47.79207" lon="-3.51833">
        <ele>38.11</ele>
        <time>2012-06-17T06:35:28Z</time>
      </trkpt>
      <trkpt lat="47.79212" lon="-3.5189">
        <ele>39.07</ele>
        <time>2012-06-17T06:35:38Z</time>
      </trkpt>
      <trkpt lat="47.79211" lon="-3.51903">
        <ele>39.07</ele>
        <time>2012-06-17T06:35:40Z</time>
      </trkpt>
      <trkpt lat="47.79209" lon="-3.51931">
        <ele>38.11</ele>
        <time>2012-06-17T06:35:45Z</time>
      </trkpt>
      <trkpt lat="47.79211" lon="-3.51961">
        <ele>40.99</ele>
        <time>2012-06-17T06:35:50Z</time>
      </trkpt>
      <trkpt lat="47.79208" lon="-3.5198">
        <ele>40.03</ele>
        <time>2012-06-17T06:35:53Z</time>
      </trkpt>
      <trkpt lat="47.79194" lon="-3.52004">
        <ele>36.67</ele>
        <time>2012-06-17T06:35:58Z</time>
      </trkpt>
      <trkpt lat="47.7917" lon="-3.52013">
        <ele>35.71</ele>
        <time>2012-06-17T06:36:02Z</time>
      </trkpt>
      <trkpt lat="47.79144" lon="-3.52054">
        <ele>33.78</ele>
        <time>2012-06-17T06:36:08Z</time>
      </trkpt>
      <trkpt lat="47.79132" lon="-3.52149">
        <ele>29.46</ele>
        <time>2012-06-17T06:36:18Z</time>
      </trkpt>
      <trkpt lat="47.7914" lon="-3.52162">
        <ele>29.94</ele>
        <time>2012-06-17T06:36:22Z</time>
      </trkpt>
      <trkpt lat="47.79202" lon="-3.52174">
        <ele>39.55</ele>
        <time>2012-06-17T06:36:38Z</time>
      </trkpt>
      <trkpt lat="47.79208" lon="-3.52202">
        <ele>39.07</ele>
        <time>2012-06-17T06:36:44Z</time>
      </trkpt>
      <trkpt lat="47.7922" lon="-3.52272">
        <ele>38.11</ele>
        <time>2012-06-17T06:36:58Z</time>
      </trkpt>
      <trkpt lat="47.79235" lon="-3.52319">
        <ele>36.19</ele>
        <time>2012-06-17T06:37:10Z</time>
      </trkpt>
      <trkpt lat="47.79234" lon="-3.52331">
        <ele>34.26</ele>
        <time>2012-06-17T06:37:14Z</time>
      </trkpt>
      <trkpt lat="47.79238" lon="-3.52344">
        <ele>30.9</ele>
        <time>2012-06-17T06:37:19Z</time>
      </trkpt>
      <trkpt lat="47.79241" lon="-3.5235">
        <ele>29.94</ele>
        <time>2012-06-17T06:37:21Z</time>
      </trkpt>
      <trkpt lat="47.79251" lon="-3.52371">
        <ele>25.61</ele>
        <time>2012-06-17T06:37:28Z</time>
      </trkpt>
      <trkpt lat="47.79256" lon="-3.52382">
        <ele>23.21</ele>
        <time>2012-06-17T06:37:31Z</time>
      </trkpt>
      <trkpt lat="47.7927" lon="-3.52395">
        <ele>19.84</ele>
        <time>2012-06-17T06:37:37Z</time>
      </trkpt>
      <trkpt lat="47.79279" lon="-3.52399">
        <ele>16.48</ele>
        <time>2012-06-17T06:37:42Z</time>
      </trkpt>
      <trkpt lat="47.7929" lon="-3.52396">
        <ele>15.52</ele>
        <time>2012-06-17T06:37:47Z</time>
      </trkpt>
      <trkpt lat="47.79349" lon="-3.52426">
        <ele>17.92</ele>
        <time>2012-06-17T06:38:00Z</time>
      </trkpt>
      <trkpt lat="47.79402" lon="-3.52437">
        <ele>13.6</ele>
        <time>2012-06-17T06:38:11Z</time>
      </trkpt>
      <trkpt lat="47.79418" lon="-3.52436">
        <ele>14.08</ele>
        <time>2012-06-17T06:38:14Z</time>
      </trkpt>
      <trkpt lat="47.79492" lon="-3.5242">
        <ele>10.71</ele>
        <time>2012-06-17T06:38:26Z</time>
      </trkpt>
      <trkpt lat="47.79549" lon="-3.52414">
        <ele>6.87</ele>
        <time>2012-06-17T06:38:33Z</time>
      </trkpt>
      <trkpt lat="47.79573" lon="-3.52407">
        <ele>6.39</ele>
        <time>2012-06-17T06:38:36Z</time>
      </trkpt>
      <trkpt lat="47.79583" lon="-3.52404">
        <ele>5.91</ele>
        <time>2012-06-17T06:38:38Z</time>
      </trkpt>
      <trkpt lat="47.79582" lon="-3.52428">
        <ele>8.31</ele>
        <time>2012-06-17T06:38:46Z</time>
      </trkpt>
      <trkpt lat="47.79588" lon="-3.52447">
        <ele>8.31</ele>
        <time>2012-06-17T06:38:50Z</time>
      </trkpt>
      <trkpt lat="47.79594" lon="-3.52474">
        <ele>9.27</ele>
        <time>2012-06-17T06:38:57Z</time>
      </trkpt>
      <trkpt lat="47.79599" lon="-3.52488">
        <ele>10.23</ele>
        <time>2012-06-17T06:39:11Z</time>
      </trkpt>
      <trkpt lat="47.79598" lon="-3.52485">
        <ele>10.71</ele>
        <time>2012-06-17T06:39:23Z</time>
      </trkpt>
      <trkpt lat="47.79601" lon="-3.52473">
        <ele>12.63</ele>
        <time>2012-06-17T06:39:37Z</time>
      </trkpt>
      <trkpt lat="47.79601" lon="-3.52471">
        <ele>13.12</ele>
        <time>2012-06-17T06:39:43Z</time>
      </trkpt>
      <trkpt lat="47.79609" lon="-3.52466">
        <ele>13.6</ele>
        <time>2012-06-17T06:39:48Z</time>
      </trkpt>
      <trkpt lat="47.79616" lon="-3.52456">
        <ele>13.6</ele>
        <time>2012-06-17T06:39:52Z</time>
      </trkpt>
      <trkpt lat="47.79622" lon="-3.52446">
        <ele>13.6</ele>
        <time>2012-06-17T06:39:54Z</time>
      </trkpt>
      <trkpt lat="47.79641" lon="-3.52418">
        <ele>9.75</ele>
        <time>2012-06-17T06:39:58Z</time>
      </trkpt>
      <trkpt lat="47.7965" lon="-3.52388">
        <ele>6.87</ele>
        <time>2012-06-17T06:40:03Z</time>
      </trkpt>
      <trkpt lat="47.79641" lon="-3.52351">
        <ele>1.1</ele>
        <time>2012-06-17T06:40:11Z</time>
      </trkpt>
      <trkpt lat="47.79639" lon="-3.52346">
        <ele>1.1</ele>
        <time>2012-06-17T06:40:22Z</time>
      </trkpt>
      <trkpt lat="47.79631" lon="-3.52346">
        <ele>3.5</ele>
        <time>2012-06-17T06:40:35Z</time>
      </trkpt>
      <trkpt lat="47.79631" lon="-3.5234">
        <ele>6.87</ele>
        <time>2012-06-17T06:40:49Z</time>
      </trkpt>
      <trkpt lat="47.79625" lon="-3.52325">
        <ele>13.6</ele>
        <time>2012-06-17T06:41:03Z</time>
      </trkpt>
      <trkpt lat="47.79618" lon="-3.52318">
        <ele>17.44</ele>
        <time>2012-06-17T06:41:18Z</time>
      </trkpt>
      <trkpt lat="47.7961" lon="-3.52319">
        <ele>21.77</ele>
        <time>2012-06-17T06:41:33Z</time>
      </trkpt>
      <trkpt lat="47.79609" lon="-3.52317">
        <ele>23.69</ele>
        <time>2012-06-17T06:41:49Z</time>
      </trkpt>
      <trkpt lat="47.79609" lon="-3.52297">
        <ele>23.21</ele>
        <time>2012-06-17T06:41:57Z</time>
      </trkpt>
      <trkpt lat="47.79608" lon="-3.52276">
        <ele>22.73</ele>
        <time>2012-06-17T06:42:04Z</time>
      </trkpt>
      <trkpt lat="47.79607" lon="-3.52263">
        <ele>23.21</ele>
        <time>2012-06-17T06:42:09Z</time>
      </trkpt>
      <trkpt lat="47.79605" lon="-3.5225">
        <ele>24.17</ele>
        <time>2012-06-17T06:42:13Z</time>
      </trkpt>
      <trkpt lat="47.79604" lon="-3.52238">
        <ele>24.65</ele>
        <time>2012-06-17T06:42:17Z</time>
      </trkpt>
      <trkpt lat="47.796" lon="-3.52221">
        <ele>26.09</ele>
        <time>2012-06-17T06:42:23Z</time>
      </trkpt>
      <trkpt lat="47.796" lon="-3.52211">
        <ele>27.53</ele>
        <time>2012-06-17T06:42:26Z</time>
      </trkpt>
      <trkpt lat="47.79598" lon="-3.5219">
        <ele>29.46</ele>
        <time>2012-06-17T06:42:31Z</time>
      </trkpt>
      <trkpt lat="47.79595" lon="-3.5214">
        <ele>32.34</ele>
        <time>2012-06-17T06:42:43Z</time>
      </trkpt>
      <trkpt lat="47.79597" lon="-3.52134">
        <ele>32.34</ele>
        <time>2012-06-17T06:42:45Z</time>
      </trkpt>
      <trkpt lat="47.79607" lon="-3.52096">
        <ele>33.78</ele>
        <time>2012-06-17T06:42:56Z</time>
      </trkpt>
      <trkpt lat="47.7961" lon="-3.52069">
        <ele>34.74</ele>
        <time>2012-06-17T06:43:04Z</time>
      </trkpt>
      <trkpt lat="47.79611" lon="-3.52061">
        <ele>36.19</ele>
        <time>2012-06-17T06:43:07Z</time>
      </trkpt>
      <trkpt lat="47.79622" lon="-3.52036">
        <ele>39.55</ele>
        <time>2012-06-17T06:43:15Z</time>
      </trkpt>
      <trkpt lat="47.79629" lon="-3.52027">
        <ele>40.03</ele>
        <time>2012-06-17T06:43:20Z</time>
      </trkpt>
      <trkpt lat="47.79634" lon="-3.52014">
        <ele>41.47</ele>
        <time>2012-06-17T06:43:24Z</time>
      </trkpt>
      <trkpt lat="47.79645" lon="-3.52005">
        <ele>43.4</ele>
        <time>2012-06-17T06:43:31Z</time>
      </trkpt>
      <trkpt lat="47.79667" lon="-3.51989">
        <ele>42.44</ele>
        <time>2012-06-17T06:43:39Z</time>
      </trkpt>
      <trkpt lat="47.79684" lon="-3.51955">
        <ele>45.32</ele>
        <time>2012-06-17T06:43:49Z</time>
      </trkpt>
      <trkpt lat="47.7971" lon="-3.51936">
        <ele>46.28</ele>
        <time>2012-06-17T06:44:00Z</time>
      </trkpt>
      <trkpt lat="47.79723" lon="-3.51926">
        <ele>49.65</ele>
        <time>2012-06-17T06:44:05Z</time>
      </trkpt>
      <trkpt lat="47.79742" lon="-3.51914">
        <ele>55.89</ele>
        <time>2012-06-17T06:44:10Z</time>
      </trkpt>
      <trkpt lat="47.7979" lon="-3.519">
        <ele>54.93</ele>
        <time>2012-06-17T06:44:19Z</time>
      </trkpt>
      <trkpt lat="47.79814" lon="-3.5188">
        <ele>51.57</ele>
        <time>2012-06-17T06:44:23Z</time>
      </trkpt>
      <trkpt lat="47.79859" lon="-3.5184">
        <ele>47.72</ele>
        <time>2012-06-17T06:44:35Z</time>
      </trkpt>
      <trkpt lat="47.799" lon="-3.51809">
        <ele>53.97</ele>
        <time>2012-06-17T06:44:46Z</time>
      </trkpt>
      <trkpt lat="47.79904" lon="-3.51807">
        <ele>54.93</ele>
        <time>2012-06-17T06:44:47Z</time>
      </trkpt>
      <trkpt lat="47.79945" lon="-3.51797">
        <ele>56.37</ele>
        <time>2012-06-17T06:44:57Z</time>
      </trkpt>
      <trkpt lat="47.79954" lon="-3.51797">
        <ele>56.86</ele>
        <time>2012-06-17T06:44:59Z</time>
      </trkpt>
      <trkpt lat="47.79988" lon="-3.518">
        <ele>53.97</ele>
        <time>2012-06-17T06:45:03Z</time>
      </trkpt>
      <trkpt lat="47.8001" lon="-3.51816">
        <ele>51.09</ele>
        <time>2012-06-17T06:45:06Z</time>
      </trkpt>
      <trkpt lat="47.80033" lon="-3.51827">
        <ele>50.13</ele>
        <time>2012-06-17T06:45:09Z</time>
      </trkpt>
      <trkpt lat="47.80056" lon="-3.5182">
        <ele>48.68</ele>
        <time>2012-06-17T06:45:13Z</time>
      </trkpt>
      <trkpt lat="47.80097" lon="-3.51791">
        <ele>45.32</ele>
        <time>2012-06-17T06:45:22Z</time>
      </trkpt>
      <trkpt lat="47.80121" lon="-3.51755">
        <ele>55.89</ele>
        <time>2012-06-17T06:45:33Z</time>
      </trkpt>
      <trkpt lat="47.80129" lon="-3.51724">
        <ele>54.93</ele>
        <time>2012-06-17T06:45:41Z</time>
      </trkpt>
      <trkpt lat="47.80134" lon="-3.51688">
        <ele>51.09</ele>
        <time>2012-06-17T06:45:46Z</time>
      </trkpt>
      <trkpt lat="47.80155" lon="-3.51688">
        <ele>47.72</ele>
        <time>2012-06-17T06:45:52Z</time>
      </trkpt>
      <trkpt lat="47.80184" lon="-3.51705">
        <ele>43.88</ele>
        <time>2012-06-17T06:45:58Z</time>
      </trkpt>
      <trkpt lat="47.80209" lon="-3.51699">
        <ele>44.84</ele>
        <time>2012-06-17T06:46:04Z</time>
      </trkpt>
      <trkpt lat="47.8023" lon="-3.51697">
        <ele>47.72</ele>
        <time>2012-06-17T06:46:09Z</time>
      </trkpt>
      <trkpt lat="47.80262" lon="-3.517">
        <ele>50.13</ele>
        <time>2012-06-17T06:46:19Z</time>
      </trkpt>
      <trkpt lat="47.80306" lon="-3.51712">
        <ele>49.65</ele>
        <time>2012-06-17T06:46:29Z</time>
      </trkpt>
      <trkpt lat="47.80332" lon="-3.51717">
        <ele>53.49</ele>
        <time>2012-06-17T06:46:35Z</time>
      </trkpt>
      <trkpt lat="47.80365" lon="-3.51698">
        <ele>61.66</ele>
        <time>2012-06-17T06:46:42Z</time>
      </trkpt>
      <trkpt lat="47.80372" lon="-3.51693">
        <ele>58.78</ele>
        <time>2012-06-17T06:46:44Z</time>
      </trkpt>
      <trkpt lat="47.8039" lon="-3.51727">
        <ele>49.65</ele>
        <time>2012-06-17T06:46:54Z</time>
      </trkpt>
      <trkpt lat="47.80398" lon="-3.51748">
        <ele>49.65</ele>
        <time>2012-06-17T06:46:59Z</time>
      </trkpt>
      <trkpt lat="47.804" lon="-3.5178">
        <ele>47.24</ele>
        <time>2012-06-17T06:47:06Z</time>
      </trkpt>
      <trkpt lat="47.8042" lon="-3.51822">
        <ele>42.44</ele>
        <time>2012-06-17T06:47:17Z</time>
      </trkpt>
      <trkpt lat="47.80435" lon="-3.51803">
        <ele>34.26</ele>
        <time>2012-06-17T06:47:25Z</time>
      </trkpt>
      <trkpt lat="47.80435" lon="-3.51802">
        <ele>34.26</ele>
        <time>2012-06-17T06:47:26Z</time>
      </trkpt>
      <trkpt lat="47.8044" lon="-3.51797">
        <ele>33.3</ele>
        <time>2012-06-17T06:47:30Z</time>
      </trkpt>
      <trkpt lat="47.80448" lon="-3.51785">
        <ele>31.38</ele>
        <time>2012-06-17T06:47:36Z</time>
      </trkpt>
      <trkpt lat="47.80453" lon="-3.5178">
        <ele>28.98</ele>
        <time>2012-06-17T06:47:43Z</time>
      </trkpt>
      <trkpt lat="47.80455" lon="-3.51789">
        <ele>27.53</ele>
        <time>2012-06-17T06:47:49Z</time>
      </trkpt>
      <trkpt lat="47.80458" lon="-3.51794">
        <ele>25.61</ele>
        <time>2012-06-17T06:48:02Z</time>
      </trkpt>
      <trkpt lat="47.80461" lon="-3.51796">
        <ele>24.65</ele>
        <time>2012-06-17T06:48:08Z</time>
      </trkpt>
      <trkpt lat="47.80475" lon="-3.51776">
        <ele>24.65</ele>
        <time>2012-06-17T06:48:16Z</time>
      </trkpt>
      <trkpt lat="47.80478" lon="-3.51769">
        <ele>24.65</ele>
        <time>2012-06-17T06:48:18Z</time>
      </trkpt>
      <trkpt lat="47.80476" lon="-3.51762">
        <ele>23.69</ele>
        <time>2012-06-17T06:48:25Z</time>
      </trkpt>
      <trkpt lat="47.80472" lon="-3.51749">
        <ele>24.17</ele>
        <time>2012-06-17T06:48:36Z</time>
      </trkpt>
      <trkpt lat="47.80469" lon="-3.51744">
        <ele>23.21</ele>
        <time>2012-06-17T06:48:59Z</time>
      </trkpt>
      <trkpt lat="47.80468" lon="-3.51735">
        <ele>23.21</ele>
        <time>2012-06-17T06:49:02Z</time>
      </trkpt>
      <trkpt lat="47.8047" lon="-3.51728">
        <ele>23.21</ele>
        <time>2012-06-17T06:49:06Z</time>
      </trkpt>
      <trkpt lat="47.80466" lon="-3.51696">
        <ele>22.73</ele>
        <time>2012-06-17T06:49:15Z</time>
      </trkpt>
      <trkpt lat="47.80467" lon="-3.51689">
        <ele>21.77</ele>
        <time>2012-06-17T06:49:17Z</time>
      </trkpt>
      <trkpt lat="47.80465" lon="-3.51668">
        <ele>16.48</ele>
        <time>2012-06-17T06:49:28Z</time>
      </trkpt>
      <trkpt lat="47.80453" lon="-3.51665">
        <ele>12.63</ele>
        <time>2012-06-17T06:49:53Z</time>
      </trkpt>
      <trkpt lat="47.80457" lon="-3.51668">
        <ele>11.19</ele>
        <time>2012-06-17T06:50:10Z</time>
      </trkpt>
      <trkpt lat="47.80468" lon="-3.51657">
        <ele>11.19</ele>
        <time>2012-06-17T06:50:26Z</time>
      </trkpt>
      <trkpt lat="47.80474" lon="-3.51638">
        <ele>11.67</ele>
        <time>2012-06-17T06:50:32Z</time>
      </trkpt>
      <trkpt lat="47.80484" lon="-3.51635">
        <ele>9.27</ele>
        <time>2012-06-17T06:50:38Z</time>
      </trkpt>
      <trkpt lat="47.80488" lon="-3.51625">
        <ele>6.39</ele>
        <time>2012-06-17T06:50:49Z</time>
      </trkpt>
      <trkpt lat="47.8049" lon="-3.51627">
        <ele>8.79</ele>
        <time>2012-06-17T06:51:09Z</time>
      </trkpt>
      <trkpt lat="47.80503" lon="-3.5164">
        <ele>16.48</ele>
        <time>2012-06-17T06:51:18Z</time>
      </trkpt>
      <trkpt lat="47.80512" lon="-3.51655">
        <ele>18.4</ele>
        <time>2012-06-17T06:51:27Z</time>
      </trkpt>
      <trkpt lat="47.80512" lon="-3.51663">
        <ele>17.92</ele>
        <time>2012-06-17T06:51:33Z</time>
      </trkpt>
      <trkpt lat="47.80517" lon="-3.51706">
        <ele>19.84</ele>
        <time>2012-06-17T06:51:47Z</time>
      </trkpt>
      <trkpt lat="47.8053" lon="-3.51757">
        <ele>17.92</ele>
        <time>2012-06-17T06:51:57Z</time>
      </trkpt>
      <trkpt lat="47.80541" lon="-3.51803">
        <ele>13.6</ele>
        <time>2012-06-17T06:52:09Z</time>
      </trkpt>
      <trkpt lat="47.80547" lon="-3.51836">
        <ele>11.67</ele>
        <time>2012-06-17T06:52:18Z</time>
      </trkpt>
      <trkpt lat="47.80545" lon="-3.51852">
        <ele>10.23</ele>
        <time>2012-06-17T06:52:21Z</time>
      </trkpt>
      <trkpt lat="47.80545" lon="-3.51861">
        <ele>8.79</ele>
        <time>2012-06-17T06:52:24Z</time>
      </trkpt>
      <trkpt lat="47.80545" lon="-3.51879">
        <ele>6.87</ele>
        <time>2012-06-17T06:52:33Z</time>
      </trkpt>
      <trkpt lat="47.80545" lon="-3.51889">
        <ele>9.75</ele>
        <time>2012-06-17T06:52:48Z</time>
      </trkpt>
      <trkpt lat="47.80552" lon="-3.51897">
        <ele>11.19</ele>
        <time>2012-06-17T06:52:59Z</time>
      </trkpt>
      <trkpt lat="47.80551" lon="-3.51898">
        <ele>11.19</ele>
        <time>2012-06-17T06:53:00Z</time>
      </trkpt>
      <trkpt lat="47.80553" lon="-3.51911">
        <ele>16.48</ele>
        <time>2012-06-17T06:53:14Z</time>
      </trkpt>
      <trkpt lat="47.80553" lon="-3.51915">
        <ele>17.44</ele>
        <time>2012-06-17T06:53:29Z</time>
      </trkpt>
      <trkpt lat="47.80553" lon="-3.51917">
        <ele>17.44</ele>
        <time>2012-06-17T06:53:34Z</time>
      </trkpt>
      <trkpt lat="47.80553" lon="-3.5192">
        <ele>17.44</ele>
        <time>2012-06-17T06:53:36Z</time>
      </trkpt>
      <trkpt lat="47.80555" lon="-3.51935">
        <ele>15.52</ele>
        <time>2012-06-17T06:53:46Z</time>
      </trkpt>
      <trkpt lat="47.8056" lon="-3.51959">
        <ele>15.04</ele>
        <time>2012-06-17T06:53:55Z</time>
      </trkpt>
      <trkpt lat="47.80561" lon="-3.51965">
        <ele>14.56</ele>
        <time>2012-06-17T06:54:01Z</time>
      </trkpt>
      <trkpt lat="47.8056" lon="-3.51974">
        <ele>13.12</ele>
        <time>2012-06-17T06:54:05Z</time>
      </trkpt>
      <trkpt lat="47.80564" lon="-3.51987">
        <ele>12.15</ele>
        <time>2012-06-17T06:54:19Z</time>
      </trkpt>
      <trkpt lat="47.80566" lon="-3.51993">
        <ele>12.15</ele>
        <time>2012-06-17T06:54:22Z</time>
      </trkpt>
      <trkpt lat="47.80568" lon="-3.51999">
        <ele>11.19</ele>
        <time>2012-06-17T06:54:36Z</time>
      </trkpt>
      <trkpt lat="47.80566" lon="-3.52006">
        <ele>10.71</ele>
        <time>2012-06-17T06:54:40Z</time>
      </trkpt>
      <trkpt lat="47.80559" lon="-3.5206">
        <ele>6.87</ele>
        <time>2012-06-17T06:54:50Z</time>
      </trkpt>
      <trkpt lat="47.80545" lon="-3.521">
        <ele>-1.79</ele>
        <time>2012-06-17T06:54:59Z</time>
      </trkpt>
      <trkpt lat="47.80533" lon="-3.52114">
        <ele>0.14</ele>
        <time>2012-06-17T06:55:09Z</time>
      </trkpt>
      <trkpt lat="47.80535" lon="-3.52124">
        <ele>0.62</ele>
        <time>2012-06-17T06:55:26Z</time>
      </trkpt>
      <trkpt lat="47.80536" lon="-3.52136">
        <ele>6.87</ele>
        <time>2012-06-17T06:55:36Z</time>
      </trkpt>
      <trkpt lat="47.80536" lon="-3.52136">
        <ele>7.35</ele>
        <time>2012-06-17T06:55:38Z</time>
      </trkpt>
      <trkpt lat="47.8055" lon="-3.52151">
        <ele>11.19</ele>
        <time>2012-06-17T06:55:52Z</time>
      </trkpt>
      <trkpt lat="47.80551" lon="-3.52152">
        <ele>11.67</ele>
        <time>2012-06-17T06:55:53Z</time>
      </trkpt>
      <trkpt lat="47.8056" lon="-3.52157">
        <ele>12.63</ele>
        <time>2012-06-17T06:55:58Z</time>
      </trkpt>
      <trkpt lat="47.80566" lon="-3.52147">
        <ele>13.6</ele>
        <time>2012-06-17T06:56:05Z</time>
      </trkpt>
      <trkpt lat="47.80573" lon="-3.52112">
        <ele>16</ele>
        <time>2012-06-17T06:56:19Z</time>
      </trkpt>
      <trkpt lat="47.80591" lon="-3.52076">
        <ele>21.77</ele>
        <time>2012-06-17T06:56:33Z</time>
      </trkpt>
      <trkpt lat="47.80599" lon="-3.52048">
        <ele>25.13</ele>
        <time>2012-06-17T06:56:42Z</time>
      </trkpt>
      <trkpt lat="47.80601" lon="-3.51993">
        <ele>28.5</ele>
        <time>2012-06-17T06:56:57Z</time>
      </trkpt>
      <trkpt lat="47.80604" lon="-3.51955">
        <ele>28.02</ele>
        <time>2012-06-17T06:57:09Z</time>
      </trkpt>
      <trkpt lat="47.80598" lon="-3.51907">
        <ele>30.42</ele>
        <time>2012-06-17T06:57:22Z</time>
      </trkpt>
      <trkpt lat="47.80594" lon="-3.51843">
        <ele>29.94</ele>
        <time>2012-06-17T06:57:37Z</time>
      </trkpt>
      <trkpt lat="47.80603" lon="-3.51779">
        <ele>33.78</ele>
        <time>2012-06-17T06:57:53Z</time>
      </trkpt>
      <trkpt lat="47.8061" lon="-3.51769">
        <ele>34.74</ele>
        <time>2012-06-17T06:57:59Z</time>
      </trkpt>
      <trkpt lat="47.80607" lon="-3.51776">
        <ele>34.74</ele>
        <time>2012-06-17T06:58:08Z</time>
      </trkpt>
      <trkpt lat="47.80611" lon="-3.51775">
        <ele>34.74</ele>
        <time>2012-06-17T06:58:11Z</time>
      </trkpt>
      <trkpt lat="47.80618" lon="-3.51774">
        <ele>36.19</ele>
        <time>2012-06-17T06:58:16Z</time>
      </trkpt>
      <trkpt lat="47.80668" lon="-3.51793">
        <ele>39.55</ele>
        <time>2012-06-17T06:58:36Z</time>
      </trkpt>
      <trkpt lat="47.80707" lon="-3.51812">
        <ele>43.88</ele>
        <time>2012-06-17T06:58:50Z</time>
      </trkpt>
      <trkpt lat="47.80749" lon="-3.51862">
        <ele>44.84</ele>
        <time>2012-06-17T06:59:03Z</time>
      </trkpt>
      <trkpt lat="47.80806" lon="-3.51918">
        <ele>44.84</ele>
        <time>2012-06-17T06:59:14Z</time>
      </trkpt>
      <trkpt lat="47.80936" lon="-3.52014">
        <ele>40.99</ele>
        <time>2012-06-17T06:59:35Z</time>
      </trkpt>
      <trkpt lat="47.81006" lon="-3.52052">
        <ele>38.11</ele>
        <time>2012-06-17T06:59:46Z</time>
      </trkpt>
      <trkpt lat="47.81038" lon="-3.52066">
        <ele>40.03</ele>
        <time>2012-06-17T06:59:55Z</time>
      </trkpt>
      <trkpt lat="47.8104" lon="-3.52068">
        <ele>40.99</ele>
        <time>2012-06-17T07:00:06Z</time>
      </trkpt>
      <trkpt lat="47.81041" lon="-3.52068">
        <ele>40.03</ele>
        <time>2012-06-17T07:00:35Z</time>
      </trkpt>
      <trkpt lat="47.81042" lon="-3.52069">
        <ele>39.55</ele>
        <time>2012-06-17T07:00:39Z</time>
      </trkpt>
      <trkpt lat="47.81036" lon="-3.52098">
        <ele>37.15</ele>
        <time>2012-06-17T07:00:48Z</time>
      </trkpt>
      <trkpt lat="47.81035" lon="-3.52116">
        <ele>36.19</ele>
        <time>2012-06-17T07:00:51Z</time>
      </trkpt>
      <trkpt lat="47.81048" lon="-3.5216">
        <ele>32.34</ele>
        <time>2012-06-17T07:00:57Z</time>
      </trkpt>
      <trkpt lat="47.81152" lon="-3.52269">
        <ele>25.61</ele>
        <time>2012-06-17T07:01:11Z</time>
      </trkpt>
      <trkpt lat="47.81178" lon="-3.52297">
        <ele>24.17</ele>
        <time>2012-06-17T07:01:15Z</time>
      </trkpt>
      <trkpt lat="47.812" lon="-3.52338">
        <ele>22.25</ele>
        <time>2012-06-17T07:01:20Z</time>
      </trkpt>
      <trkpt lat="47.8124" lon="-3.52447">
        <ele>15.52</ele>
        <time>2012-06-17T07:01:28Z</time>
      </trkpt>
      <trkpt lat="47.81269" lon="-3.52475">
        <ele>13.6</ele>
        <time>2012-06-17T07:01:32Z</time>
      </trkpt>
      <trkpt lat="47.81284" lon="-3.52478">
        <ele>13.12</ele>
        <time>2012-06-17T07:01:34Z</time>
      </trkpt>
      <trkpt lat="47.81313" lon="-3.52509">
        <ele>9.75</ele>
        <time>2012-06-17T07:01:39Z</time>
      </trkpt>
      <trkpt lat="47.81335" lon="-3.52572">
        <ele>14.08</ele>
        <time>2012-06-17T07:01:49Z</time>
      </trkpt>
      <trkpt lat="47.81355" lon="-3.5262">
        <ele>21.77</ele>
        <time>2012-06-17T07:02:03Z</time>
      </trkpt>
      <trkpt lat="47.81368" lon="-3.52634">
        <ele>24.17</ele>
        <time>2012-06-17T07:02:09Z</time>
      </trkpt>
      <trkpt lat="47.81376" lon="-3.52637">
        <ele>25.13</ele>
        <time>2012-06-17T07:02:13Z</time>
      </trkpt>
      <trkpt lat="47.81409" lon="-3.52649">
        <ele>33.3</ele>
        <time>2012-06-17T07:02:29Z</time>
      </trkpt>
      <trkpt lat="47.81434" lon="-3.52653">
        <ele>41.47</ele>
        <time>2012-06-17T07:02:43Z</time>
      </trkpt>
      <trkpt lat="47.81457" lon="-3.52644">
        <ele>40.03</ele>
        <time>2012-06-17T07:02:57Z</time>
      </trkpt>
      <trkpt lat="47.8146" lon="-3.52644">
        <ele>40.99</ele>
        <time>2012-06-17T07:02:59Z</time>
      </trkpt>
      <trkpt lat="47.81484" lon="-3.52639">
        <ele>41.95</ele>
        <time>2012-06-17T07:03:11Z</time>
      </trkpt>
      <trkpt lat="47.81536" lon="-3.52616">
        <ele>38.59</ele>
        <time>2012-06-17T07:03:30Z</time>
      </trkpt>
      <trkpt lat="47.81598" lon="-3.52595">
        <ele>37.63</ele>
        <time>2012-06-17T07:03:50Z</time>
      </trkpt>
      <trkpt lat="47.81625" lon="-3.5259">
        <ele>39.07</ele>
        <time>2012-06-17T07:03:59Z</time>
      </trkpt>
      <trkpt lat="47.81632" lon="-3.52632">
        <ele>42.92</ele>
        <time>2012-06-17T07:04:09Z</time>
      </trkpt>
      <trkpt lat="47.81623" lon="-3.52736">
        <ele>44.84</ele>
        <time>2012-06-17T07:04:27Z</time>
      </trkpt>
      <trkpt lat="47.81626" lon="-3.52885">
        <ele>45.32</ele>
        <time>2012-06-17T07:04:45Z</time>
      </trkpt>
      <trkpt lat="47.81629" lon="-3.53049">
        <ele>43.4</ele>
        <time>2012-06-17T07:05:05Z</time>
      </trkpt>
      <trkpt lat="47.81604" lon="-3.53109">
        <ele>41.95</ele>
        <time>2012-06-17T07:05:14Z</time>
      </trkpt>
      <trkpt lat="47.81588" lon="-3.53098">
        <ele>40.99</ele>
        <time>2012-06-17T07:05:17Z</time>
      </trkpt>
      <trkpt lat="47.81512" lon="-3.53031">
        <ele>39.07</ele>
        <time>2012-06-17T07:05:30Z</time>
      </trkpt>
      <trkpt lat="47.81496" lon="-3.53011">
        <ele>40.99</ele>
        <time>2012-06-17T07:05:34Z</time>
      </trkpt>
      <trkpt lat="47.81487" lon="-3.52983">
        <ele>42.44</ele>
        <time>2012-06-17T07:05:38Z</time>
      </trkpt>
      <trkpt lat="47.81461" lon="-3.52973">
        <ele>43.88</ele>
        <time>2012-06-17T07:05:45Z</time>
      </trkpt>
      <trkpt lat="47.81439" lon="-3.52987">
        <ele>45.32</ele>
        <time>2012-06-17T07:05:50Z</time>
      </trkpt>
      <trkpt lat="47.81399" lon="-3.53009">
        <ele>48.68</ele>
        <time>2012-06-17T07:05:59Z</time>
      </trkpt>
      <trkpt lat="47.81395" lon="-3.53011">
        <ele>48.68</ele>
        <time>2012-06-17T07:06:00Z</time>
      </trkpt>
      <trkpt lat="47.81383" lon="-3.5304">
        <ele>46.76</ele>
        <time>2012-06-17T07:06:05Z</time>
      </trkpt>
      <trkpt lat="47.81378" lon="-3.53046">
        <ele>46.76</ele>
        <time>2012-06-17T07:06:07Z</time>
      </trkpt>
      <trkpt lat="47.81378" lon="-3.53063">
        <ele>46.76</ele>
        <time>2012-06-17T07:06:10Z</time>
      </trkpt>
      <trkpt lat="47.81376" lon="-3.53074">
        <ele>47.72</ele>
        <time>2012-06-17T07:06:14Z</time>
      </trkpt>
      <trkpt lat="47.81367" lon="-3.53072">
        <ele>49.65</ele>
        <time>2012-06-17T07:06:19Z</time>
      </trkpt>
      <trkpt lat="47.81353" lon="-3.53067">
        <ele>51.09</ele>
        <time>2012-06-17T07:06:24Z</time>
      </trkpt>
      <trkpt lat="47.81345" lon="-3.53067">
        <ele>51.57</ele>
        <time>2012-06-17T07:06:28Z</time>
      </trkpt>
      <trkpt lat="47.81342" lon="-3.53069">
        <ele>52.53</ele>
        <time>2012-06-17T07:06:30Z</time>
      </trkpt>
      <trkpt lat="47.8134" lon="-3.53065">
        <ele>56.37</ele>
        <time>2012-06-17T07:06:45Z</time>
      </trkpt>
      <trkpt lat="47.8134" lon="-3.53065">
        <ele>56.86</ele>
        <time>2012-06-17T07:06:48Z</time>
      </trkpt>
      <trkpt lat="47.81339" lon="-3.53064">
        <ele>53.97</ele>
        <time>2012-06-17T07:06:51Z</time>
      </trkpt>
      <trkpt lat="47.81332" lon="-3.53073">
        <ele>47.24</ele>
        <time>2012-06-17T07:06:55Z</time>
      </trkpt>
      <trkpt lat="47.81332" lon="-3.53098">
        <ele>42.44</ele>
        <time>2012-06-17T07:06:59Z</time>
      </trkpt>
      <trkpt lat="47.81334" lon="-3.53128">
        <ele>33.78</ele>
        <time>2012-06-17T07:07:07Z</time>
      </trkpt>
      <trkpt lat="47.81335" lon="-3.53134">
        <ele>31.86</ele>
        <time>2012-06-17T07:07:11Z</time>
      </trkpt>
      <trkpt lat="47.81342" lon="-3.53145">
        <ele>30.9</ele>
        <time>2012-06-17T07:07:15Z</time>
      </trkpt>
      <trkpt lat="47.81361" lon="-3.53152">
        <ele>28.98</ele>
        <time>2012-06-17T07:07:23Z</time>
      </trkpt>
      <trkpt lat="47.81362" lon="-3.53152">
        <ele>28.98</ele>
        <time>2012-06-17T07:07:24Z</time>
      </trkpt>
      <trkpt lat="47.81365" lon="-3.53156">
        <ele>29.46</ele>
        <time>2012-06-17T07:07:28Z</time>
      </trkpt>
      <trkpt lat="47.81361" lon="-3.53172">
        <ele>28.02</ele>
        <time>2012-06-17T07:07:32Z</time>
      </trkpt>
      <trkpt lat="47.81352" lon="-3.53179">
        <ele>28.02</ele>
        <time>2012-06-17T07:07:37Z</time>
      </trkpt>
      <trkpt lat="47.81353" lon="-3.53225">
        <ele>29.46</ele>
        <time>2012-06-17T07:07:46Z</time>
      </trkpt>
      <trkpt lat="47.81358" lon="-3.5325">
        <ele>30.42</ele>
        <time>2012-06-17T07:07:51Z</time>
      </trkpt>
      <trkpt lat="47.81374" lon="-3.5328">
        <ele>29.94</ele>
        <time>2012-06-17T07:07:57Z</time>
      </trkpt>
      <trkpt lat="47.81376" lon="-3.53312">
        <ele>28.5</ele>
        <time>2012-06-17T07:08:02Z</time>
      </trkpt>
      <trkpt lat="47.81392" lon="-3.5336">
        <ele>25.61</ele>
        <time>2012-06-17T07:08:11Z</time>
      </trkpt>
      <trkpt lat="47.81397" lon="-3.53369">
        <ele>24.65</ele>
        <time>2012-06-17T07:08:13Z</time>
      </trkpt>
      <trkpt lat="47.81414" lon="-3.53401">
        <ele>22.73</ele>
        <time>2012-06-17T07:08:20Z</time>
      </trkpt>
      <trkpt lat="47.81426" lon="-3.53414">
        <ele>22.25</ele>
        <time>2012-06-17T07:08:24Z</time>
      </trkpt>
      <trkpt lat="47.81437" lon="-3.53428">
        <ele>15.04</ele>
        <time>2012-06-17T07:08:29Z</time>
      </trkpt>
      <trkpt lat="47.81452" lon="-3.53455">
        <ele>12.63</ele>
        <time>2012-06-17T07:08:33Z</time>
      </trkpt>
      <trkpt lat="47.81461" lon="-3.53478">
        <ele>11.67</ele>
        <time>2012-06-17T07:08:36Z</time>
      </trkpt>
      <trkpt lat="47.81481" lon="-3.53499">
        <ele>11.67</ele>
        <time>2012-06-17T07:08:41Z</time>
      </trkpt>
      <trkpt lat="47.81515" lon="-3.53523">
        <ele>12.63</ele>
        <time>2012-06-17T07:08:50Z</time>
      </trkpt>
      <trkpt lat="47.81546" lon="-3.53543">
        <ele>13.6</ele>
        <time>2012-06-17T07:08:58Z</time>
      </trkpt>
      <trkpt lat="47.81575" lon="-3.53558">
        <ele>15.04</ele>
        <time>2012-06-17T07:09:05Z</time>
      </trkpt>
      <trkpt lat="47.8158" lon="-3.53566">
        <ele>14.08</ele>
        <time>2012-06-17T07:09:07Z</time>
      </trkpt>
      <trkpt lat="47.81594" lon="-3.53581">
        <ele>15.52</ele>
        <time>2012-06-17T07:09:12Z</time>
      </trkpt>
      <trkpt lat="47.8161" lon="-3.53587">
        <ele>16</ele>
        <time>2012-06-17T07:09:16Z</time>
      </trkpt>
      <trkpt lat="47.81623" lon="-3.53588">
        <ele>15.52</ele>
        <time>2012-06-17T07:09:19Z</time>
      </trkpt>
      <trkpt lat="47.81642" lon="-3.53583">
        <ele>14.56</ele>
        <time>2012-06-17T07:09:23Z</time>
      </trkpt>
      <trkpt lat="47.8165" lon="-3.53578">
        <ele>16.48</ele>
        <time>2012-06-17T07:09:26Z</time>
      </trkpt>
      <trkpt lat="47.81668" lon="-3.53572">
        <ele>16</ele>
        <time>2012-06-17T07:09:35Z</time>
      </trkpt>
      <trkpt lat="47.81677" lon="-3.53568">
        <ele>16.96</ele>
        <time>2012-06-17T07:09:39Z</time>
      </trkpt>
      <trkpt lat="47.8169" lon="-3.53559">
        <ele>17.92</ele>
        <time>2012-06-17T07:09:43Z</time>
      </trkpt>
      <trkpt lat="47.81707" lon="-3.53543">
        <ele>20.81</ele>
        <time>2012-06-17T07:09:51Z</time>
      </trkpt>
      <trkpt lat="47.81725" lon="-3.53538">
        <ele>25.61</ele>
        <time>2012-06-17T07:10:01Z</time>
      </trkpt>
      <trkpt lat="47.81747" lon="-3.53521">
        <ele>28.98</ele>
        <time>2012-06-17T07:10:06Z</time>
      </trkpt>
      <trkpt lat="47.81763" lon="-3.53527">
        <ele>32.82</ele>
        <time>2012-06-17T07:10:18Z</time>
      </trkpt>
      <trkpt lat="47.81774" lon="-3.53514">
        <ele>38.11</ele>
        <time>2012-06-17T07:10:28Z</time>
      </trkpt>
      <trkpt lat="47.81773" lon="-3.53512">
        <ele>40.03</ele>
        <time>2012-06-17T07:10:33Z</time>
      </trkpt>
      <trkpt lat="47.81778" lon="-3.53506">
        <ele>41.47</ele>
        <time>2012-06-17T07:10:42Z</time>
      </trkpt>
      <trkpt lat="47.81786" lon="-3.53503">
        <ele>41.47</ele>
        <time>2012-06-17T07:10:52Z</time>
      </trkpt>
      <trkpt lat="47.81791" lon="-3.53493">
        <ele>40.99</ele>
        <time>2012-06-17T07:11:09Z</time>
      </trkpt>
      <trkpt lat="47.81795" lon="-3.53472">
        <ele>39.55</ele>
        <time>2012-06-17T07:11:40Z</time>
      </trkpt>
      <trkpt lat="47.81794" lon="-3.53454">
        <ele>40.03</ele>
        <time>2012-06-17T07:11:59Z</time>
      </trkpt>
      <trkpt lat="47.81799" lon="-3.53434">
        <ele>39.55</ele>
        <time>2012-06-17T07:12:21Z</time>
      </trkpt>
      <trkpt lat="47.81815" lon="-3.53406">
        <ele>38.11</ele>
        <time>2012-06-17T07:12:41Z</time>
      </trkpt>
      <trkpt lat="47.8182" lon="-3.53397">
        <ele>36.67</ele>
        <time>2012-06-17T07:12:47Z</time>
      </trkpt>
      <trkpt lat="47.81828" lon="-3.53389">
        <ele>36.19</ele>
        <time>2012-06-17T07:12:55Z</time>
      </trkpt>
      <trkpt lat="47.81834" lon="-3.53384">
        <ele>36.19</ele>
        <time>2012-06-17T07:13:01Z</time>
      </trkpt>
      <trkpt lat="47.81835" lon="-3.53378">
        <ele>36.67</ele>
        <time>2012-06-17T07:13:05Z</time>
      </trkpt>
      <trkpt lat="47.81838" lon="-3.53368">
        <ele>38.11</ele>
        <time>2012-06-17T07:13:14Z</time>
      </trkpt>
      <trkpt lat="47.81839" lon="-3.5336">
        <ele>37.15</ele>
        <time>2012-06-17T07:13:28Z</time>
      </trkpt>
      <trkpt lat="47.81843" lon="-3.53352">
        <ele>36.67</ele>
        <time>2012-06-17T07:13:36Z</time>
      </trkpt>
      <trkpt lat="47.81847" lon="-3.53338">
        <ele>36.19</ele>
        <time>2012-06-17T07:13:45Z</time>
      </trkpt>
      <trkpt lat="47.81864" lon="-3.53317">
        <ele>35.71</ele>
        <time>2012-06-17T07:13:53Z</time>
      </trkpt>
      <trkpt lat="47.81882" lon="-3.53282">
        <ele>33.78</ele>
        <time>2012-06-17T07:13:57Z</time>
      </trkpt>
      <trkpt lat="47.81918" lon="-3.53251">
        <ele>33.78</ele>
        <time>2012-06-17T07:14:04Z</time>
      </trkpt>
      <trkpt lat="47.81936" lon="-3.53232">
        <ele>34.74</ele>
        <time>2012-06-17T07:14:11Z</time>
      </trkpt>
      <trkpt lat="47.81941" lon="-3.53204">
        <ele>35.71</ele>
        <time>2012-06-17T07:14:18Z</time>
      </trkpt>
      <trkpt lat="47.81943" lon="-3.53191">
        <ele>35.71</ele>
        <time>2012-06-17T07:14:24Z</time>
      </trkpt>
      <trkpt lat="47.81951" lon="-3.53185">
        <ele>36.67</ele>
        <time>2012-06-17T07:14:28Z</time>
      </trkpt>
      <trkpt lat="47.81966" lon="-3.53166">
        <ele>32.34</ele>
        <time>2012-06-17T07:14:37Z</time>
      </trkpt>
      <trkpt lat="47.81972" lon="-3.53173">
        <ele>31.38</ele>
        <time>2012-06-17T07:14:39Z</time>
      </trkpt>
      <trkpt lat="47.81978" lon="-3.53181">
        <ele>29.94</ele>
        <time>2012-06-17T07:14:41Z</time>
      </trkpt>
      <trkpt lat="47.8199" lon="-3.53195">
        <ele>26.57</ele>
        <time>2012-06-17T07:14:44Z</time>
      </trkpt>
      <trkpt lat="47.82001" lon="-3.53199">
        <ele>24.65</ele>
        <time>2012-06-17T07:14:47Z</time>
      </trkpt>
      <trkpt lat="47.82014" lon="-3.53226">
        <ele>18.88</ele>
        <time>2012-06-17T07:14:53Z</time>
      </trkpt>
      <trkpt lat="47.82017" lon="-3.53231">
        <ele>15.52</ele>
        <time>2012-06-17T07:14:55Z</time>
      </trkpt>
      <trkpt lat="47.82035" lon="-3.53246">
        <ele>8.79</ele>
        <time>2012-06-17T07:14:59Z</time>
      </trkpt>
      <trkpt lat="47.8206" lon="-3.53265">
        <ele>4.46</ele>
        <time>2012-06-17T07:15:04Z</time>
      </trkpt>
      <trkpt lat="47.82079" lon="-3.53281">
        <ele>2.06</ele>
        <time>2012-06-17T07:15:07Z</time>
      </trkpt>
      <trkpt lat="47.82105" lon="-3.53309">
        <ele>0.14</ele>
        <time>2012-06-17T07:15:11Z</time>
      </trkpt>
      <trkpt lat="47.8212" lon="-3.53324">
        <ele>0.14</ele>
        <time>2012-06-17T07:15:14Z</time>
      </trkpt>
      <trkpt lat="47.82142" lon="-3.53358">
        <ele>-2.75</ele>
        <time>2012-06-17T07:15:21Z</time>
      </trkpt>
      <trkpt lat="47.82153" lon="-3.53377">
        <ele>-2.27</ele>
        <time>2012-06-17T07:15:24Z</time>
      </trkpt>
      <trkpt lat="47.82161" lon="-3.53388">
        <ele>-0.82</ele>
        <time>2012-06-17T07:15:26Z</time>
      </trkpt>
      <trkpt lat="47.82168" lon="-3.53403">
        <ele>1.58</ele>
        <time>2012-06-17T07:15:28Z</time>
      </trkpt>
      <trkpt lat="47.82173" lon="-3.53424">
        <ele>1.58</ele>
        <time>2012-06-17T07:15:31Z</time>
      </trkpt>
      <trkpt lat="47.82199" lon="-3.53437">
        <ele>1.58</ele>
        <time>2012-06-17T07:15:37Z</time>
      </trkpt>
      <trkpt lat="47.82225" lon="-3.53416">
        <ele>0.14</ele>
        <time>2012-06-17T07:15:46Z</time>
      </trkpt>
      <trkpt lat="47.8223" lon="-3.5341">
        <ele>2.06</ele>
        <time>2012-06-17T07:16:16Z</time>
      </trkpt>
      <trkpt lat="47.82238" lon="-3.53405">
        <ele>2.54</ele>
        <time>2012-06-17T07:16:21Z</time>
      </trkpt>
      <trkpt lat="47.82242" lon="-3.53425">
        <ele>3.02</ele>
        <time>2012-06-17T07:16:27Z</time>
      </trkpt>
      <trkpt lat="47.82237" lon="-3.53463">
        <ele>2.54</ele>
        <time>2012-06-17T07:16:37Z</time>
      </trkpt>
      <trkpt lat="47.82232" lon="-3.53486">
        <ele>4.46</ele>
        <time>2012-06-17T07:16:46Z</time>
      </trkpt>
      <trkpt lat="47.82231" lon="-3.5349">
        <ele>4.94</ele>
        <time>2012-06-17T07:16:47Z</time>
      </trkpt>
      <trkpt lat="47.82231" lon="-3.53507">
        <ele>5.91</ele>
        <time>2012-06-17T07:16:51Z</time>
      </trkpt>
      <trkpt lat="47.82235" lon="-3.53524">
        <ele>5.91</ele>
        <time>2012-06-17T07:16:56Z</time>
      </trkpt>
      <trkpt lat="47.82239" lon="-3.53552">
        <ele>5.42</ele>
        <time>2012-06-17T07:17:03Z</time>
      </trkpt>
      <trkpt lat="47.8224" lon="-3.53556">
        <ele>4.94</ele>
        <time>2012-06-17T07:17:04Z</time>
      </trkpt>
      <trkpt lat="47.82249" lon="-3.53588">
        <ele>6.87</ele>
        <time>2012-06-17T07:17:11Z</time>
      </trkpt>
      <trkpt lat="47.82267" lon="-3.53582">
        <ele>7.35</ele>
        <time>2012-06-17T07:17:20Z</time>
      </trkpt>
      <trkpt lat="47.82269" lon="-3.53574">
        <ele>7.35</ele>
        <time>2012-06-17T07:17:30Z</time>
      </trkpt>
      <trkpt lat="47.82269" lon="-3.53568">
        <ele>7.83</ele>
        <time>2012-06-17T07:17:45Z</time>
      </trkpt>
      <trkpt lat="47.82269" lon="-3.53567">
        <ele>7.83</ele>
        <time>2012-06-17T07:17:55Z</time>
      </trkpt>
      <trkpt lat="47.82272" lon="-3.53563">
        <ele>7.83</ele>
        <time>2012-06-17T07:17:58Z</time>
      </trkpt>
      <trkpt lat="47.82286" lon="-3.53543">
        <ele>8.79</ele>
        <time>2012-06-17T07:18:07Z</time>
      </trkpt>
      <trkpt lat="47.82298" lon="-3.53534">
        <ele>10.23</ele>
        <time>2012-06-17T07:18:44Z</time>
      </trkpt>
      <trkpt lat="47.82313" lon="-3.53534">
        <ele>11.67</ele>
        <time>2012-06-17T07:18:53Z</time>
      </trkpt>
      <trkpt lat="47.82324" lon="-3.53544">
        <ele>9.75</ele>
        <time>2012-06-17T07:19:06Z</time>
      </trkpt>
      <trkpt lat="47.82324" lon="-3.53553">
        <ele>10.23</ele>
        <time>2012-06-17T07:19:18Z</time>
      </trkpt>
      <trkpt lat="47.82323" lon="-3.53561">
        <ele>10.71</ele>
        <time>2012-06-17T07:19:22Z</time>
      </trkpt>
      <trkpt lat="47.82321" lon="-3.53569">
        <ele>10.71</ele>
        <time>2012-06-17T07:19:25Z</time>
      </trkpt>
      <trkpt lat="47.82316" lon="-3.53584">
        <ele>10.71</ele>
        <time>2012-06-17T07:19:30Z</time>
      </trkpt>
      <trkpt lat="47.82307" lon="-3.53611">
        <ele>8.79</ele>
        <time>2012-06-17T07:19:35Z</time>
      </trkpt>
      <trkpt lat="47.82298" lon="-3.53641">
        <ele>8.31</ele>
        <time>2012-06-17T07:19:40Z</time>
      </trkpt>
      <trkpt lat="47.82292" lon="-3.53658">
        <ele>9.27</ele>
        <time>2012-06-17T07:19:48Z</time>
      </trkpt>
      <trkpt lat="47.82284" lon="-3.53679">
        <ele>7.35</ele>
        <time>2012-06-17T07:19:55Z</time>
      </trkpt>
      <trkpt lat="47.82283" lon="-3.53693">
        <ele>7.35</ele>
        <time>2012-06-17T07:19:58Z</time>
      </trkpt>
      <trkpt lat="47.82283" lon="-3.53718">
        <ele>6.87</ele>
        <time>2012-06-17T07:20:08Z</time>
      </trkpt>
      <trkpt lat="47.82285" lon="-3.5372">
        <ele>8.79</ele>
        <time>2012-06-17T07:20:24Z</time>
      </trkpt>
      <trkpt lat="47.82291" lon="-3.53734">
        <ele>7.35</ele>
        <time>2012-06-17T07:20:34Z</time>
      </trkpt>
      <trkpt lat="47.82291" lon="-3.53738">
        <ele>8.31</ele>
        <time>2012-06-17T07:20:50Z</time>
      </trkpt>
      <trkpt lat="47.82296" lon="-3.53741">
        <ele>8.79</ele>
        <time>2012-06-17T07:21:11Z</time>
      </trkpt>
      <trkpt lat="47.82304" lon="-3.5375">
        <ele>8.79</ele>
        <time>2012-06-17T07:21:14Z</time>
      </trkpt>
      <trkpt lat="47.82316" lon="-3.53772">
        <ele>8.79</ele>
        <time>2012-06-17T07:21:20Z</time>
      </trkpt>
      <trkpt lat="47.82332" lon="-3.53792">
        <ele>10.71</ele>
        <time>2012-06-17T07:21:30Z</time>
      </trkpt>
      <trkpt lat="47.82339" lon="-3.53792">
        <ele>11.67</ele>
        <time>2012-06-17T07:21:34Z</time>
      </trkpt>
      <trkpt lat="47.82342" lon="-3.53793">
        <ele>12.15</ele>
        <time>2012-06-17T07:21:36Z</time>
      </trkpt>
      <trkpt lat="47.82362" lon="-3.53819">
        <ele>13.12</ele>
        <time>2012-06-17T07:21:44Z</time>
      </trkpt>
      <trkpt lat="47.8237" lon="-3.5383">
        <ele>13.12</ele>
        <time>2012-06-17T07:21:46Z</time>
      </trkpt>
      <trkpt lat="47.82413" lon="-3.53873">
        <ele>13.6</ele>
        <time>2012-06-17T07:21:56Z</time>
      </trkpt>
      <trkpt lat="47.82416" lon="-3.53875">
        <ele>13.6</ele>
        <time>2012-06-17T07:21:57Z</time>
      </trkpt>
      <trkpt lat="47.82433" lon="-3.53879">
        <ele>11.19</ele>
        <time>2012-06-17T07:22:03Z</time>
      </trkpt>
      <trkpt lat="47.82447" lon="-3.53879">
        <ele>10.23</ele>
        <time>2012-06-17T07:22:06Z</time>
      </trkpt>
      <trkpt lat="47.82487" lon="-3.53879">
        <ele>5.42</ele>
        <time>2012-06-17T07:22:15Z</time>
      </trkpt>
      <trkpt lat="47.82513" lon="-3.5388">
        <ele>-5.63</ele>
        <time>2012-06-17T07:22:21Z</time>
      </trkpt>
      <trkpt lat="47.82521" lon="-3.53875">
        <ele>-6.59</ele>
        <time>2012-06-17T07:22:31Z</time>
      </trkpt>
      <trkpt lat="47.82525" lon="-3.53865">
        <ele>-5.63</ele>
        <time>2012-06-17T07:22:39Z</time>
      </trkpt>
      <trkpt lat="47.82527" lon="-3.53853">
        <ele>-3.23</ele>
        <time>2012-06-17T07:22:53Z</time>
      </trkpt>
      <trkpt lat="47.82528" lon="-3.53838">
        <ele>0.14</ele>
        <time>2012-06-17T07:23:11Z</time>
      </trkpt>
      <trkpt lat="47.82531" lon="-3.53828">
        <ele>3.5</ele>
        <time>2012-06-17T07:23:25Z</time>
      </trkpt>
      <trkpt lat="47.82533" lon="-3.53817">
        <ele>5.91</ele>
        <time>2012-06-17T07:23:40Z</time>
      </trkpt>
      <trkpt lat="47.82547" lon="-3.53796">
        <ele>12.15</ele>
        <time>2012-06-17T07:23:51Z</time>
      </trkpt>
      <trkpt lat="47.82544" lon="-3.53783">
        <ele>16</ele>
        <time>2012-06-17T07:23:59Z</time>
      </trkpt>
      <trkpt lat="47.82555" lon="-3.53772">
        <ele>22.73</ele>
        <time>2012-06-17T07:24:10Z</time>
      </trkpt>
      <trkpt lat="47.82566" lon="-3.53771">
        <ele>26.57</ele>
        <time>2012-06-17T07:24:27Z</time>
      </trkpt>
      <trkpt lat="47.82574" lon="-3.53766">
        <ele>28.98</ele>
        <time>2012-06-17T07:24:39Z</time>
      </trkpt>
      <trkpt lat="47.82583" lon="-3.53745">
        <ele>31.38</ele>
        <time>2012-06-17T07:24:52Z</time>
      </trkpt>
      <trkpt lat="47.82594" lon="-3.53749">
        <ele>32.34</ele>
        <time>2012-06-17T07:24:59Z</time>
      </trkpt>
      <trkpt lat="47.82605" lon="-3.53754">
        <ele>33.78</ele>
        <time>2012-06-17T07:25:04Z</time>
      </trkpt>
      <trkpt lat="47.82626" lon="-3.53762">
        <ele>37.63</ele>
        <time>2012-06-17T07:25:14Z</time>
      </trkpt>
      <trkpt lat="47.82649" lon="-3.53766">
        <ele>36.19</ele>
        <time>2012-06-17T07:25:25Z</time>
      </trkpt>
      <trkpt lat="47.82652" lon="-3.53767">
        <ele>35.71</ele>
        <time>2012-06-17T07:25:26Z</time>
      </trkpt>
      <trkpt lat="47.8267" lon="-3.53769">
        <ele>34.26</ele>
        <time>2012-06-17T07:25:34Z</time>
      </trkpt>
      <trkpt lat="47.82678" lon="-3.53772">
        <ele>32.82</ele>
        <time>2012-06-17T07:25:38Z</time>
      </trkpt>
      <trkpt lat="47.82696" lon="-3.53767">
        <ele>30.9</ele>
        <time>2012-06-17T07:25:49Z</time>
      </trkpt>
      <trkpt lat="47.82702" lon="-3.53767">
        <ele>33.3</ele>
        <time>2012-06-17T07:25:51Z</time>
      </trkpt>
      <trkpt lat="47.8272" lon="-3.53774">
        <ele>33.3</ele>
        <time>2012-06-17T07:26:00Z</time>
      </trkpt>
      <trkpt lat="47.82726" lon="-3.53768">
        <ele>33.3</ele>
        <time>2012-06-17T07:26:06Z</time>
      </trkpt>
      <trkpt lat="47.82743" lon="-3.53762">
        <ele>37.15</ele>
        <time>2012-06-17T07:26:17Z</time>
      </trkpt>
      <trkpt lat="47.82745" lon="-3.53761">
        <ele>37.15</ele>
        <time>2012-06-17T07:26:18Z</time>
      </trkpt>
      <trkpt lat="47.82755" lon="-3.53755">
        <ele>39.55</ele>
        <time>2012-06-17T07:26:24Z</time>
      </trkpt>
      <trkpt lat="47.82761" lon="-3.53749">
        <ele>41.95</ele>
        <time>2012-06-17T07:26:28Z</time>
      </trkpt>
      <trkpt lat="47.82773" lon="-3.5373">
        <ele>45.8</ele>
        <time>2012-06-17T07:26:40Z</time>
      </trkpt>
      <trkpt lat="47.82778" lon="-3.53728">
        <ele>47.24</ele>
        <time>2012-06-17T07:26:44Z</time>
      </trkpt>
      <trkpt lat="47.82789" lon="-3.53745">
        <ele>48.68</ele>
        <time>2012-06-17T07:26:52Z</time>
      </trkpt>
      <trkpt lat="47.82824" lon="-3.53778">
        <ele>46.28</ele>
        <time>2012-06-17T07:27:04Z</time>
      </trkpt>
      <trkpt lat="47.82847" lon="-3.53787">
        <ele>43.4</ele>
        <time>2012-06-17T07:27:10Z</time>
      </trkpt>
      <trkpt lat="47.82856" lon="-3.53821">
        <ele>40.51</ele>
        <time>2012-06-17T07:27:17Z</time>
      </trkpt>
      <trkpt lat="47.82852" lon="-3.53825">
        <ele>40.99</ele>
        <time>2012-06-17T07:27:18Z</time>
      </trkpt>
      <trkpt lat="47.82832" lon="-3.53833">
        <ele>40.99</ele>
        <time>2012-06-17T07:27:20Z</time>
      </trkpt>
      <trkpt lat="47.82791" lon="-3.53848">
        <ele>39.07</ele>
        <time>2012-06-17T07:27:28Z</time>
      </trkpt>
      <trkpt lat="47.82792" lon="-3.5386">
        <ele>37.15</ele>
        <time>2012-06-17T07:27:34Z</time>
      </trkpt>
      <trkpt lat="47.82797" lon="-3.53862">
        <ele>36.19</ele>
        <time>2012-06-17T07:27:36Z</time>
      </trkpt>
      <trkpt lat="47.82814" lon="-3.53869">
        <ele>35.23</ele>
        <time>2012-06-17T07:27:41Z</time>
      </trkpt>
      <trkpt lat="47.8283" lon="-3.5388">
        <ele>32.82</ele>
        <time>2012-06-17T07:27:45Z</time>
      </trkpt>
      <trkpt lat="47.82837" lon="-3.53885">
        <ele>32.34</ele>
        <time>2012-06-17T07:27:47Z</time>
      </trkpt>
      <trkpt lat="47.82833" lon="-3.53897">
        <ele>28.02</ele>
        <time>2012-06-17T07:27:53Z</time>
      </trkpt>
      <trkpt lat="47.82798" lon="-3.53904">
        <ele>25.61</ele>
        <time>2012-06-17T07:28:05Z</time>
      </trkpt>
      <trkpt lat="47.8279" lon="-3.53905">
        <ele>25.61</ele>
        <time>2012-06-17T07:28:07Z</time>
      </trkpt>
      <trkpt lat="47.82744" lon="-3.53905">
        <ele>26.09</ele>
        <time>2012-06-17T07:28:14Z</time>
      </trkpt>
      <trkpt lat="47.8273" lon="-3.53911">
        <ele>26.09</ele>
        <time>2012-06-17T07:28:18Z</time>
      </trkpt>
      <trkpt lat="47.8272" lon="-3.5392">
        <ele>28.02</ele>
        <time>2012-06-17T07:28:22Z</time>
      </trkpt>
      <trkpt lat="47.82723" lon="-3.53931">
        <ele>29.94</ele>
        <time>2012-06-17T07:28:27Z</time>
      </trkpt>
      <trkpt lat="47.82729" lon="-3.53935">
        <ele>31.38</ele>
        <time>2012-06-17T07:28:30Z</time>
      </trkpt>
      <trkpt lat="47.82737" lon="-3.53942">
        <ele>31.38</ele>
        <time>2012-06-17T07:28:34Z</time>
      </trkpt>
      <trkpt lat="47.82759" lon="-3.53955">
        <ele>26.57</ele>
        <time>2012-06-17T07:28:41Z</time>
      </trkpt>
      <trkpt lat="47.82789" lon="-3.53964">
        <ele>24.17</ele>
        <time>2012-06-17T07:28:49Z</time>
      </trkpt>
      <trkpt lat="47.82801" lon="-3.5397">
        <ele>22.25</ele>
        <time>2012-06-17T07:28:52Z</time>
      </trkpt>
      <trkpt lat="47.82824" lon="-3.53969">
        <ele>19.36</ele>
        <time>2012-06-17T07:28:59Z</time>
      </trkpt>
      <trkpt lat="47.82848" lon="-3.53973">
        <ele>14.56</ele>
        <time>2012-06-17T07:29:09Z</time>
      </trkpt>
      <trkpt lat="47.82857" lon="-3.53975">
        <ele>13.6</ele>
        <time>2012-06-17T07:29:16Z</time>
      </trkpt>
      <trkpt lat="47.82865" lon="-3.53984">
        <ele>16</ele>
        <time>2012-06-17T07:29:31Z</time>
      </trkpt>
      <trkpt lat="47.82868" lon="-3.53985">
        <ele>16.48</ele>
        <time>2012-06-17T07:29:33Z</time>
      </trkpt>
      <trkpt lat="47.82877" lon="-3.53987">
        <ele>17.92</ele>
        <time>2012-06-17T07:29:38Z</time>
      </trkpt>
      <trkpt lat="47.82903" lon="-3.53983">
        <ele>21.77</ele>
        <time>2012-06-17T07:29:50Z</time>
      </trkpt>
      <trkpt lat="47.82905" lon="-3.53982">
        <ele>22.25</ele>
        <time>2012-06-17T07:29:51Z</time>
      </trkpt>
      <trkpt lat="47.82909" lon="-3.53982">
        <ele>21.77</ele>
        <time>2012-06-17T07:29:53Z</time>
      </trkpt>
      <trkpt lat="47.82932" lon="-3.5398">
        <ele>24.65</ele>
        <time>2012-06-17T07:30:03Z</time>
      </trkpt>
      <trkpt lat="47.82944" lon="-3.53982">
        <ele>24.65</ele>
        <time>2012-06-17T07:30:07Z</time>
      </trkpt>
      <trkpt lat="47.82972" lon="-3.53974">
        <ele>25.61</ele>
        <time>2012-06-17T07:30:18Z</time>
      </trkpt>
      <trkpt lat="47.82988" lon="-3.53977">
        <ele>26.57</ele>
        <time>2012-06-17T07:30:26Z</time>
      </trkpt>
      <trkpt lat="47.82993" lon="-3.53977">
        <ele>26.57</ele>
        <time>2012-06-17T07:30:28Z</time>
      </trkpt>
      <trkpt lat="47.82994" lon="-3.53962">
        <ele>24.17</ele>
        <time>2012-06-17T07:30:37Z</time>
      </trkpt>
      <trkpt lat="47.8299" lon="-3.53958">
        <ele>24.65</ele>
        <time>2012-06-17T07:30:40Z</time>
      </trkpt>
      <trkpt lat="47.82985" lon="-3.53954">
        <ele>25.13</ele>
        <time>2012-06-17T07:30:44Z</time>
      </trkpt>
      <trkpt lat="47.82978" lon="-3.53949">
        <ele>25.61</ele>
        <time>2012-06-17T07:30:49Z</time>
      </trkpt>
      <trkpt lat="47.8297" lon="-3.53936">
        <ele>28.02</ele>
        <time>2012-06-17T07:30:58Z</time>
      </trkpt>
      <trkpt lat="47.82965" lon="-3.53933">
        <ele>29.46</ele>
        <time>2012-06-17T07:31:01Z</time>
      </trkpt>
      <trkpt lat="47.82954" lon="-3.53926">
        <ele>32.34</ele>
        <time>2012-06-17T07:31:07Z</time>
      </trkpt>
      <trkpt lat="47.82942" lon="-3.53921">
        <ele>36.67</ele>
        <time>2012-06-17T07:31:14Z</time>
      </trkpt>
      <trkpt lat="47.82937" lon="-3.53919">
        <ele>37.15</ele>
        <time>2012-06-17T07:31:16Z</time>
      </trkpt>
      <trkpt lat="47.82922" lon="-3.53917">
        <ele>42.92</ele>
        <time>2012-06-17T07:31:27Z</time>
      </trkpt>
      <trkpt lat="47.82904" lon="-3.53919">
        <ele>46.28</ele>
        <time>2012-06-17T07:31:34Z</time>
      </trkpt>
      <trkpt lat="47.82889" lon="-3.53912">
        <ele>49.16</ele>
        <time>2012-06-17T07:31:40Z</time>
      </trkpt>
      <trkpt lat="47.8289" lon="-3.53901">
        <ele>50.61</ele>
        <time>2012-06-17T07:31:48Z</time>
      </trkpt>
      <trkpt lat="47.82896" lon="-3.539">
        <ele>52.53</ele>
        <time>2012-06-17T07:31:54Z</time>
      </trkpt>
      <trkpt lat="47.82903" lon="-3.53895">
        <ele>54.93</ele>
        <time>2012-06-17T07:32:03Z</time>
      </trkpt>
      <trkpt lat="47.82906" lon="-3.53891">
        <ele>55.41</ele>
        <time>2012-06-17T07:32:05Z</time>
      </trkpt>
      <trkpt lat="47.8291" lon="-3.53887">
        <ele>55.89</ele>
        <time>2012-06-17T07:32:07Z</time>
      </trkpt>
      <trkpt lat="47.82918" lon="-3.53887">
        <ele>56.86</ele>
        <time>2012-06-17T07:32:11Z</time>
      </trkpt>
      <trkpt lat="47.82941" lon="-3.53889">
        <ele>56.37</ele>
        <time>2012-06-17T07:32:21Z</time>
      </trkpt>
      <trkpt lat="47.82962" lon="-3.53886">
        <ele>57.34</ele>
        <time>2012-06-17T07:32:31Z</time>
      </trkpt>
      <trkpt lat="47.82981" lon="-3.53871">
        <ele>57.34</ele>
        <time>2012-06-17T07:32:41Z</time>
      </trkpt>
      <trkpt lat="47.82987" lon="-3.53868">
        <ele>55.89</ele>
        <time>2012-06-17T07:32:44Z</time>
      </trkpt>
      <trkpt lat="47.82994" lon="-3.5387">
        <ele>54.45</ele>
        <time>2012-06-17T07:32:48Z</time>
      </trkpt>
      <trkpt lat="47.83004" lon="-3.53874">
        <ele>52.05</ele>
        <time>2012-06-17T07:32:52Z</time>
      </trkpt>
      <trkpt lat="47.83028" lon="-3.53889">
        <ele>44.84</ele>
        <time>2012-06-17T07:33:02Z</time>
      </trkpt>
      <trkpt lat="47.83057" lon="-3.53901">
        <ele>47.24</ele>
        <time>2012-06-17T07:33:13Z</time>
      </trkpt>
      <trkpt lat="47.83089" lon="-3.53914">
        <ele>46.28</ele>
        <time>2012-06-17T07:33:25Z</time>
      </trkpt>
      <trkpt lat="47.83131" lon="-3.53904">
        <ele>43.88</ele>
        <time>2012-06-17T07:33:38Z</time>
      </trkpt>
      <trkpt lat="47.83172" lon="-3.539">
        <ele>46.28</ele>
        <time>2012-06-17T07:33:49Z</time>
      </trkpt>
      <trkpt lat="47.83199" lon="-3.53894">
        <ele>52.05</ele>
        <time>2012-06-17T07:33:57Z</time>
      </trkpt>
      <trkpt lat="47.83238" lon="-3.53879">
        <ele>40.51</ele>
        <time>2012-06-17T07:34:08Z</time>
      </trkpt>
      <trkpt lat="47.83278" lon="-3.53858">
        <ele>30.9</ele>
        <time>2012-06-17T07:34:19Z</time>
      </trkpt>
      <trkpt lat="47.83312" lon="-3.53834">
        <ele>27.53</ele>
        <time>2012-06-17T07:34:29Z</time>
      </trkpt>
      <trkpt lat="47.83317" lon="-3.53832">
        <ele>27.05</ele>
        <time>2012-06-17T07:34:30Z</time>
      </trkpt>
      <trkpt lat="47.83343" lon="-3.53817">
        <ele>20.81</ele>
        <time>2012-06-17T07:34:37Z</time>
      </trkpt>
      <trkpt lat="47.8336" lon="-3.53846">
        <ele>12.15</ele>
        <time>2012-06-17T07:34:45Z</time>
      </trkpt>
      <trkpt lat="47.83369" lon="-3.5385">
        <ele>10.71</ele>
        <time>2012-06-17T07:34:47Z</time>
      </trkpt>
      <trkpt lat="47.8343" lon="-3.53842">
        <ele>7.35</ele>
        <time>2012-06-17T07:34:56Z</time>
      </trkpt>
      <trkpt lat="47.83468" lon="-3.53848">
        <ele>5.42</ele>
        <time>2012-06-17T07:35:05Z</time>
      </trkpt>
      <trkpt lat="47.83478" lon="-3.53853">
        <ele>3.5</ele>
        <time>2012-06-17T07:35:07Z</time>
      </trkpt>
      <trkpt lat="47.83516" lon="-3.53864">
        <ele>0.62</ele>
        <time>2012-06-17T07:35:12Z</time>
      </trkpt>
      <trkpt lat="47.83539" lon="-3.53868">
        <ele>0.62</ele>
        <time>2012-06-17T07:35:15Z</time>
      </trkpt>
      <trkpt lat="47.83557" lon="-3.53866">
        <ele>-1.79</ele>
        <time>2012-06-17T07:35:18Z</time>
      </trkpt>
      <trkpt lat="47.83612" lon="-3.53835">
        <ele>-7.55</ele>
        <time>2012-06-17T07:35:30Z</time>
      </trkpt>
      <trkpt lat="47.83617" lon="-3.53823">
        <ele>-9.96</ele>
        <time>2012-06-17T07:35:33Z</time>
      </trkpt>
      <trkpt lat="47.83643" lon="-3.53806">
        <ele>-7.55</ele>
        <time>2012-06-17T07:35:39Z</time>
      </trkpt>
      <trkpt lat="47.83652" lon="-3.53789">
        <ele>-7.07</ele>
        <time>2012-06-17T07:35:42Z</time>
      </trkpt>
      <trkpt lat="47.83659" lon="-3.53764">
        <ele>-8.03</ele>
        <time>2012-06-17T07:35:45Z</time>
      </trkpt>
      <trkpt lat="47.83671" lon="-3.53727">
        <ele>-2.75</ele>
        <time>2012-06-17T07:35:50Z</time>
      </trkpt>
      <trkpt lat="47.83672" lon="-3.53715">
        <ele>-2.27</ele>
        <time>2012-06-17T07:35:52Z</time>
      </trkpt>
      <trkpt lat="47.83676" lon="-3.53701">
        <ele>0.14</ele>
        <time>2012-06-17T07:35:55Z</time>
      </trkpt>
      <trkpt lat="47.83681" lon="-3.53699">
        <ele>3.98</ele>
        <time>2012-06-17T07:35:57Z</time>
      </trkpt>
      <trkpt lat="47.83692" lon="-3.53665">
        <ele>6.39</ele>
        <time>2012-06-17T07:36:03Z</time>
      </trkpt>
      <trkpt lat="47.8368" lon="-3.5365">
        <ele>5.42</ele>
        <time>2012-06-17T07:36:07Z</time>
      </trkpt>
      <trkpt lat="47.83661" lon="-3.53626">
        <ele>3.5</ele>
        <time>2012-06-17T07:36:13Z</time>
      </trkpt>
      <trkpt lat="47.8365" lon="-3.53619">
        <ele>2.54</ele>
        <time>2012-06-17T07:36:16Z</time>
      </trkpt>
      <trkpt lat="47.83645" lon="-3.53596">
        <ele>1.1</ele>
        <time>2012-06-17T07:36:20Z</time>
      </trkpt>
      <trkpt lat="47.83654" lon="-3.53572">
        <ele>-1.79</ele>
        <time>2012-06-17T07:36:24Z</time>
      </trkpt>
      <trkpt lat="47.83696" lon="-3.53594">
        <ele>-8.03</ele>
        <time>2012-06-17T07:36:33Z</time>
      </trkpt>
      <trkpt lat="47.837" lon="-3.53591">
        <ele>-8.03</ele>
        <time>2012-06-17T07:36:34Z</time>
      </trkpt>
      <trkpt lat="47.83705" lon="-3.53579">
        <ele>-15.24</ele>
        <time>2012-06-17T07:36:40Z</time>
      </trkpt>
      <trkpt lat="47.83712" lon="-3.53571">
        <ele>-16.21</ele>
        <time>2012-06-17T07:36:45Z</time>
      </trkpt>
      <trkpt lat="47.83709" lon="-3.5356">
        <ele>-17.17</ele>
        <time>2012-06-17T07:36:48Z</time>
      </trkpt>
      <trkpt lat="47.83719" lon="-3.53541">
        <ele>-23.9</ele>
        <time>2012-06-17T07:36:58Z</time>
      </trkpt>
      <trkpt lat="47.83726" lon="-3.53521">
        <ele>-29.66</ele>
        <time>2012-06-17T07:37:12Z</time>
      </trkpt>
      <trkpt lat="47.83726" lon="-3.5352">
        <ele>-29.18</ele>
        <time>2012-06-17T07:37:13Z</time>
      </trkpt>
      <trkpt lat="47.83711" lon="-3.53531">
        <ele>-30.62</ele>
        <time>2012-06-17T07:37:26Z</time>
      </trkpt>
      <trkpt lat="47.83713" lon="-3.53516">
        <ele>-21.97</ele>
        <time>2012-06-17T07:37:40Z</time>
      </trkpt>
      <trkpt lat="47.83712" lon="-3.53514">
        <ele>-14.76</ele>
        <time>2012-06-17T07:37:52Z</time>
      </trkpt>
      <trkpt lat="47.83695" lon="-3.53496">
        <ele>-9</ele>
        <time>2012-06-17T07:38:01Z</time>
      </trkpt>
      <trkpt lat="47.83675" lon="-3.53483">
        <ele>-4.19</ele>
        <time>2012-06-17T07:38:09Z</time>
      </trkpt>
      <trkpt lat="47.83647" lon="-3.53458">
        <ele>2.06</ele>
        <time>2012-06-17T07:38:20Z</time>
      </trkpt>
      <trkpt lat="47.83644" lon="-3.53455">
        <ele>3.02</ele>
        <time>2012-06-17T07:38:21Z</time>
      </trkpt>
      <trkpt lat="47.83629" lon="-3.53438">
        <ele>9.75</ele>
        <time>2012-06-17T07:38:27Z</time>
      </trkpt>
      <trkpt lat="47.83607" lon="-3.5341">
        <ele>19.36</ele>
        <time>2012-06-17T07:38:37Z</time>
      </trkpt>
      <trkpt lat="47.83601" lon="-3.53395">
        <ele>22.73</ele>
        <time>2012-06-17T07:38:43Z</time>
      </trkpt>
      <trkpt lat="47.83584" lon="-3.5337">
        <ele>28.98</ele>
        <time>2012-06-17T07:38:54Z</time>
      </trkpt>
      <trkpt lat="47.83583" lon="-3.53365">
        <ele>29.94</ele>
        <time>2012-06-17T07:39:13Z</time>
      </trkpt>
      <trkpt lat="47.83581" lon="-3.53365">
        <ele>28.5</ele>
        <time>2012-06-17T07:45:45Z</time>
      </trkpt>
      <trkpt lat="47.83603" lon="-3.53334">
        <ele>34.26</ele>
        <time>2012-06-17T07:45:59Z</time>
      </trkpt>
      <trkpt lat="47.83604" lon="-3.53331">
        <ele>34.26</ele>
        <time>2012-06-17T07:46:00Z</time>
      </trkpt>
      <trkpt lat="47.83617" lon="-3.53328">
        <ele>33.3</ele>
        <time>2012-06-17T07:46:09Z</time>
      </trkpt>
      <trkpt lat="47.83623" lon="-3.53328">
        <ele>32.82</ele>
        <time>2012-06-17T07:46:12Z</time>
      </trkpt>
      <trkpt lat="47.83633" lon="-3.53328">
        <ele>33.78</ele>
        <time>2012-06-17T07:46:18Z</time>
      </trkpt>
      <trkpt lat="47.83643" lon="-3.53331">
        <ele>35.23</ele>
        <time>2012-06-17T07:46:24Z</time>
      </trkpt>
      <trkpt lat="47.8365" lon="-3.53333">
        <ele>34.74</ele>
        <time>2012-06-17T07:46:28Z</time>
      </trkpt>
      <trkpt lat="47.83659" lon="-3.53333">
        <ele>34.26</ele>
        <time>2012-06-17T07:46:32Z</time>
      </trkpt>
      <trkpt lat="47.83674" lon="-3.53346">
        <ele>35.23</ele>
        <time>2012-06-17T07:46:41Z</time>
      </trkpt>
      <trkpt lat="47.83701" lon="-3.5336">
        <ele>37.15</ele>
        <time>2012-06-17T07:46:52Z</time>
      </trkpt>
      <trkpt lat="47.83707" lon="-3.53363">
        <ele>36.67</ele>
        <time>2012-06-17T07:46:54Z</time>
      </trkpt>
      <trkpt lat="47.83719" lon="-3.53362">
        <ele>38.11</ele>
        <time>2012-06-17T07:46:58Z</time>
      </trkpt>
      <trkpt lat="47.83739" lon="-3.53354">
        <ele>36.19</ele>
        <time>2012-06-17T07:47:03Z</time>
      </trkpt>
      <trkpt lat="47.83771" lon="-3.53385">
        <ele>27.53</ele>
        <time>2012-06-17T07:47:11Z</time>
      </trkpt>
      <trkpt lat="47.83773" lon="-3.53403">
        <ele>27.05</ele>
        <time>2012-06-17T07:47:18Z</time>
      </trkpt>
      <trkpt lat="47.83752" lon="-3.53444">
        <ele>25.61</ele>
        <time>2012-06-17T07:47:29Z</time>
      </trkpt>
      <trkpt lat="47.83727" lon="-3.53467">
        <ele>22.25</ele>
        <time>2012-06-17T07:47:34Z</time>
      </trkpt>
      <trkpt lat="47.83709" lon="-3.53498">
        <ele>12.63</ele>
        <time>2012-06-17T07:47:43Z</time>
      </trkpt>
      <trkpt lat="47.83709" lon="-3.53503">
        <ele>15.04</ele>
        <time>2012-06-17T07:47:45Z</time>
      </trkpt>
      <trkpt lat="47.83728" lon="-3.53506">
        <ele>18.4</ele>
        <time>2012-06-17T07:47:57Z</time>
      </trkpt>
      <trkpt lat="47.83732" lon="-3.53506">
        <ele>19.84</ele>
        <time>2012-06-17T07:47:59Z</time>
      </trkpt>
      <trkpt lat="47.83744" lon="-3.53502">
        <ele>25.61</ele>
        <time>2012-06-17T07:48:04Z</time>
      </trkpt>
      <trkpt lat="47.83761" lon="-3.53489">
        <ele>25.61</ele>
        <time>2012-06-17T07:48:08Z</time>
      </trkpt>
      <trkpt lat="47.83792" lon="-3.53452">
        <ele>24.17</ele>
        <time>2012-06-17T07:48:17Z</time>
      </trkpt>
      <trkpt lat="47.83801" lon="-3.53427">
        <ele>24.65</ele>
        <time>2012-06-17T07:48:21Z</time>
      </trkpt>
      <trkpt lat="47.83814" lon="-3.53393">
        <ele>26.57</ele>
        <time>2012-06-17T07:48:26Z</time>
      </trkpt>
      <trkpt lat="47.83823" lon="-3.53377">
        <ele>26.57</ele>
        <time>2012-06-17T07:48:29Z</time>
      </trkpt>
      <trkpt lat="47.83835" lon="-3.53354">
        <ele>28.98</ele>
        <time>2012-06-17T07:48:33Z</time>
      </trkpt>
      <trkpt lat="47.83847" lon="-3.53329">
        <ele>29.46</ele>
        <time>2012-06-17T07:48:36Z</time>
      </trkpt>
      <trkpt lat="47.83848" lon="-3.53296">
        <ele>26.09</ele>
        <time>2012-06-17T07:48:44Z</time>
      </trkpt>
      <trkpt lat="47.83851" lon="-3.53277">
        <ele>24.17</ele>
        <time>2012-06-17T07:48:47Z</time>
      </trkpt>
      <trkpt lat="47.83844" lon="-3.53233">
        <ele>19.36</ele>
        <time>2012-06-17T07:48:56Z</time>
      </trkpt>
      <trkpt lat="47.83847" lon="-3.53224">
        <ele>15.52</ele>
        <time>2012-06-17T07:49:11Z</time>
      </trkpt>
      <trkpt lat="47.83847" lon="-3.53224">
        <ele>15.04</ele>
        <time>2012-06-17T07:49:12Z</time>
      </trkpt>
      <trkpt lat="47.83859" lon="-3.53228">
        <ele>13.6</ele>
        <time>2012-06-17T07:49:23Z</time>
      </trkpt>
      <trkpt lat="47.83871" lon="-3.53223">
        <ele>14.56</ele>
        <time>2012-06-17T07:49:39Z</time>
      </trkpt>
      <trkpt lat="47.83889" lon="-3.53217">
        <ele>15.04</ele>
        <time>2012-06-17T07:49:48Z</time>
      </trkpt>
      <trkpt lat="47.83914" lon="-3.53203">
        <ele>14.56</ele>
        <time>2012-06-17T07:49:56Z</time>
      </trkpt>
      <trkpt lat="47.83916" lon="-3.53188">
        <ele>14.56</ele>
        <time>2012-06-17T07:50:00Z</time>
      </trkpt>
      <trkpt lat="47.83929" lon="-3.53134">
        <ele>12.15</ele>
        <time>2012-06-17T07:50:09Z</time>
      </trkpt>
      <trkpt lat="47.83935" lon="-3.53076">
        <ele>10.71</ele>
        <time>2012-06-17T07:50:19Z</time>
      </trkpt>
      <trkpt lat="47.83934" lon="-3.53033">
        <ele>10.23</ele>
        <time>2012-06-17T07:50:28Z</time>
      </trkpt>
      <trkpt lat="47.83946" lon="-3.53012">
        <ele>11.19</ele>
        <time>2012-06-17T07:50:34Z</time>
      </trkpt>
      <trkpt lat="47.83957" lon="-3.52964">
        <ele>11.67</ele>
        <time>2012-06-17T07:50:44Z</time>
      </trkpt>
      <trkpt lat="47.83957" lon="-3.52959">
        <ele>12.15</ele>
        <time>2012-06-17T07:50:45Z</time>
      </trkpt>
      <trkpt lat="47.83966" lon="-3.52937">
        <ele>12.63</ele>
        <time>2012-06-17T07:50:50Z</time>
      </trkpt>
      <trkpt lat="47.8397" lon="-3.52912">
        <ele>17.92</ele>
        <time>2012-06-17T07:50:59Z</time>
      </trkpt>
      <trkpt lat="47.83972" lon="-3.5291">
        <ele>20.32</ele>
        <time>2012-06-17T07:51:10Z</time>
      </trkpt>
      <trkpt lat="47.83965" lon="-3.52905">
        <ele>24.65</ele>
        <time>2012-06-17T07:51:40Z</time>
      </trkpt>
      <trkpt lat="47.83955" lon="-3.52908">
        <ele>26.57</ele>
        <time>2012-06-17T07:51:54Z</time>
      </trkpt>
      <trkpt lat="47.83954" lon="-3.5291">
        <ele>26.57</ele>
        <time>2012-06-17T07:51:55Z</time>
      </trkpt>
      <trkpt lat="47.83947" lon="-3.52911">
        <ele>28.02</ele>
        <time>2012-06-17T07:52:00Z</time>
      </trkpt>
      <trkpt lat="47.83933" lon="-3.52918">
        <ele>31.38</ele>
        <time>2012-06-17T07:52:15Z</time>
      </trkpt>
      <trkpt lat="47.8393" lon="-3.5292">
        <ele>30.42</ele>
        <time>2012-06-17T07:52:32Z</time>
      </trkpt>
      <trkpt lat="47.8392" lon="-3.52922">
        <ele>32.34</ele>
        <time>2012-06-17T07:52:45Z</time>
      </trkpt>
      <trkpt lat="47.83914" lon="-3.52923">
        <ele>33.78</ele>
        <time>2012-06-17T07:53:01Z</time>
      </trkpt>
      <trkpt lat="47.83897" lon="-3.52929">
        <ele>37.15</ele>
        <time>2012-06-17T07:53:17Z</time>
      </trkpt>
      <trkpt lat="47.83885" lon="-3.52933">
        <ele>39.55</ele>
        <time>2012-06-17T07:53:32Z</time>
      </trkpt>
      <trkpt lat="47.83855" lon="-3.52945">
        <ele>41.95</ele>
        <time>2012-06-17T07:53:51Z</time>
      </trkpt>
      <trkpt lat="47.8384" lon="-3.52947">
        <ele>42.44</ele>
        <time>2012-06-17T07:54:00Z</time>
      </trkpt>
      <trkpt lat="47.83834" lon="-3.5295">
        <ele>41.95</ele>
        <time>2012-06-17T07:54:04Z</time>
      </trkpt>
      <trkpt lat="47.83834" lon="-3.52956">
        <ele>40.03</ele>
        <time>2012-06-17T07:54:08Z</time>
      </trkpt>
      <trkpt lat="47.83844" lon="-3.52977">
        <ele>35.23</ele>
        <time>2012-06-17T07:54:15Z</time>
      </trkpt>
      <trkpt lat="47.83853" lon="-3.53008">
        <ele>30.9</ele>
        <time>2012-06-17T07:54:20Z</time>
      </trkpt>
      <trkpt lat="47.83862" lon="-3.53029">
        <ele>25.61</ele>
        <time>2012-06-17T07:54:24Z</time>
      </trkpt>
      <trkpt lat="47.83867" lon="-3.53052">
        <ele>21.29</ele>
        <time>2012-06-17T07:54:28Z</time>
      </trkpt>
      <trkpt lat="47.83867" lon="-3.53077">
        <ele>24.65</ele>
        <time>2012-06-17T07:54:32Z</time>
      </trkpt>
      <trkpt lat="47.83868" lon="-3.53124">
        <ele>17.44</ele>
        <time>2012-06-17T07:54:40Z</time>
      </trkpt>
      <trkpt lat="47.83863" lon="-3.53147">
        <ele>5.42</ele>
        <time>2012-06-17T07:54:45Z</time>
      </trkpt>
      <trkpt lat="47.83868" lon="-3.53195">
        <ele>-9.48</ele>
        <time>2012-06-17T07:54:55Z</time>
      </trkpt>
      <trkpt lat="47.83871" lon="-3.53211">
        <ele>-16.69</ele>
        <time>2012-06-17T07:55:06Z</time>
      </trkpt>
      <trkpt lat="47.83876" lon="-3.53217">
        <ele>-10.92</ele>
        <time>2012-06-17T07:55:19Z</time>
      </trkpt>
      <trkpt lat="47.83895" lon="-3.53205">
        <ele>-9.96</ele>
        <time>2012-06-17T07:55:28Z</time>
      </trkpt>
      <trkpt lat="47.83917" lon="-3.53183">
        <ele>-6.59</ele>
        <time>2012-06-17T07:55:35Z</time>
      </trkpt>
      <trkpt lat="47.83925" lon="-3.5316">
        <ele>-6.59</ele>
        <time>2012-06-17T07:55:43Z</time>
      </trkpt>
      <trkpt lat="47.83937" lon="-3.53106">
        <ele>-0.82</ele>
        <time>2012-06-17T07:55:52Z</time>
      </trkpt>
      <trkpt lat="47.83949" lon="-3.53054">
        <ele>5.91</ele>
        <time>2012-06-17T07:56:01Z</time>
      </trkpt>
      <trkpt lat="47.83948" lon="-3.53028">
        <ele>13.6</ele>
        <time>2012-06-17T07:56:07Z</time>
      </trkpt>
      <trkpt lat="47.83945" lon="-3.53032">
        <ele>16</ele>
        <time>2012-06-17T07:56:11Z</time>
      </trkpt>
      <trkpt lat="47.83956" lon="-3.5296">
        <ele>12.63</ele>
        <time>2012-06-17T07:56:20Z</time>
      </trkpt>
      <trkpt lat="47.8397" lon="-3.52924">
        <ele>16.48</ele>
        <time>2012-06-17T07:56:29Z</time>
      </trkpt>
      <trkpt lat="47.8397" lon="-3.5292">
        <ele>16.48</ele>
        <time>2012-06-17T07:56:30Z</time>
      </trkpt>
      <trkpt lat="47.83971" lon="-3.52904">
        <ele>23.21</ele>
        <time>2012-06-17T07:56:40Z</time>
      </trkpt>
      <trkpt lat="47.83971" lon="-3.52907">
        <ele>26.57</ele>
        <time>2012-06-17T07:57:00Z</time>
      </trkpt>
      <trkpt lat="47.83971" lon="-3.52918">
        <ele>26.57</ele>
        <time>2012-06-17T07:57:04Z</time>
      </trkpt>
      <trkpt lat="47.83969" lon="-3.52944">
        <ele>28.02</ele>
        <time>2012-06-17T07:57:15Z</time>
      </trkpt>
      <trkpt lat="47.83958" lon="-3.52965">
        <ele>29.46</ele>
        <time>2012-06-17T07:57:23Z</time>
      </trkpt>
      <trkpt lat="47.8395" lon="-3.52983">
        <ele>29.94</ele>
        <time>2012-06-17T07:57:29Z</time>
      </trkpt>
      <trkpt lat="47.83947" lon="-3.52993">
        <ele>28.98</ele>
        <time>2012-06-17T07:57:35Z</time>
      </trkpt>
      <trkpt lat="47.83944" lon="-3.52992">
        <ele>29.46</ele>
        <time>2012-06-17T07:57:42Z</time>
      </trkpt>
      <trkpt lat="47.83951" lon="-3.52974">
        <ele>28.98</ele>
        <time>2012-06-17T07:57:51Z</time>
      </trkpt>
      <trkpt lat="47.83954" lon="-3.52967">
        <ele>28.98</ele>
        <time>2012-06-17T07:57:53Z</time>
      </trkpt>
      <trkpt lat="47.83963" lon="-3.5294">
        <ele>27.53</ele>
        <time>2012-06-17T07:58:01Z</time>
      </trkpt>
      <trkpt lat="47.83966" lon="-3.52919">
        <ele>28.02</ele>
        <time>2012-06-17T07:58:07Z</time>
      </trkpt>
      <trkpt lat="47.83968" lon="-3.52912">
        <ele>29.94</ele>
        <time>2012-06-17T07:58:14Z</time>
      </trkpt>
      <trkpt lat="47.8396" lon="-3.52906">
        <ele>32.82</ele>
        <time>2012-06-17T07:58:26Z</time>
      </trkpt>
      <trkpt lat="47.83958" lon="-3.52907">
        <ele>33.3</ele>
        <time>2012-06-17T07:58:27Z</time>
      </trkpt>
      <trkpt lat="47.83937" lon="-3.52919">
        <ele>33.3</ele>
        <time>2012-06-17T07:58:43Z</time>
      </trkpt>
      <trkpt lat="47.83933" lon="-3.52921">
        <ele>34.26</ele>
        <time>2012-06-17T07:58:59Z</time>
      </trkpt>
      <trkpt lat="47.83924" lon="-3.52922">
        <ele>35.23</ele>
        <time>2012-06-17T07:59:12Z</time>
      </trkpt>
      <trkpt lat="47.83911" lon="-3.52927">
        <ele>35.71</ele>
        <time>2012-06-17T07:59:28Z</time>
      </trkpt>
      <trkpt lat="47.83899" lon="-3.52932">
        <ele>37.63</ele>
        <time>2012-06-17T07:59:44Z</time>
      </trkpt>
      <trkpt lat="47.83888" lon="-3.52936">
        <ele>38.11</ele>
        <time>2012-06-17T07:59:57Z</time>
      </trkpt>
      <trkpt lat="47.83864" lon="-3.52945">
        <ele>40.99</ele>
        <time>2012-06-17T08:00:13Z</time>
      </trkpt>
      <trkpt lat="47.83844" lon="-3.5295">
        <ele>40.99</ele>
        <time>2012-06-17T08:00:24Z</time>
      </trkpt>
      <trkpt lat="47.83837" lon="-3.52956">
        <ele>40.99</ele>
        <time>2012-06-17T08:00:30Z</time>
      </trkpt>
      <trkpt lat="47.83845" lon="-3.52973">
        <ele>37.63</ele>
        <time>2012-06-17T08:00:37Z</time>
      </trkpt>
      <trkpt lat="47.83849" lon="-3.5299">
        <ele>35.23</ele>
        <time>2012-06-17T08:00:40Z</time>
      </trkpt>
      <trkpt lat="47.83855" lon="-3.53024">
        <ele>32.82</ele>
        <time>2012-06-17T08:00:45Z</time>
      </trkpt>
      <trkpt lat="47.83855" lon="-3.5306">
        <ele>34.74</ele>
        <time>2012-06-17T08:00:51Z</time>
      </trkpt>
      <trkpt lat="47.83853" lon="-3.53138">
        <ele>34.26</ele>
        <time>2012-06-17T08:01:02Z</time>
      </trkpt>
      <trkpt lat="47.8385" lon="-3.53155">
        <ele>30.42</ele>
        <time>2012-06-17T08:01:06Z</time>
      </trkpt>
      <trkpt lat="47.83855" lon="-3.53182">
        <ele>23.69</ele>
        <time>2012-06-17T08:01:18Z</time>
      </trkpt>
      <trkpt lat="47.83862" lon="-3.53198">
        <ele>16</ele>
        <time>2012-06-17T08:01:27Z</time>
      </trkpt>
      <trkpt lat="47.83864" lon="-3.53196">
        <ele>14.56</ele>
        <time>2012-06-17T08:01:43Z</time>
      </trkpt>
      <trkpt lat="47.83863" lon="-3.53196">
        <ele>14.56</ele>
        <time>2012-06-17T08:01:44Z</time>
      </trkpt>
      <trkpt lat="47.83853" lon="-3.53186">
        <ele>22.73</ele>
        <time>2012-06-17T08:02:02Z</time>
      </trkpt>
      <trkpt lat="47.83851" lon="-3.53183">
        <ele>23.69</ele>
        <time>2012-06-17T08:02:05Z</time>
      </trkpt>
      <trkpt lat="47.83846" lon="-3.53166">
        <ele>32.82</ele>
        <time>2012-06-17T08:02:24Z</time>
      </trkpt>
      <trkpt lat="47.83849" lon="-3.53161">
        <ele>34.26</ele>
        <time>2012-06-17T08:02:27Z</time>
      </trkpt>
      <trkpt lat="47.83854" lon="-3.53149">
        <ele>38.59</ele>
        <time>2012-06-17T08:02:37Z</time>
      </trkpt>
      <trkpt lat="47.83854" lon="-3.53135">
        <ele>43.4</ele>
        <time>2012-06-17T08:02:51Z</time>
      </trkpt>
      <trkpt lat="47.83857" lon="-3.5313">
        <ele>43.88</ele>
        <time>2012-06-17T08:02:53Z</time>
      </trkpt>
      <trkpt lat="47.83858" lon="-3.53077">
        <ele>46.76</ele>
        <time>2012-06-17T08:03:07Z</time>
      </trkpt>
      <trkpt lat="47.83862" lon="-3.53041">
        <ele>47.24</ele>
        <time>2012-06-17T08:03:15Z</time>
      </trkpt>
      <trkpt lat="47.83862" lon="-3.53022">
        <ele>49.16</ele>
        <time>2012-06-17T08:03:21Z</time>
      </trkpt>
      <trkpt lat="47.83857" lon="-3.53011">
        <ele>49.16</ele>
        <time>2012-06-17T08:03:24Z</time>
      </trkpt>
      <trkpt lat="47.83832" lon="-3.5298">
        <ele>49.65</ele>
        <time>2012-06-17T08:03:36Z</time>
      </trkpt>
      <trkpt lat="47.8382" lon="-3.52968">
        <ele>49.16</ele>
        <time>2012-06-17T08:03:41Z</time>
      </trkpt>
      <trkpt lat="47.83814" lon="-3.52951">
        <ele>47.72</ele>
        <time>2012-06-17T08:03:48Z</time>
      </trkpt>
      <trkpt lat="47.83816" lon="-3.52948">
        <ele>47.72</ele>
        <time>2012-06-17T08:03:49Z</time>
      </trkpt>
      <trkpt lat="47.83844" lon="-3.52926">
        <ele>50.61</ele>
        <time>2012-06-17T08:03:59Z</time>
      </trkpt>
      <trkpt lat="47.83857" lon="-3.52915">
        <ele>48.68</ele>
        <time>2012-06-17T08:04:03Z</time>
      </trkpt>
      <trkpt lat="47.83929" lon="-3.52848">
        <ele>40.51</ele>
        <time>2012-06-17T08:04:17Z</time>
      </trkpt>
      <trkpt lat="47.84028" lon="-3.52762">
        <ele>32.34</ele>
        <time>2012-06-17T08:04:31Z</time>
      </trkpt>
      <trkpt lat="47.84041" lon="-3.52754">
        <ele>30.42</ele>
        <time>2012-06-17T08:04:34Z</time>
      </trkpt>
      <trkpt lat="47.84044" lon="-3.52778">
        <ele>25.61</ele>
        <time>2012-06-17T08:04:41Z</time>
      </trkpt>
      <trkpt lat="47.84044" lon="-3.52782">
        <ele>24.65</ele>
        <time>2012-06-17T08:04:42Z</time>
      </trkpt>
      <trkpt lat="47.84041" lon="-3.52795">
        <ele>23.69</ele>
        <time>2012-06-17T08:04:45Z</time>
      </trkpt>
      <trkpt lat="47.84039" lon="-3.52812">
        <ele>23.21</ele>
        <time>2012-06-17T08:04:48Z</time>
      </trkpt>
      <trkpt lat="47.84024" lon="-3.52844">
        <ele>18.4</ele>
        <time>2012-06-17T08:04:53Z</time>
      </trkpt>
      <trkpt lat="47.84002" lon="-3.52878">
        <ele>15.04</ele>
        <time>2012-06-17T08:04:59Z</time>
      </trkpt>
      <trkpt lat="47.84005" lon="-3.52885">
        <ele>12.63</ele>
        <time>2012-06-17T08:05:03Z</time>
      </trkpt>
      <trkpt lat="47.84009" lon="-3.52885">
        <ele>11.19</ele>
        <time>2012-06-17T08:05:05Z</time>
      </trkpt>
      <trkpt lat="47.84024" lon="-3.52912">
        <ele>7.35</ele>
        <time>2012-06-17T08:05:14Z</time>
      </trkpt>
      <trkpt lat="47.84014" lon="-3.52947">
        <ele>6.39</ele>
        <time>2012-06-17T08:05:23Z</time>
      </trkpt>
      <trkpt lat="47.83996" lon="-3.52996">
        <ele>5.42</ele>
        <time>2012-06-17T08:05:31Z</time>
      </trkpt>
      <trkpt lat="47.83964" lon="-3.53061">
        <ele>4.94</ele>
        <time>2012-06-17T08:05:43Z</time>
      </trkpt>
      <trkpt lat="47.83962" lon="-3.53072">
        <ele>4.94</ele>
        <time>2012-06-17T08:05:48Z</time>
      </trkpt>
      <trkpt lat="47.83955" lon="-3.53135">
        <ele>3.02</ele>
        <time>2012-06-17T08:06:01Z</time>
      </trkpt>
      <trkpt lat="47.83955" lon="-3.5314">
        <ele>3.02</ele>
        <time>2012-06-17T08:06:02Z</time>
      </trkpt>
      <trkpt lat="47.8395" lon="-3.53179">
        <ele>3.02</ele>
        <time>2012-06-17T08:06:11Z</time>
      </trkpt>
      <trkpt lat="47.8395" lon="-3.53201">
        <ele>3.02</ele>
        <time>2012-06-17T08:06:15Z</time>
      </trkpt>
      <trkpt lat="47.83959" lon="-3.53202">
        <ele>2.06</ele>
        <time>2012-06-17T08:06:17Z</time>
      </trkpt>
      <trkpt lat="47.83982" lon="-3.5321">
        <ele>-0.34</ele>
        <time>2012-06-17T08:06:21Z</time>
      </trkpt>
      <trkpt lat="47.84011" lon="-3.53188">
        <ele>-1.79</ele>
        <time>2012-06-17T08:06:27Z</time>
      </trkpt>
      <trkpt lat="47.84026" lon="-3.5314">
        <ele>0.62</ele>
        <time>2012-06-17T08:06:36Z</time>
      </trkpt>
      <trkpt lat="47.8404" lon="-3.53093">
        <ele>-1.3</ele>
        <time>2012-06-17T08:06:46Z</time>
      </trkpt>
      <trkpt lat="47.84057" lon="-3.53074">
        <ele>-1.79</ele>
        <time>2012-06-17T08:06:51Z</time>
      </trkpt>
      <trkpt lat="47.84064" lon="-3.53067">
        <ele>-1.79</ele>
        <time>2012-06-17T08:06:53Z</time>
      </trkpt>
      <trkpt lat="47.84089" lon="-3.53032">
        <ele>-2.27</ele>
        <time>2012-06-17T08:07:01Z</time>
      </trkpt>
      <trkpt lat="47.84107" lon="-3.53009">
        <ele>-2.27</ele>
        <time>2012-06-17T08:07:06Z</time>
      </trkpt>
      <trkpt lat="47.84115" lon="-3.53001">
        <ele>-2.27</ele>
        <time>2012-06-17T08:07:08Z</time>
      </trkpt>
      <trkpt lat="47.84136" lon="-3.52965">
        <ele>-2.27</ele>
        <time>2012-06-17T08:07:16Z</time>
      </trkpt>
      <trkpt lat="47.84175" lon="-3.52919">
        <ele>-4.67</ele>
        <time>2012-06-17T08:07:25Z</time>
      </trkpt>
      <trkpt lat="47.84183" lon="-3.5291">
        <ele>-5.15</ele>
        <time>2012-06-17T08:07:27Z</time>
      </trkpt>
      <trkpt lat="47.84205" lon="-3.52846">
        <ele>-2.27</ele>
        <time>2012-06-17T08:07:39Z</time>
      </trkpt>
      <trkpt lat="47.84212" lon="-3.52827">
        <ele>-3.23</ele>
        <time>2012-06-17T08:07:45Z</time>
      </trkpt>
      <trkpt lat="47.84214" lon="-3.52816">
        <ele>-3.71</ele>
        <time>2012-06-17T08:07:49Z</time>
      </trkpt>
      <trkpt lat="47.84213" lon="-3.52812">
        <ele>-2.75</ele>
        <time>2012-06-17T08:08:00Z</time>
      </trkpt>
      <trkpt lat="47.84205" lon="-3.52803">
        <ele>-0.34</ele>
        <time>2012-06-17T08:08:09Z</time>
      </trkpt>
      <trkpt lat="47.84187" lon="-3.52792">
        <ele>3.98</ele>
        <time>2012-06-17T08:08:23Z</time>
      </trkpt>
      <trkpt lat="47.84185" lon="-3.5279">
        <ele>5.42</ele>
        <time>2012-06-17T08:08:26Z</time>
      </trkpt>
      <trkpt lat="47.84157" lon="-3.52802">
        <ele>8.79</ele>
        <time>2012-06-17T08:08:38Z</time>
      </trkpt>
      <trkpt lat="47.84154" lon="-3.52806">
        <ele>9.27</ele>
        <time>2012-06-17T08:08:39Z</time>
      </trkpt>
      <trkpt lat="47.84141" lon="-3.52805">
        <ele>10.23</ele>
        <time>2012-06-17T08:08:44Z</time>
      </trkpt>
      <trkpt lat="47.84121" lon="-3.52804">
        <ele>16.48</ele>
        <time>2012-06-17T08:09:01Z</time>
      </trkpt>
      <trkpt lat="47.84116" lon="-3.52801">
        <ele>20.81</ele>
        <time>2012-06-17T08:09:08Z</time>
      </trkpt>
      <trkpt lat="47.841" lon="-3.52759">
        <ele>30.42</ele>
        <time>2012-06-17T08:09:23Z</time>
      </trkpt>
      <trkpt lat="47.84092" lon="-3.52709">
        <ele>37.63</ele>
        <time>2012-06-17T08:09:39Z</time>
      </trkpt>
      <trkpt lat="47.84105" lon="-3.52688">
        <ele>33.78</ele>
        <time>2012-06-17T08:09:47Z</time>
      </trkpt>
      <trkpt lat="47.84124" lon="-3.52713">
        <ele>28.98</ele>
        <time>2012-06-17T08:09:57Z</time>
      </trkpt>
      <trkpt lat="47.84126" lon="-3.52718">
        <ele>28.5</ele>
        <time>2012-06-17T08:09:58Z</time>
      </trkpt>
      <trkpt lat="47.84139" lon="-3.5273">
        <ele>25.61</ele>
        <time>2012-06-17T08:10:02Z</time>
      </trkpt>
      <trkpt lat="47.84158" lon="-3.5276">
        <ele>22.73</ele>
        <time>2012-06-17T08:10:08Z</time>
      </trkpt>
      <trkpt lat="47.84164" lon="-3.52748">
        <ele>19.36</ele>
        <time>2012-06-17T08:10:15Z</time>
      </trkpt>
      <trkpt lat="47.84162" lon="-3.52734">
        <ele>17.44</ele>
        <time>2012-06-17T08:10:23Z</time>
      </trkpt>
      <trkpt lat="47.84158" lon="-3.52725">
        <ele>16</ele>
        <time>2012-06-17T08:10:30Z</time>
      </trkpt>
      <trkpt lat="47.84157" lon="-3.52717">
        <ele>16</ele>
        <time>2012-06-17T08:10:34Z</time>
      </trkpt>
      <trkpt lat="47.84154" lon="-3.52704">
        <ele>15.52</ele>
        <time>2012-06-17T08:10:40Z</time>
      </trkpt>
      <trkpt lat="47.84139" lon="-3.52687">
        <ele>17.44</ele>
        <time>2012-06-17T08:10:47Z</time>
      </trkpt>
      <trkpt lat="47.84141" lon="-3.52667">
        <ele>21.29</ele>
        <time>2012-06-17T08:10:51Z</time>
      </trkpt>
      <trkpt lat="47.84147" lon="-3.52646">
        <ele>22.73</ele>
        <time>2012-06-17T08:10:58Z</time>
      </trkpt>
      <trkpt lat="47.84153" lon="-3.52625">
        <ele>21.77</ele>
        <time>2012-06-17T08:11:05Z</time>
      </trkpt>
      <trkpt lat="47.84166" lon="-3.52601">
        <ele>21.29</ele>
        <time>2012-06-17T08:11:13Z</time>
      </trkpt>
      <trkpt lat="47.84165" lon="-3.5258">
        <ele>22.25</ele>
        <time>2012-06-17T08:11:21Z</time>
      </trkpt>
      <trkpt lat="47.84165" lon="-3.52575">
        <ele>22.25</ele>
        <time>2012-06-17T08:11:23Z</time>
      </trkpt>
      <trkpt lat="47.84151" lon="-3.52547">
        <ele>23.21</ele>
        <time>2012-06-17T08:11:34Z</time>
      </trkpt>
      <trkpt lat="47.84134" lon="-3.52503">
        <ele>22.73</ele>
        <time>2012-06-17T08:11:47Z</time>
      </trkpt>
      <trkpt lat="47.84127" lon="-3.52476">
        <ele>22.25</ele>
        <time>2012-06-17T08:11:55Z</time>
      </trkpt>
      <trkpt lat="47.84114" lon="-3.52437">
        <ele>28.02</ele>
        <time>2012-06-17T08:12:07Z</time>
      </trkpt>
      <trkpt lat="47.84114" lon="-3.52432">
        <ele>29.46</ele>
        <time>2012-06-17T08:12:08Z</time>
      </trkpt>
      <trkpt lat="47.84119" lon="-3.52406">
        <ele>34.26</ele>
        <time>2012-06-17T08:12:12Z</time>
      </trkpt>
      <trkpt lat="47.84112" lon="-3.52368">
        <ele>38.59</ele>
        <time>2012-06-17T08:12:17Z</time>
      </trkpt>
      <trkpt lat="47.84069" lon="-3.52309">
        <ele>45.32</ele>
        <time>2012-06-17T08:12:29Z</time>
      </trkpt>
      <trkpt lat="47.84038" lon="-3.52259">
        <ele>45.8</ele>
        <time>2012-06-17T08:12:38Z</time>
      </trkpt>
      <trkpt lat="47.84029" lon="-3.52243">
        <ele>44.84</ele>
        <time>2012-06-17T08:12:40Z</time>
      </trkpt>
      <trkpt lat="47.84025" lon="-3.52205">
        <ele>44.84</ele>
        <time>2012-06-17T08:12:45Z</time>
      </trkpt>
      <trkpt lat="47.84028" lon="-3.52172">
        <ele>44.84</ele>
        <time>2012-06-17T08:12:53Z</time>
      </trkpt>
      <trkpt lat="47.84014" lon="-3.52153">
        <ele>46.28</ele>
        <time>2012-06-17T08:13:02Z</time>
      </trkpt>
      <trkpt lat="47.84006" lon="-3.52109">
        <ele>47.24</ele>
        <time>2012-06-17T08:13:12Z</time>
      </trkpt>
      <trkpt lat="47.83997" lon="-3.5208">
        <ele>46.28</ele>
        <time>2012-06-17T08:13:19Z</time>
      </trkpt>
      <trkpt lat="47.83996" lon="-3.52057">
        <ele>46.76</ele>
        <time>2012-06-17T08:13:24Z</time>
      </trkpt>
      <trkpt lat="47.83997" lon="-3.52038">
        <ele>46.28</ele>
        <time>2012-06-17T08:13:28Z</time>
      </trkpt>
      <trkpt lat="47.83999" lon="-3.51998">
        <ele>47.72</ele>
        <time>2012-06-17T08:13:34Z</time>
      </trkpt>
      <trkpt lat="47.84004" lon="-3.51947">
        <ele>51.09</ele>
        <time>2012-06-17T08:13:44Z</time>
      </trkpt>
      <trkpt lat="47.84005" lon="-3.51942">
        <ele>52.05</ele>
        <time>2012-06-17T08:13:45Z</time>
      </trkpt>
      <trkpt lat="47.84012" lon="-3.51913">
        <ele>57.82</ele>
        <time>2012-06-17T08:13:50Z</time>
      </trkpt>
      <trkpt lat="47.84042" lon="-3.51874">
        <ele>65.99</ele>
        <time>2012-06-17T08:14:00Z</time>
      </trkpt>
      <trkpt lat="47.84045" lon="-3.51859">
        <ele>66.95</ele>
        <time>2012-06-17T08:14:04Z</time>
      </trkpt>
      <trkpt lat="47.84049" lon="-3.5179">
        <ele>66.95</ele>
        <time>2012-06-17T08:14:16Z</time>
      </trkpt>
      <trkpt lat="47.84059" lon="-3.51724">
        <ele>57.82</ele>
        <time>2012-06-17T08:14:28Z</time>
      </trkpt>
      <trkpt lat="47.84069" lon="-3.51701">
        <ele>55.41</ele>
        <time>2012-06-17T08:14:31Z</time>
      </trkpt>
      <trkpt lat="47.84071" lon="-3.51655">
        <ele>48.68</ele>
        <time>2012-06-17T08:14:40Z</time>
      </trkpt>
      <trkpt lat="47.8407" lon="-3.51636">
        <ele>45.32</ele>
        <time>2012-06-17T08:14:43Z</time>
      </trkpt>
      <trkpt lat="47.84075" lon="-3.51586">
        <ele>39.55</ele>
        <time>2012-06-17T08:14:54Z</time>
      </trkpt>
      <trkpt lat="47.84073" lon="-3.51554">
        <ele>37.63</ele>
        <time>2012-06-17T08:15:00Z</time>
      </trkpt>
      <trkpt lat="47.84071" lon="-3.51494">
        <ele>33.78</ele>
        <time>2012-06-17T08:15:12Z</time>
      </trkpt>
      <trkpt lat="47.84055" lon="-3.51437">
        <ele>31.86</ele>
        <time>2012-06-17T08:15:21Z</time>
      </trkpt>
      <trkpt lat="47.84037" lon="-3.5137">
        <ele>28.98</ele>
        <time>2012-06-17T08:15:28Z</time>
      </trkpt>
      <trkpt lat="47.84011" lon="-3.51341">
        <ele>29.46</ele>
        <time>2012-06-17T08:15:33Z</time>
      </trkpt>
      <trkpt lat="47.83992" lon="-3.51344">
        <ele>32.34</ele>
        <time>2012-06-17T08:15:37Z</time>
      </trkpt>
      <trkpt lat="47.83935" lon="-3.51355">
        <ele>31.38</ele>
        <time>2012-06-17T08:15:52Z</time>
      </trkpt>
      <trkpt lat="47.83909" lon="-3.51344">
        <ele>31.38</ele>
        <time>2012-06-17T08:16:00Z</time>
      </trkpt>
      <trkpt lat="47.83904" lon="-3.5134">
        <ele>31.86</ele>
        <time>2012-06-17T08:16:02Z</time>
      </trkpt>
      <trkpt lat="47.83904" lon="-3.51317">
        <ele>33.3</ele>
        <time>2012-06-17T08:16:07Z</time>
      </trkpt>
      <trkpt lat="47.83906" lon="-3.51305">
        <ele>33.3</ele>
        <time>2012-06-17T08:16:09Z</time>
      </trkpt>
      <trkpt lat="47.8388" lon="-3.5127">
        <ele>35.71</ele>
        <time>2012-06-17T08:16:15Z</time>
      </trkpt>
      <trkpt lat="47.83847" lon="-3.51279">
        <ele>35.71</ele>
        <time>2012-06-17T08:16:20Z</time>
      </trkpt>
      <trkpt lat="47.83824" lon="-3.51287">
        <ele>36.19</ele>
        <time>2012-06-17T08:16:24Z</time>
      </trkpt>
      <trkpt lat="47.83813" lon="-3.51287">
        <ele>36.67</ele>
        <time>2012-06-17T08:16:26Z</time>
      </trkpt>
      <trkpt lat="47.83786" lon="-3.51277">
        <ele>39.07</ele>
        <time>2012-06-17T08:16:32Z</time>
      </trkpt>
      <trkpt lat="47.8373" lon="-3.51245">
        <ele>41.95</ele>
        <time>2012-06-17T08:16:45Z</time>
      </trkpt>
      <trkpt lat="47.83716" lon="-3.51225">
        <ele>42.44</ele>
        <time>2012-06-17T08:16:49Z</time>
      </trkpt>
      <trkpt lat="47.83709" lon="-3.51208">
        <ele>42.92</ele>
        <time>2012-06-17T08:16:52Z</time>
      </trkpt>
      <trkpt lat="47.83678" lon="-3.51163">
        <ele>44.84</ele>
        <time>2012-06-17T08:17:02Z</time>
      </trkpt>
      <trkpt lat="47.83662" lon="-3.51116">
        <ele>44.36</ele>
        <time>2012-06-17T08:17:09Z</time>
      </trkpt>
      <trkpt lat="47.83662" lon="-3.51082">
        <ele>43.4</ele>
        <time>2012-06-17T08:17:13Z</time>
      </trkpt>
      <trkpt lat="47.83664" lon="-3.50993">
        <ele>41.47</ele>
        <time>2012-06-17T08:17:23Z</time>
      </trkpt>
      <trkpt lat="47.83636" lon="-3.50908">
        <ele>39.07</ele>
        <time>2012-06-17T08:17:33Z</time>
      </trkpt>
      <trkpt lat="47.83584" lon="-3.50873">
        <ele>40.51</ele>
        <time>2012-06-17T08:17:41Z</time>
      </trkpt>
      <trkpt lat="47.83543" lon="-3.50827">
        <ele>41.47</ele>
        <time>2012-06-17T08:17:50Z</time>
      </trkpt>
      <trkpt lat="47.83511" lon="-3.50768">
        <ele>41.47</ele>
        <time>2012-06-17T08:18:00Z</time>
      </trkpt>
      <trkpt lat="47.83483" lon="-3.50698">
        <ele>42.92</ele>
        <time>2012-06-17T08:18:09Z</time>
      </trkpt>
      <trkpt lat="47.83474" lon="-3.50677">
        <ele>42.44</ele>
        <time>2012-06-17T08:18:12Z</time>
      </trkpt>
      <trkpt lat="47.83467" lon="-3.50657">
        <ele>42.44</ele>
        <time>2012-06-17T08:18:15Z</time>
      </trkpt>
      <trkpt lat="47.83466" lon="-3.50631">
        <ele>42.44</ele>
        <time>2012-06-17T08:18:19Z</time>
      </trkpt>
      <trkpt lat="47.83492" lon="-3.5056">
        <ele>42.44</ele>
        <time>2012-06-17T08:18:29Z</time>
      </trkpt>
      <trkpt lat="47.83504" lon="-3.50536">
        <ele>42.44</ele>
        <time>2012-06-17T08:18:33Z</time>
      </trkpt>
      <trkpt lat="47.83518" lon="-3.50515">
        <ele>41.95</ele>
        <time>2012-06-17T08:18:37Z</time>
      </trkpt>
      <trkpt lat="47.83533" lon="-3.50447">
        <ele>39.07</ele>
        <time>2012-06-17T08:18:46Z</time>
      </trkpt>
      <trkpt lat="47.83535" lon="-3.5044">
        <ele>38.59</ele>
        <time>2012-06-17T08:18:47Z</time>
      </trkpt>
      <trkpt lat="47.83565" lon="-3.50367">
        <ele>34.26</ele>
        <time>2012-06-17T08:18:57Z</time>
      </trkpt>
      <trkpt lat="47.83582" lon="-3.50328">
        <ele>33.78</ele>
        <time>2012-06-17T08:19:03Z</time>
      </trkpt>
      <trkpt lat="47.83589" lon="-3.50308">
        <ele>33.78</ele>
        <time>2012-06-17T08:19:06Z</time>
      </trkpt>
      <trkpt lat="47.83609" lon="-3.50232">
        <ele>35.23</ele>
        <time>2012-06-17T08:19:17Z</time>
      </trkpt>
      <trkpt lat="47.83602" lon="-3.50216">
        <ele>37.15</ele>
        <time>2012-06-17T08:19:25Z</time>
      </trkpt>
      <trkpt lat="47.83521" lon="-3.50177">
        <ele>40.03</ele>
        <time>2012-06-17T08:19:40Z</time>
      </trkpt>
      <trkpt lat="47.8336" lon="-3.50099">
        <ele>41.47</ele>
        <time>2012-06-17T08:20:04Z</time>
      </trkpt>
      <trkpt lat="47.83324" lon="-3.50082">
        <ele>41.47</ele>
        <time>2012-06-17T08:20:09Z</time>
      </trkpt>
      <trkpt lat="47.83289" lon="-3.50049">
        <ele>41.47</ele>
        <time>2012-06-17T08:20:15Z</time>
      </trkpt>
      <trkpt lat="47.83222" lon="-3.49995">
        <ele>44.84</ele>
        <time>2012-06-17T08:20:27Z</time>
      </trkpt>
      <trkpt lat="47.83186" lon="-3.49965">
        <ele>47.24</ele>
        <time>2012-06-17T08:20:35Z</time>
      </trkpt>
      <trkpt lat="47.8317" lon="-3.49949">
        <ele>48.68</ele>
        <time>2012-06-17T08:20:39Z</time>
      </trkpt>
      <trkpt lat="47.83153" lon="-3.49949">
        <ele>50.13</ele>
        <time>2012-06-17T08:20:43Z</time>
      </trkpt>
      <trkpt lat="47.83118" lon="-3.50012">
        <ele>52.53</ele>
        <time>2012-06-17T08:20:55Z</time>
      </trkpt>
      <trkpt lat="47.83097" lon="-3.50048">
        <ele>52.53</ele>
        <time>2012-06-17T08:21:00Z</time>
      </trkpt>
      <trkpt lat="47.83077" lon="-3.50084">
        <ele>52.53</ele>
        <time>2012-06-17T08:21:05Z</time>
      </trkpt>
      <trkpt lat="47.83061" lon="-3.50114">
        <ele>52.05</ele>
        <time>2012-06-17T08:21:09Z</time>
      </trkpt>
      <trkpt lat="47.83054" lon="-3.50125">
        <ele>52.05</ele>
        <time>2012-06-17T08:21:11Z</time>
      </trkpt>
      <trkpt lat="47.83042" lon="-3.50151">
        <ele>52.53</ele>
        <time>2012-06-17T08:21:15Z</time>
      </trkpt>
      <trkpt lat="47.83028" lon="-3.50209">
        <ele>53.49</ele>
        <time>2012-06-17T08:21:24Z</time>
      </trkpt>
      <trkpt lat="47.83017" lon="-3.50238">
        <ele>53.97</ele>
        <time>2012-06-17T08:21:29Z</time>
      </trkpt>
      <trkpt lat="47.82974" lon="-3.50231">
        <ele>53.01</ele>
        <time>2012-06-17T08:21:40Z</time>
      </trkpt>
      <trkpt lat="47.82964" lon="-3.50227">
        <ele>52.53</ele>
        <time>2012-06-17T08:21:42Z</time>
      </trkpt>
      <trkpt lat="47.82949" lon="-3.50224">
        <ele>53.01</ele>
        <time>2012-06-17T08:21:45Z</time>
      </trkpt>
      <trkpt lat="47.8293" lon="-3.50219">
        <ele>52.53</ele>
        <time>2012-06-17T08:21:49Z</time>
      </trkpt>
      <trkpt lat="47.82914" lon="-3.50215">
        <ele>51.57</ele>
        <time>2012-06-17T08:21:52Z</time>
      </trkpt>
      <trkpt lat="47.82885" lon="-3.50208">
        <ele>49.16</ele>
        <time>2012-06-17T08:21:57Z</time>
      </trkpt>
      <trkpt lat="47.8281" lon="-3.50193">
        <ele>43.88</ele>
        <time>2012-06-17T08:22:09Z</time>
      </trkpt>
      <trkpt lat="47.82675" lon="-3.50165">
        <ele>45.32</ele>
        <time>2012-06-17T08:22:30Z</time>
      </trkpt>
      <trkpt lat="47.82647" lon="-3.50133">
        <ele>45.8</ele>
        <time>2012-06-17T08:22:36Z</time>
      </trkpt>
      <trkpt lat="47.82643" lon="-3.50114">
        <ele>45.8</ele>
        <time>2012-06-17T08:22:38Z</time>
      </trkpt>
      <trkpt lat="47.8261" lon="-3.50078">
        <ele>45.32</ele>
        <time>2012-06-17T08:22:45Z</time>
      </trkpt>
      <trkpt lat="47.82597" lon="-3.50079">
        <ele>45.32</ele>
        <time>2012-06-17T08:22:47Z</time>
      </trkpt>
      <trkpt lat="47.82569" lon="-3.50065">
        <ele>45.8</ele>
        <time>2012-06-17T08:22:52Z</time>
      </trkpt>
      <trkpt lat="47.82556" lon="-3.50048">
        <ele>45.8</ele>
        <time>2012-06-17T08:22:55Z</time>
      </trkpt>
      <trkpt lat="47.8253" lon="-3.50027">
        <ele>45.8</ele>
        <time>2012-06-17T08:23:00Z</time>
      </trkpt>
      <trkpt lat="47.82488" lon="-3.50033">
        <ele>44.36</ele>
        <time>2012-06-17T08:23:07Z</time>
      </trkpt>
      <trkpt lat="47.82389" lon="-3.50073">
        <ele>46.28</ele>
        <time>2012-06-17T08:23:24Z</time>
      </trkpt>
      <trkpt lat="47.82264" lon="-3.50048">
        <ele>42.92</ele>
        <time>2012-06-17T08:23:45Z</time>
      </trkpt>
      <trkpt lat="47.82152" lon="-3.50023">
        <ele>37.15</ele>
        <time>2012-06-17T08:23:59Z</time>
      </trkpt>
      <trkpt lat="47.82009" lon="-3.49994">
        <ele>33.78</ele>
        <time>2012-06-17T08:24:18Z</time>
      </trkpt>
      <trkpt lat="47.81941" lon="-3.5">
        <ele>34.74</ele>
        <time>2012-06-17T08:24:30Z</time>
      </trkpt>
      <trkpt lat="47.81929" lon="-3.50001">
        <ele>34.26</ele>
        <time>2012-06-17T08:24:33Z</time>
      </trkpt>
      <trkpt lat="47.81914" lon="-3.50002">
        <ele>33.78</ele>
        <time>2012-06-17T08:24:36Z</time>
      </trkpt>
      <trkpt lat="47.81884" lon="-3.50016">
        <ele>32.34</ele>
        <time>2012-06-17T08:24:44Z</time>
      </trkpt>
      <trkpt lat="47.8187" lon="-3.50058">
        <ele>31.38</ele>
        <time>2012-06-17T08:24:57Z</time>
      </trkpt>
      <trkpt lat="47.81841" lon="-3.50091">
        <ele>32.34</ele>
        <time>2012-06-17T08:25:05Z</time>
      </trkpt>
      <trkpt lat="47.81824" lon="-3.50109">
        <ele>34.74</ele>
        <time>2012-06-17T08:25:10Z</time>
      </trkpt>
      <trkpt lat="47.81785" lon="-3.50135">
        <ele>38.11</ele>
        <time>2012-06-17T08:25:21Z</time>
      </trkpt>
      <trkpt lat="47.81763" lon="-3.50161">
        <ele>42.92</ele>
        <time>2012-06-17T08:25:31Z</time>
      </trkpt>
      <trkpt lat="47.81749" lon="-3.50198">
        <ele>48.68</ele>
        <time>2012-06-17T08:25:38Z</time>
      </trkpt>
      <trkpt lat="47.81742" lon="-3.50249">
        <ele>55.89</ele>
        <time>2012-06-17T08:25:49Z</time>
      </trkpt>
      <trkpt lat="47.81741" lon="-3.50254">
        <ele>56.86</ele>
        <time>2012-06-17T08:25:50Z</time>
      </trkpt>
      <trkpt lat="47.81722" lon="-3.50281">
        <ele>63.58</ele>
        <time>2012-06-17T08:25:58Z</time>
      </trkpt>
      <trkpt lat="47.81708" lon="-3.50332">
        <ele>68.39</ele>
        <time>2012-06-17T08:26:07Z</time>
      </trkpt>
      <trkpt lat="47.81687" lon="-3.5036">
        <ele>70.79</ele>
        <time>2012-06-17T08:26:14Z</time>
      </trkpt>
      <trkpt lat="47.81683" lon="-3.50382">
        <ele>68.87</ele>
        <time>2012-06-17T08:26:17Z</time>
      </trkpt>
      <trkpt lat="47.81677" lon="-3.50412">
        <ele>68.87</ele>
        <time>2012-06-17T08:26:21Z</time>
      </trkpt>
      <trkpt lat="47.81652" lon="-3.50538">
        <ele>51.09</ele>
        <time>2012-06-17T08:26:34Z</time>
      </trkpt>
      <trkpt lat="47.81611" lon="-3.50709">
        <ele>40.03</ele>
        <time>2012-06-17T08:26:52Z</time>
      </trkpt>
      <trkpt lat="47.81578" lon="-3.50766">
        <ele>37.63</ele>
        <time>2012-06-17T08:27:00Z</time>
      </trkpt>
      <trkpt lat="47.81493" lon="-3.50868">
        <ele>34.74</ele>
        <time>2012-06-17T08:27:18Z</time>
      </trkpt>
      <trkpt lat="47.81488" lon="-3.50873">
        <ele>34.74</ele>
        <time>2012-06-17T08:27:19Z</time>
      </trkpt>
      <trkpt lat="47.81439" lon="-3.50866">
        <ele>35.71</ele>
        <time>2012-06-17T08:27:27Z</time>
      </trkpt>
      <trkpt lat="47.81404" lon="-3.50848">
        <ele>38.11</ele>
        <time>2012-06-17T08:27:34Z</time>
      </trkpt>
      <trkpt lat="47.8139" lon="-3.50837">
        <ele>39.07</ele>
        <time>2012-06-17T08:27:37Z</time>
      </trkpt>
      <trkpt lat="47.81323" lon="-3.50768">
        <ele>40.51</ele>
        <time>2012-06-17T08:27:53Z</time>
      </trkpt>
      <trkpt lat="47.81242" lon="-3.50684">
        <ele>37.15</ele>
        <time>2012-06-17T08:28:09Z</time>
      </trkpt>
      <trkpt lat="47.81159" lon="-3.50597">
        <ele>34.26</ele>
        <time>2012-06-17T08:28:24Z</time>
      </trkpt>
      <trkpt lat="47.81132" lon="-3.5057">
        <ele>33.78</ele>
        <time>2012-06-17T08:28:29Z</time>
      </trkpt>
      <trkpt lat="47.81039" lon="-3.50512">
        <ele>37.15</ele>
        <time>2012-06-17T08:28:48Z</time>
      </trkpt>
      <trkpt lat="47.80957" lon="-3.50463">
        <ele>42.92</ele>
        <time>2012-06-17T08:29:10Z</time>
      </trkpt>
      <trkpt lat="47.80897" lon="-3.50436">
        <ele>43.4</ele>
        <time>2012-06-17T08:29:22Z</time>
      </trkpt>
      <trkpt lat="47.80868" lon="-3.50454">
        <ele>43.88</ele>
        <time>2012-06-17T08:29:27Z</time>
      </trkpt>
      <trkpt lat="47.80808" lon="-3.50545">
        <ele>44.36</ele>
        <time>2012-06-17T08:29:43Z</time>
      </trkpt>
      <trkpt lat="47.80797" lon="-3.50562">
        <ele>45.32</ele>
        <time>2012-06-17T08:29:46Z</time>
      </trkpt>
      <trkpt lat="47.80774" lon="-3.50596">
        <ele>45.32</ele>
        <time>2012-06-17T08:29:52Z</time>
      </trkpt>
      <trkpt lat="47.80724" lon="-3.50664">
        <ele>44.36</ele>
        <time>2012-06-17T08:30:04Z</time>
      </trkpt>
      <trkpt lat="47.80711" lon="-3.50683">
        <ele>43.88</ele>
        <time>2012-06-17T08:30:07Z</time>
      </trkpt>
      <trkpt lat="47.80682" lon="-3.50676">
        <ele>41.95</ele>
        <time>2012-06-17T08:30:15Z</time>
      </trkpt>
      <trkpt lat="47.80675" lon="-3.50676">
        <ele>40.99</ele>
        <time>2012-06-17T08:30:17Z</time>
      </trkpt>
      <trkpt lat="47.80668" lon="-3.50678">
        <ele>40.03</ele>
        <time>2012-06-17T08:30:19Z</time>
      </trkpt>
      <trkpt lat="47.8065" lon="-3.50684">
        <ele>38.11</ele>
        <time>2012-06-17T08:30:23Z</time>
      </trkpt>
      <trkpt lat="47.80649" lon="-3.50695">
        <ele>38.11</ele>
        <time>2012-06-17T08:30:26Z</time>
      </trkpt>
      <trkpt lat="47.80645" lon="-3.50716">
        <ele>38.11</ele>
        <time>2012-06-17T08:30:33Z</time>
      </trkpt>
      <trkpt lat="47.8063" lon="-3.50727">
        <ele>39.55</ele>
        <time>2012-06-17T08:30:37Z</time>
      </trkpt>
      <trkpt lat="47.80623" lon="-3.5074">
        <ele>40.99</ele>
        <time>2012-06-17T08:30:41Z</time>
      </trkpt>
      <trkpt lat="47.80622" lon="-3.50746">
        <ele>41.95</ele>
        <time>2012-06-17T08:30:43Z</time>
      </trkpt>
      <trkpt lat="47.80619" lon="-3.50752">
        <ele>43.4</ele>
        <time>2012-06-17T08:30:45Z</time>
      </trkpt>
      <trkpt lat="47.80602" lon="-3.50767">
        <ele>42.92</ele>
        <time>2012-06-17T08:30:50Z</time>
      </trkpt>
      <trkpt lat="47.80604" lon="-3.50734">
        <ele>43.88</ele>
        <time>2012-06-17T08:30:58Z</time>
      </trkpt>
      <trkpt lat="47.8061" lon="-3.50685">
        <ele>47.24</ele>
        <time>2012-06-17T08:31:10Z</time>
      </trkpt>
      <trkpt lat="47.80608" lon="-3.50659">
        <ele>46.76</ele>
        <time>2012-06-17T08:31:14Z</time>
      </trkpt>
      <trkpt lat="47.80612" lon="-3.50641">
        <ele>46.76</ele>
        <time>2012-06-17T08:31:18Z</time>
      </trkpt>
      <trkpt lat="47.80614" lon="-3.50607">
        <ele>47.72</ele>
        <time>2012-06-17T08:31:24Z</time>
      </trkpt>
      <trkpt lat="47.80617" lon="-3.50577">
        <ele>48.68</ele>
        <time>2012-06-17T08:31:29Z</time>
      </trkpt>
      <trkpt lat="47.80634" lon="-3.5055">
        <ele>50.61</ele>
        <time>2012-06-17T08:31:39Z</time>
      </trkpt>
      <trkpt lat="47.80652" lon="-3.50522">
        <ele>52.53</ele>
        <time>2012-06-17T08:31:47Z</time>
      </trkpt>
      <trkpt lat="47.80674" lon="-3.50497">
        <ele>54.93</ele>
        <time>2012-06-17T08:31:55Z</time>
      </trkpt>
      <trkpt lat="47.80692" lon="-3.50475">
        <ele>56.37</ele>
        <time>2012-06-17T08:31:59Z</time>
      </trkpt>
      <trkpt lat="47.80734" lon="-3.50425">
        <ele>58.3</ele>
        <time>2012-06-17T08:32:09Z</time>
      </trkpt>
      <trkpt lat="47.80742" lon="-3.50414">
        <ele>58.3</ele>
        <time>2012-06-17T08:32:11Z</time>
      </trkpt>
      <trkpt lat="47.80754" lon="-3.50391">
        <ele>58.3</ele>
        <time>2012-06-17T08:32:15Z</time>
      </trkpt>
      <trkpt lat="47.80765" lon="-3.50372">
        <ele>58.78</ele>
        <time>2012-06-17T08:32:19Z</time>
      </trkpt>
      <trkpt lat="47.80784" lon="-3.50332">
        <ele>59.26</ele>
        <time>2012-06-17T08:32:29Z</time>
      </trkpt>
      <trkpt lat="47.80783" lon="-3.5028">
        <ele>60.22</ele>
        <time>2012-06-17T08:32:37Z</time>
      </trkpt>
      <trkpt lat="47.80771" lon="-3.50268">
        <ele>53.49</ele>
        <time>2012-06-17T08:32:42Z</time>
      </trkpt>
      <trkpt lat="47.80761" lon="-3.50272">
        <ele>53.49</ele>
        <time>2012-06-17T08:32:45Z</time>
      </trkpt>
      <trkpt lat="47.80752" lon="-3.50277">
        <ele>52.53</ele>
        <time>2012-06-17T08:32:50Z</time>
      </trkpt>
      <trkpt lat="47.80729" lon="-3.50282">
        <ele>49.16</ele>
        <time>2012-06-17T08:33:01Z</time>
      </trkpt>
      <trkpt lat="47.80722" lon="-3.50287">
        <ele>48.68</ele>
        <time>2012-06-17T08:33:05Z</time>
      </trkpt>
      <trkpt lat="47.80699" lon="-3.50304">
        <ele>44.84</ele>
        <time>2012-06-17T08:33:16Z</time>
      </trkpt>
      <trkpt lat="47.80687" lon="-3.5031">
        <ele>44.84</ele>
        <time>2012-06-17T08:33:23Z</time>
      </trkpt>
      <trkpt lat="47.80664" lon="-3.50322">
        <ele>49.16</ele>
        <time>2012-06-17T08:33:33Z</time>
      </trkpt>
      <trkpt lat="47.80654" lon="-3.50327">
        <ele>49.16</ele>
        <time>2012-06-17T08:33:38Z</time>
      </trkpt>
      <trkpt lat="47.80618" lon="-3.50345">
        <ele>50.61</ele>
        <time>2012-06-17T08:33:51Z</time>
      </trkpt>
      <trkpt lat="47.80616" lon="-3.50346">
        <ele>51.09</ele>
        <time>2012-06-17T08:33:52Z</time>
      </trkpt>
      <trkpt lat="47.80583" lon="-3.50355">
        <ele>55.41</ele>
        <time>2012-06-17T08:34:03Z</time>
      </trkpt>
      <trkpt lat="47.80545" lon="-3.50363">
        <ele>50.13</ele>
        <time>2012-06-17T08:34:16Z</time>
      </trkpt>
      <trkpt lat="47.80536" lon="-3.50366">
        <ele>53.01</ele>
        <time>2012-06-17T08:34:19Z</time>
      </trkpt>
      <trkpt lat="47.80519" lon="-3.50378">
        <ele>54.45</ele>
        <time>2012-06-17T08:34:24Z</time>
      </trkpt>
      <trkpt lat="47.80478" lon="-3.50391">
        <ele>54.93</ele>
        <time>2012-06-17T08:34:37Z</time>
      </trkpt>
      <trkpt lat="47.80452" lon="-3.50401">
        <ele>54.45</ele>
        <time>2012-06-17T08:34:43Z</time>
      </trkpt>
      <trkpt lat="47.80377" lon="-3.50411">
        <ele>50.13</ele>
        <time>2012-06-17T08:34:57Z</time>
      </trkpt>
      <trkpt lat="47.80278" lon="-3.504">
        <ele>45.8</ele>
        <time>2012-06-17T08:35:12Z</time>
      </trkpt>
      <trkpt lat="47.80256" lon="-3.50401">
        <ele>43.88</ele>
        <time>2012-06-17T08:35:15Z</time>
      </trkpt>
      <trkpt lat="47.80181" lon="-3.50385">
        <ele>44.36</ele>
        <time>2012-06-17T08:35:27Z</time>
      </trkpt>
      <trkpt lat="47.80165" lon="-3.50382">
        <ele>45.8</ele>
        <time>2012-06-17T08:35:30Z</time>
      </trkpt>
      <trkpt lat="47.80148" lon="-3.50383">
        <ele>46.28</ele>
        <time>2012-06-17T08:35:33Z</time>
      </trkpt>
      <trkpt lat="47.80124" lon="-3.50401">
        <ele>49.65</ele>
        <time>2012-06-17T08:35:38Z</time>
      </trkpt>
      <trkpt lat="47.80106" lon="-3.50435">
        <ele>49.65</ele>
        <time>2012-06-17T08:35:45Z</time>
      </trkpt>
      <trkpt lat="47.80103" lon="-3.50431">
        <ele>49.16</ele>
        <time>2012-06-17T08:35:47Z</time>
      </trkpt>
      <trkpt lat="47.80097" lon="-3.50419">
        <ele>47.72</ele>
        <time>2012-06-17T08:35:51Z</time>
      </trkpt>
      <trkpt lat="47.80069" lon="-3.50413">
        <ele>46.76</ele>
        <time>2012-06-17T08:35:59Z</time>
      </trkpt>
      <trkpt lat="47.80039" lon="-3.50411">
        <ele>51.57</ele>
        <time>2012-06-17T08:36:10Z</time>
      </trkpt>
      <trkpt lat="47.80011" lon="-3.50402">
        <ele>52.53</ele>
        <time>2012-06-17T08:36:19Z</time>
      </trkpt>
      <trkpt lat="47.8" lon="-3.50397">
        <ele>54.45</ele>
        <time>2012-06-17T08:36:25Z</time>
      </trkpt>
      <trkpt lat="47.79979" lon="-3.50401">
        <ele>63.1</ele>
        <time>2012-06-17T08:36:33Z</time>
      </trkpt>
      <trkpt lat="47.79968" lon="-3.504">
        <ele>66.95</ele>
        <time>2012-06-17T08:36:38Z</time>
      </trkpt>
      <trkpt lat="47.79951" lon="-3.50394">
        <ele>71.76</ele>
        <time>2012-06-17T08:36:48Z</time>
      </trkpt>
      <trkpt lat="47.79934" lon="-3.50391">
        <ele>74.16</ele>
        <time>2012-06-17T08:36:57Z</time>
      </trkpt>
      <trkpt lat="47.79899" lon="-3.50387">
        <ele>70.79</ele>
        <time>2012-06-17T08:37:10Z</time>
      </trkpt>
      <trkpt lat="47.79868" lon="-3.50398">
        <ele>72.72</ele>
        <time>2012-06-17T08:37:20Z</time>
      </trkpt>
      <trkpt lat="47.7983" lon="-3.50413">
        <ele>70.79</ele>
        <time>2012-06-17T08:37:30Z</time>
      </trkpt>
      <trkpt lat="47.79824" lon="-3.50417">
        <ele>69.35</ele>
        <time>2012-06-17T08:37:32Z</time>
      </trkpt>
      <trkpt lat="47.79795" lon="-3.50409">
        <ele>63.58</ele>
        <time>2012-06-17T08:37:40Z</time>
      </trkpt>
      <trkpt lat="47.79778" lon="-3.50418">
        <ele>63.1</ele>
        <time>2012-06-17T08:37:45Z</time>
      </trkpt>
      <trkpt lat="47.79779" lon="-3.50419">
        <ele>66.95</ele>
        <time>2012-06-17T08:37:50Z</time>
      </trkpt>
      <trkpt lat="47.79769" lon="-3.50449">
        <ele>65.03</ele>
        <time>2012-06-17T08:37:59Z</time>
      </trkpt>
      <trkpt lat="47.79749" lon="-3.50483">
        <ele>67.91</ele>
        <time>2012-06-17T08:38:09Z</time>
      </trkpt>
      <trkpt lat="47.79744" lon="-3.50482">
        <ele>68.87</ele>
        <time>2012-06-17T08:38:10Z</time>
      </trkpt>
      <trkpt lat="47.79692" lon="-3.50493">
        <ele>64.55</ele>
        <time>2012-06-17T08:38:24Z</time>
      </trkpt>
      <trkpt lat="47.7968" lon="-3.50497">
        <ele>62.62</ele>
        <time>2012-06-17T08:38:27Z</time>
      </trkpt>
      <trkpt lat="47.79653" lon="-3.505">
        <ele>62.14</ele>
        <time>2012-06-17T08:38:33Z</time>
      </trkpt>
      <trkpt lat="47.79619" lon="-3.50506">
        <ele>57.82</ele>
        <time>2012-06-17T08:38:39Z</time>
      </trkpt>
      <trkpt lat="47.79588" lon="-3.50518">
        <ele>54.45</ele>
        <time>2012-06-17T08:38:44Z</time>
      </trkpt>
      <trkpt lat="47.79578" lon="-3.50528">
        <ele>54.45</ele>
        <time>2012-06-17T08:38:46Z</time>
      </trkpt>
      <trkpt lat="47.79562" lon="-3.50572">
        <ele>56.37</ele>
        <time>2012-06-17T08:38:52Z</time>
      </trkpt>
      <trkpt lat="47.79556" lon="-3.5062">
        <ele>55.89</ele>
        <time>2012-06-17T08:38:59Z</time>
      </trkpt>
      <trkpt lat="47.79525" lon="-3.50652">
        <ele>55.41</ele>
        <time>2012-06-17T08:39:08Z</time>
      </trkpt>
      <trkpt lat="47.79505" lon="-3.50647">
        <ele>53.49</ele>
        <time>2012-06-17T08:39:18Z</time>
      </trkpt>
      <trkpt lat="47.79503" lon="-3.50646">
        <ele>53.01</ele>
        <time>2012-06-17T08:39:40Z</time>
      </trkpt>
      <trkpt lat="47.79503" lon="-3.50646">
        <ele>53.01</ele>
        <time>2012-06-17T08:39:51Z</time>
      </trkpt>
      <trkpt lat="47.79499" lon="-3.50637">
        <ele>52.05</ele>
        <time>2012-06-17T08:39:55Z</time>
      </trkpt>
      <trkpt lat="47.79489" lon="-3.50582">
        <ele>48.68</ele>
        <time>2012-06-17T08:40:01Z</time>
      </trkpt>
      <trkpt lat="47.7948" lon="-3.50548">
        <ele>46.28</ele>
        <time>2012-06-17T08:40:04Z</time>
      </trkpt>
      <trkpt lat="47.79456" lon="-3.50527">
        <ele>45.8</ele>
        <time>2012-06-17T08:40:09Z</time>
      </trkpt>
      <trkpt lat="47.79431" lon="-3.50555">
        <ele>46.28</ele>
        <time>2012-06-17T08:40:16Z</time>
      </trkpt>
      <trkpt lat="47.79379" lon="-3.50608">
        <ele>46.76</ele>
        <time>2012-06-17T08:40:27Z</time>
      </trkpt>
      <trkpt lat="47.79342" lon="-3.50638">
        <ele>46.28</ele>
        <time>2012-06-17T08:40:34Z</time>
      </trkpt>
      <trkpt lat="47.79287" lon="-3.50669">
        <ele>42.92</ele>
        <time>2012-06-17T08:40:43Z</time>
      </trkpt>
      <trkpt lat="47.79259" lon="-3.50665">
        <ele>40.03</ele>
        <time>2012-06-17T08:40:47Z</time>
      </trkpt>
      <trkpt lat="47.79228" lon="-3.50593">
        <ele>34.74</ele>
        <time>2012-06-17T08:40:55Z</time>
      </trkpt>
      <trkpt lat="47.79215" lon="-3.50577">
        <ele>32.34</ele>
        <time>2012-06-17T08:40:59Z</time>
      </trkpt>
      <trkpt lat="47.792" lon="-3.50571">
        <ele>30.9</ele>
        <time>2012-06-17T08:41:02Z</time>
      </trkpt>
      <trkpt lat="47.7919" lon="-3.50566">
        <ele>29.94</ele>
        <time>2012-06-17T08:41:04Z</time>
      </trkpt>
      <trkpt lat="47.79167" lon="-3.50561">
        <ele>28.02</ele>
        <time>2012-06-17T08:41:08Z</time>
      </trkpt>
      <trkpt lat="47.79143" lon="-3.50553">
        <ele>25.61</ele>
        <time>2012-06-17T08:41:14Z</time>
      </trkpt>
      <trkpt lat="47.79147" lon="-3.50515">
        <ele>20.81</ele>
        <time>2012-06-17T08:41:23Z</time>
      </trkpt>
      <trkpt lat="47.79157" lon="-3.50483">
        <ele>16.96</ele>
        <time>2012-06-17T08:41:31Z</time>
      </trkpt>
      <trkpt lat="47.79152" lon="-3.50456">
        <ele>15.04</ele>
        <time>2012-06-17T08:41:35Z</time>
      </trkpt>
      <trkpt lat="47.79139" lon="-3.50415">
        <ele>10.71</ele>
        <time>2012-06-17T08:41:43Z</time>
      </trkpt>
      <trkpt lat="47.79121" lon="-3.50373">
        <ele>9.27</ele>
        <time>2012-06-17T08:41:52Z</time>
      </trkpt>
      <trkpt lat="47.79108" lon="-3.50362">
        <ele>10.23</ele>
        <time>2012-06-17T08:41:55Z</time>
      </trkpt>
      <trkpt lat="47.79096" lon="-3.50339">
        <ele>9.75</ele>
        <time>2012-06-17T08:41:59Z</time>
      </trkpt>
      <trkpt lat="47.79075" lon="-3.50321">
        <ele>8.79</ele>
        <time>2012-06-17T08:42:02Z</time>
      </trkpt>
      <trkpt lat="47.79002" lon="-3.50275">
        <ele>9.27</ele>
        <time>2012-06-17T08:42:14Z</time>
      </trkpt>
      <trkpt lat="47.78996" lon="-3.50273">
        <ele>8.79</ele>
        <time>2012-06-17T08:42:15Z</time>
      </trkpt>
      <trkpt lat="47.7895" lon="-3.50235">
        <ele>8.79</ele>
        <time>2012-06-17T08:42:23Z</time>
      </trkpt>
      <trkpt lat="47.7887" lon="-3.50212">
        <ele>10.71</ele>
        <time>2012-06-17T08:42:37Z</time>
      </trkpt>
      <trkpt lat="47.78853" lon="-3.502">
        <ele>10.71</ele>
        <time>2012-06-17T08:42:40Z</time>
      </trkpt>
      <trkpt lat="47.78839" lon="-3.50164">
        <ele>10.71</ele>
        <time>2012-06-17T08:42:44Z</time>
      </trkpt>
      <trkpt lat="47.78818" lon="-3.50135">
        <ele>12.63</ele>
        <time>2012-06-17T08:42:48Z</time>
      </trkpt>
      <trkpt lat="47.78783" lon="-3.50121">
        <ele>13.12</ele>
        <time>2012-06-17T08:42:53Z</time>
      </trkpt>
      <trkpt lat="47.78736" lon="-3.50121">
        <ele>14.56</ele>
        <time>2012-06-17T08:43:00Z</time>
      </trkpt>
      <trkpt lat="47.78713" lon="-3.50111">
        <ele>15.52</ele>
        <time>2012-06-17T08:43:04Z</time>
      </trkpt>
      <trkpt lat="47.78703" lon="-3.50099">
        <ele>15.04</ele>
        <time>2012-06-17T08:43:06Z</time>
      </trkpt>
      <trkpt lat="47.78683" lon="-3.50062">
        <ele>14.56</ele>
        <time>2012-06-17T08:43:11Z</time>
      </trkpt>
      <trkpt lat="47.78629" lon="-3.49964">
        <ele>14.56</ele>
        <time>2012-06-17T08:43:23Z</time>
      </trkpt>
      <trkpt lat="47.78625" lon="-3.49957">
        <ele>14.56</ele>
        <time>2012-06-17T08:43:24Z</time>
      </trkpt>
      <trkpt lat="47.78612" lon="-3.49924">
        <ele>14.08</ele>
        <time>2012-06-17T08:43:28Z</time>
      </trkpt>
      <trkpt lat="47.78595" lon="-3.49819">
        <ele>16</ele>
        <time>2012-06-17T08:43:39Z</time>
      </trkpt>
      <trkpt lat="47.78567" lon="-3.49748">
        <ele>14.56</ele>
        <time>2012-06-17T08:43:48Z</time>
      </trkpt>
      <trkpt lat="47.78556" lon="-3.49727">
        <ele>13.6</ele>
        <time>2012-06-17T08:43:52Z</time>
      </trkpt>
      <trkpt lat="47.7856" lon="-3.49712">
        <ele>12.63</ele>
        <time>2012-06-17T08:43:57Z</time>
      </trkpt>
      <trkpt lat="47.78571" lon="-3.49701">
        <ele>11.67</ele>
        <time>2012-06-17T08:43:59Z</time>
      </trkpt>
      <trkpt lat="47.78568" lon="-3.49672">
        <ele>9.27</ele>
        <time>2012-06-17T08:44:04Z</time>
      </trkpt>
      <trkpt lat="47.78565" lon="-3.49659">
        <ele>5.42</ele>
        <time>2012-06-17T08:44:16Z</time>
      </trkpt>
      <trkpt lat="47.78567" lon="-3.49641">
        <ele>-1.79</ele>
        <time>2012-06-17T08:44:39Z</time>
      </trkpt>
      <trkpt lat="47.78568" lon="-3.49639">
        <ele>-3.71</ele>
        <time>2012-06-17T08:44:58Z</time>
      </trkpt>
      <trkpt lat="47.78572" lon="-3.49631">
        <ele>-3.23</ele>
        <time>2012-06-17T08:45:03Z</time>
      </trkpt>
      <trkpt lat="47.78574" lon="-3.49617">
        <ele>-4.67</ele>
        <time>2012-06-17T08:45:08Z</time>
      </trkpt>
      <trkpt lat="47.78587" lon="-3.49595">
        <ele>-0.34</ele>
        <time>2012-06-17T08:45:17Z</time>
      </trkpt>
      <trkpt lat="47.78602" lon="-3.49596">
        <ele>0.14</ele>
        <time>2012-06-17T08:45:26Z</time>
      </trkpt>
      <trkpt lat="47.78609" lon="-3.49595">
        <ele>3.02</ele>
        <time>2012-06-17T08:45:29Z</time>
      </trkpt>
      <trkpt lat="47.78615" lon="-3.49591">
        <ele>3.98</ele>
        <time>2012-06-17T08:45:32Z</time>
      </trkpt>
      <trkpt lat="47.78619" lon="-3.49589">
        <ele>6.87</ele>
        <time>2012-06-17T08:45:35Z</time>
      </trkpt>
      <trkpt lat="47.78626" lon="-3.49585">
        <ele>9.75</ele>
        <time>2012-06-17T08:45:42Z</time>
      </trkpt>
      <trkpt lat="47.78632" lon="-3.49584">
        <ele>11.67</ele>
        <time>2012-06-17T08:45:47Z</time>
      </trkpt>
      <trkpt lat="47.78655" lon="-3.49586">
        <ele>14.08</ele>
        <time>2012-06-17T08:46:00Z</time>
      </trkpt>
      <trkpt lat="47.78661" lon="-3.4959">
        <ele>14.08</ele>
        <time>2012-06-17T08:46:03Z</time>
      </trkpt>
      <trkpt lat="47.7867" lon="-3.49595">
        <ele>16</ele>
        <time>2012-06-17T08:46:07Z</time>
      </trkpt>
      <trkpt lat="47.78701" lon="-3.49616">
        <ele>17.44</ele>
        <time>2012-06-17T08:46:19Z</time>
      </trkpt>
      <trkpt lat="47.78728" lon="-3.49637">
        <ele>23.21</ele>
        <time>2012-06-17T08:46:30Z</time>
      </trkpt>
      <trkpt lat="47.78739" lon="-3.49648">
        <ele>26.57</ele>
        <time>2012-06-17T08:46:36Z</time>
      </trkpt>
      <trkpt lat="47.78742" lon="-3.4964">
        <ele>30.9</ele>
        <time>2012-06-17T08:46:43Z</time>
      </trkpt>
      <trkpt lat="47.7873" lon="-3.4963">
        <ele>30.9</ele>
        <time>2012-06-17T08:46:51Z</time>
      </trkpt>
      <trkpt lat="47.78734" lon="-3.49621">
        <ele>31.86</ele>
        <time>2012-06-17T08:46:55Z</time>
      </trkpt>
      <trkpt lat="47.78749" lon="-3.49616">
        <ele>36.19</ele>
        <time>2012-06-17T08:47:07Z</time>
      </trkpt>
      <trkpt lat="47.7876" lon="-3.49606">
        <ele>38.11</ele>
        <time>2012-06-17T08:47:15Z</time>
      </trkpt>
      <trkpt lat="47.7876" lon="-3.49581">
        <ele>38.59</ele>
        <time>2012-06-17T08:47:21Z</time>
      </trkpt>
      <trkpt lat="47.78775" lon="-3.49574">
        <ele>38.11</ele>
        <time>2012-06-17T08:47:29Z</time>
      </trkpt>
      <trkpt lat="47.78784" lon="-3.49556">
        <ele>38.59</ele>
        <time>2012-06-17T08:47:37Z</time>
      </trkpt>
      <trkpt lat="47.78781" lon="-3.49549">
        <ele>39.07</ele>
        <time>2012-06-17T08:47:40Z</time>
      </trkpt>
      <trkpt lat="47.78779" lon="-3.49536">
        <ele>39.55</ele>
        <time>2012-06-17T08:47:44Z</time>
      </trkpt>
      <trkpt lat="47.78775" lon="-3.4951">
        <ele>39.55</ele>
        <time>2012-06-17T08:47:52Z</time>
      </trkpt>
      <trkpt lat="47.78779" lon="-3.49475">
        <ele>40.99</ele>
        <time>2012-06-17T08:48:01Z</time>
      </trkpt>
      <trkpt lat="47.78793" lon="-3.49449">
        <ele>42.92</ele>
        <time>2012-06-17T08:48:12Z</time>
      </trkpt>
      <trkpt lat="47.78794" lon="-3.49419">
        <ele>39.55</ele>
        <time>2012-06-17T08:48:20Z</time>
      </trkpt>
      <trkpt lat="47.78794" lon="-3.49414">
        <ele>39.07</ele>
        <time>2012-06-17T08:48:22Z</time>
      </trkpt>
      <trkpt lat="47.78785" lon="-3.49393">
        <ele>36.67</ele>
        <time>2012-06-17T08:48:30Z</time>
      </trkpt>
      <trkpt lat="47.78785" lon="-3.4935">
        <ele>34.26</ele>
        <time>2012-06-17T08:48:40Z</time>
      </trkpt>
      <trkpt lat="47.78788" lon="-3.49346">
        <ele>35.23</ele>
        <time>2012-06-17T08:48:42Z</time>
      </trkpt>
      <trkpt lat="47.78784" lon="-3.49334">
        <ele>34.74</ele>
        <time>2012-06-17T08:48:53Z</time>
      </trkpt>
      <trkpt lat="47.78775" lon="-3.49329">
        <ele>34.26</ele>
        <time>2012-06-17T08:48:56Z</time>
      </trkpt>
      <trkpt lat="47.78771" lon="-3.4932">
        <ele>33.3</ele>
        <time>2012-06-17T08:48:59Z</time>
      </trkpt>
      <trkpt lat="47.78764" lon="-3.49317">
        <ele>32.34</ele>
        <time>2012-06-17T08:49:07Z</time>
      </trkpt>
      <trkpt lat="47.78764" lon="-3.49325">
        <ele>32.34</ele>
        <time>2012-06-17T08:49:11Z</time>
      </trkpt>
      <trkpt lat="47.78764" lon="-3.49329">
        <ele>32.82</ele>
        <time>2012-06-17T08:49:13Z</time>
      </trkpt>
      <trkpt lat="47.78757" lon="-3.49348">
        <ele>33.78</ele>
        <time>2012-06-17T08:49:24Z</time>
      </trkpt>
      <trkpt lat="47.78757" lon="-3.4935">
        <ele>35.71</ele>
        <time>2012-06-17T08:49:27Z</time>
      </trkpt>
      <trkpt lat="47.78759" lon="-3.49366">
        <ele>40.03</ele>
        <time>2012-06-17T08:49:32Z</time>
      </trkpt>
      <trkpt lat="47.78756" lon="-3.49389">
        <ele>42.92</ele>
        <time>2012-06-17T08:49:44Z</time>
      </trkpt>
      <trkpt lat="47.78755" lon="-3.49391">
        <ele>43.88</ele>
        <time>2012-06-17T08:49:45Z</time>
      </trkpt>
      <trkpt lat="47.78757" lon="-3.49407">
        <ele>45.8</ele>
        <time>2012-06-17T08:49:51Z</time>
      </trkpt>
      <trkpt lat="47.78755" lon="-3.49416">
        <ele>46.28</ele>
        <time>2012-06-17T08:49:54Z</time>
      </trkpt>
      <trkpt lat="47.78743" lon="-3.49428">
        <ele>44.84</ele>
        <time>2012-06-17T08:50:01Z</time>
      </trkpt>
      <trkpt lat="47.78737" lon="-3.49451">
        <ele>45.8</ele>
        <time>2012-06-17T08:50:07Z</time>
      </trkpt>
      <trkpt lat="47.78735" lon="-3.49466">
        <ele>46.76</ele>
        <time>2012-06-17T08:50:11Z</time>
      </trkpt>
      <trkpt lat="47.78721" lon="-3.495">
        <ele>44.36</ele>
        <time>2012-06-17T08:50:21Z</time>
      </trkpt>
      <trkpt lat="47.78706" lon="-3.49546">
        <ele>43.4</ele>
        <time>2012-06-17T08:50:32Z</time>
      </trkpt>
      <trkpt lat="47.78691" lon="-3.49566">
        <ele>40.03</ele>
        <time>2012-06-17T08:50:41Z</time>
      </trkpt>
      <trkpt lat="47.78685" lon="-3.49594">
        <ele>37.63</ele>
        <time>2012-06-17T08:50:48Z</time>
      </trkpt>
      <trkpt lat="47.7868" lon="-3.49592">
        <ele>37.63</ele>
        <time>2012-06-17T08:50:50Z</time>
      </trkpt>
      <trkpt lat="47.78664" lon="-3.49575">
        <ele>32.82</ele>
        <time>2012-06-17T08:50:58Z</time>
      </trkpt>
      <trkpt lat="47.78656" lon="-3.49561">
        <ele>29.46</ele>
        <time>2012-06-17T08:51:06Z</time>
      </trkpt>
      <trkpt lat="47.78657" lon="-3.49559">
        <ele>29.46</ele>
        <time>2012-06-17T08:51:07Z</time>
      </trkpt>
      <trkpt lat="47.78671" lon="-3.4953">
        <ele>26.57</ele>
        <time>2012-06-17T08:51:16Z</time>
      </trkpt>
      <trkpt lat="47.78674" lon="-3.49526">
        <ele>26.57</ele>
        <time>2012-06-17T08:51:17Z</time>
      </trkpt>
      <trkpt lat="47.78683" lon="-3.49519">
        <ele>27.05</ele>
        <time>2012-06-17T08:51:20Z</time>
      </trkpt>
      <trkpt lat="47.78686" lon="-3.49519">
        <ele>28.02</ele>
        <time>2012-06-17T08:51:22Z</time>
      </trkpt>
      <trkpt lat="47.78692" lon="-3.49519">
        <ele>29.46</ele>
        <time>2012-06-17T08:51:26Z</time>
      </trkpt>
      <trkpt lat="47.78717" lon="-3.49484">
        <ele>34.26</ele>
        <time>2012-06-17T08:51:37Z</time>
      </trkpt>
      <trkpt lat="47.78723" lon="-3.49475">
        <ele>34.74</ele>
        <time>2012-06-17T08:51:39Z</time>
      </trkpt>
      <trkpt lat="47.78732" lon="-3.49443">
        <ele>37.15</ele>
        <time>2012-06-17T08:51:45Z</time>
      </trkpt>
      <trkpt lat="47.78733" lon="-3.49422">
        <ele>39.07</ele>
        <time>2012-06-17T08:51:49Z</time>
      </trkpt>
      <trkpt lat="47.78741" lon="-3.49379">
        <ele>38.59</ele>
        <time>2012-06-17T08:51:58Z</time>
      </trkpt>
      <trkpt lat="47.78743" lon="-3.49359">
        <ele>39.07</ele>
        <time>2012-06-17T08:52:03Z</time>
      </trkpt>
      <trkpt lat="47.78721" lon="-3.49324">
        <ele>37.15</ele>
        <time>2012-06-17T08:52:08Z</time>
      </trkpt>
      <trkpt lat="47.78712" lon="-3.49318">
        <ele>37.15</ele>
        <time>2012-06-17T08:52:10Z</time>
      </trkpt>
      <trkpt lat="47.7871" lon="-3.49307">
        <ele>35.23</ele>
        <time>2012-06-17T08:52:14Z</time>
      </trkpt>
      <trkpt lat="47.78716" lon="-3.49277">
        <ele>34.26</ele>
        <time>2012-06-17T08:52:19Z</time>
      </trkpt>
      <trkpt lat="47.78715" lon="-3.49255">
        <ele>30.42</ele>
        <time>2012-06-17T08:52:23Z</time>
      </trkpt>
      <trkpt lat="47.78717" lon="-3.49208">
        <ele>27.53</ele>
        <time>2012-06-17T08:52:36Z</time>
      </trkpt>
      <trkpt lat="47.78719" lon="-3.492">
        <ele>27.53</ele>
        <time>2012-06-17T08:52:39Z</time>
      </trkpt>
      <trkpt lat="47.78713" lon="-3.49162">
        <ele>33.3</ele>
        <time>2012-06-17T08:52:53Z</time>
      </trkpt>
      <trkpt lat="47.78694" lon="-3.49152">
        <ele>36.19</ele>
        <time>2012-06-17T08:53:02Z</time>
      </trkpt>
      <trkpt lat="47.78668" lon="-3.49177">
        <ele>40.03</ele>
        <time>2012-06-17T08:53:13Z</time>
      </trkpt>
      <trkpt lat="47.78659" lon="-3.49188">
        <ele>40.51</ele>
        <time>2012-06-17T08:53:16Z</time>
      </trkpt>
      <trkpt lat="47.78628" lon="-3.49183">
        <ele>41.47</ele>
        <time>2012-06-17T08:53:23Z</time>
      </trkpt>
      <trkpt lat="47.78619" lon="-3.49173">
        <ele>41.95</ele>
        <time>2012-06-17T08:53:25Z</time>
      </trkpt>
      <trkpt lat="47.78583" lon="-3.49155">
        <ele>41.95</ele>
        <time>2012-06-17T08:53:32Z</time>
      </trkpt>
      <trkpt lat="47.78569" lon="-3.4915">
        <ele>40.99</ele>
        <time>2012-06-17T08:53:35Z</time>
      </trkpt>
      <trkpt lat="47.78504" lon="-3.49123">
        <ele>42.92</ele>
        <time>2012-06-17T08:53:49Z</time>
      </trkpt>
      <trkpt lat="47.78448" lon="-3.49098">
        <ele>42.92</ele>
        <time>2012-06-17T08:54:03Z</time>
      </trkpt>
      <trkpt lat="47.78428" lon="-3.49131">
        <ele>42.44</ele>
        <time>2012-06-17T08:54:12Z</time>
      </trkpt>
      <trkpt lat="47.78422" lon="-3.49146">
        <ele>39.07</ele>
        <time>2012-06-17T08:54:14Z</time>
      </trkpt>
      <trkpt lat="47.78419" lon="-3.49176">
        <ele>37.15</ele>
        <time>2012-06-17T08:54:18Z</time>
      </trkpt>
      <trkpt lat="47.78408" lon="-3.49213">
        <ele>33.3</ele>
        <time>2012-06-17T08:54:23Z</time>
      </trkpt>
      <trkpt lat="47.78403" lon="-3.49277">
        <ele>28.98</ele>
        <time>2012-06-17T08:54:29Z</time>
      </trkpt>
      <trkpt lat="47.78407" lon="-3.49293">
        <ele>26.09</ele>
        <time>2012-06-17T08:54:31Z</time>
      </trkpt>
      <trkpt lat="47.78413" lon="-3.4934">
        <ele>17.44</ele>
        <time>2012-06-17T08:54:36Z</time>
      </trkpt>
      <trkpt lat="47.78403" lon="-3.49397">
        <ele>9.75</ele>
        <time>2012-06-17T08:54:41Z</time>
      </trkpt>
      <trkpt lat="47.78391" lon="-3.49417">
        <ele>9.27</ele>
        <time>2012-06-17T08:54:43Z</time>
      </trkpt>
      <trkpt lat="47.78346" lon="-3.49441">
        <ele>11.19</ele>
        <time>2012-06-17T08:54:49Z</time>
      </trkpt>
      <trkpt lat="47.7832" lon="-3.49439">
        <ele>12.63</ele>
        <time>2012-06-17T08:54:53Z</time>
      </trkpt>
      <trkpt lat="47.78301" lon="-3.49465">
        <ele>8.31</ele>
        <time>2012-06-17T08:54:57Z</time>
      </trkpt>
      <trkpt lat="47.78304" lon="-3.49485">
        <ele>9.27</ele>
        <time>2012-06-17T08:54:59Z</time>
      </trkpt>
      <trkpt lat="47.78295" lon="-3.49517">
        <ele>10.23</ele>
        <time>2012-06-17T08:55:03Z</time>
      </trkpt>
      <trkpt lat="47.78273" lon="-3.49519">
        <ele>11.67</ele>
        <time>2012-06-17T08:55:10Z</time>
      </trkpt>
      <trkpt lat="47.78263" lon="-3.49514">
        <ele>11.19</ele>
        <time>2012-06-17T08:55:12Z</time>
      </trkpt>
      <trkpt lat="47.78253" lon="-3.49509">
        <ele>11.67</ele>
        <time>2012-06-17T08:55:14Z</time>
      </trkpt>
      <trkpt lat="47.78236" lon="-3.49499">
        <ele>9.27</ele>
        <time>2012-06-17T08:55:17Z</time>
      </trkpt>
      <trkpt lat="47.78221" lon="-3.49495">
        <ele>6.39</ele>
        <time>2012-06-17T08:55:19Z</time>
      </trkpt>
      <trkpt lat="47.78203" lon="-3.49486">
        <ele>6.39</ele>
        <time>2012-06-17T08:55:22Z</time>
      </trkpt>
      <trkpt lat="47.78183" lon="-3.49485">
        <ele>6.87</ele>
        <time>2012-06-17T08:55:28Z</time>
      </trkpt>
      <trkpt lat="47.7817" lon="-3.49489">
        <ele>0.62</ele>
        <time>2012-06-17T08:55:33Z</time>
      </trkpt>
      <trkpt lat="47.78164" lon="-3.49506">
        <ele>3.02</ele>
        <time>2012-06-17T08:55:37Z</time>
      </trkpt>
      <trkpt lat="47.78146" lon="-3.4953">
        <ele>5.42</ele>
        <time>2012-06-17T08:55:42Z</time>
      </trkpt>
      <trkpt lat="47.78134" lon="-3.49544">
        <ele>5.42</ele>
        <time>2012-06-17T08:55:45Z</time>
      </trkpt>
      <trkpt lat="47.78101" lon="-3.49556">
        <ele>2.54</ele>
        <time>2012-06-17T08:55:55Z</time>
      </trkpt>
      <trkpt lat="47.78064" lon="-3.49576">
        <ele>2.54</ele>
        <time>2012-06-17T08:56:04Z</time>
      </trkpt>
      <trkpt lat="47.78046" lon="-3.49586">
        <ele>5.91</ele>
        <time>2012-06-17T08:56:08Z</time>
      </trkpt>
      <trkpt lat="47.78036" lon="-3.4959">
        <ele>6.87</ele>
        <time>2012-06-17T08:56:10Z</time>
      </trkpt>
      <trkpt lat="47.78009" lon="-3.49606">
        <ele>9.75</ele>
        <time>2012-06-17T08:56:18Z</time>
      </trkpt>
      <trkpt lat="47.78007" lon="-3.49612">
        <ele>10.71</ele>
        <time>2012-06-17T08:56:19Z</time>
      </trkpt>
      <trkpt lat="47.77998" lon="-3.49627">
        <ele>10.71</ele>
        <time>2012-06-17T08:56:21Z</time>
      </trkpt>
      <trkpt lat="47.77963" lon="-3.49659">
        <ele>12.15</ele>
        <time>2012-06-17T08:56:27Z</time>
      </trkpt>
      <trkpt lat="47.77946" lon="-3.49678">
        <ele>14.08</ele>
        <time>2012-06-17T08:56:31Z</time>
      </trkpt>
      <trkpt lat="47.77921" lon="-3.49721">
        <ele>15.52</ele>
        <time>2012-06-17T08:56:40Z</time>
      </trkpt>
      <trkpt lat="47.77925" lon="-3.49722">
        <ele>15.52</ele>
        <time>2012-06-17T08:56:50Z</time>
      </trkpt>
      <trkpt lat="47.77917" lon="-3.49727">
        <ele>12.63</ele>
        <time>2012-06-17T08:57:01Z</time>
      </trkpt>
      <trkpt lat="47.77914" lon="-3.49732">
        <ele>13.6</ele>
        <time>2012-06-17T08:57:24Z</time>
      </trkpt>
      <trkpt lat="47.77912" lon="-3.49732">
        <ele>13.6</ele>
        <time>2012-06-17T08:57:42Z</time>
      </trkpt>
      <trkpt lat="47.77912" lon="-3.49725">
        <ele>17.92</ele>
        <time>2012-06-17T08:59:04Z</time>
      </trkpt>
      <trkpt lat="47.7791" lon="-3.49714">
        <ele>18.4</ele>
        <time>2012-06-17T09:00:05Z</time>
      </trkpt>
      <trkpt lat="47.77913" lon="-3.49728">
        <ele>19.36</ele>
        <time>2012-06-17T09:01:36Z</time>
      </trkpt>
      <trkpt lat="47.77911" lon="-3.49724">
        <ele>20.32</ele>
        <time>2012-06-17T09:02:15Z</time>
      </trkpt>
      <trkpt lat="47.77911" lon="-3.49729">
        <ele>21.77</ele>
        <time>2012-06-17T09:02:22Z</time>
      </trkpt>
      <trkpt lat="47.77906" lon="-3.49726">
        <ele>20.81</ele>
        <time>2012-06-17T09:02:35Z</time>
      </trkpt>
      <trkpt lat="47.77907" lon="-3.49724">
        <ele>17.92</ele>
        <time>2012-06-17T09:03:05Z</time>
      </trkpt>
      <trkpt lat="47.77907" lon="-3.49722">
        <ele>16.96</ele>
        <time>2012-06-17T09:03:26Z</time>
      </trkpt>
      <trkpt lat="47.77907" lon="-3.49721">
        <ele>16.96</ele>
        <time>2012-06-17T09:03:33Z</time>
      </trkpt>
      <trkpt lat="47.77919" lon="-3.49702">
        <ele>17.92</ele>
        <time>2012-06-17T09:03:43Z</time>
      </trkpt>
      <trkpt lat="47.77927" lon="-3.49686">
        <ele>16.48</ele>
        <time>2012-06-17T09:03:47Z</time>
      </trkpt>
      <trkpt lat="47.77959" lon="-3.49629">
        <ele>16.48</ele>
        <time>2012-06-17T09:04:00Z</time>
      </trkpt>
      <trkpt lat="47.77985" lon="-3.49578">
        <ele>19.36</ele>
        <time>2012-06-17T09:04:12Z</time>
      </trkpt>
      <trkpt lat="47.78003" lon="-3.49517">
        <ele>19.84</ele>
        <time>2012-06-17T09:04:24Z</time>
      </trkpt>
      <trkpt lat="47.78017" lon="-3.49457">
        <ele>19.84</ele>
        <time>2012-06-17T09:04:38Z</time>
      </trkpt>
      <trkpt lat="47.78021" lon="-3.49421">
        <ele>19.36</ele>
        <time>2012-06-17T09:04:50Z</time>
      </trkpt>
      <trkpt lat="47.78023" lon="-3.49411">
        <ele>19.36</ele>
        <time>2012-06-17T09:04:53Z</time>
      </trkpt>
      <trkpt lat="47.78019" lon="-3.49369">
        <ele>23.21</ele>
        <time>2012-06-17T09:05:03Z</time>
      </trkpt>
      <trkpt lat="47.77998" lon="-3.49302">
        <ele>32.82</ele>
        <time>2012-06-17T09:05:15Z</time>
      </trkpt>
      <trkpt lat="47.77987" lon="-3.49262">
        <ele>31.86</ele>
        <time>2012-06-17T09:05:21Z</time>
      </trkpt>
      <trkpt lat="47.77983" lon="-3.49233">
        <ele>30.9</ele>
        <time>2012-06-17T09:05:25Z</time>
      </trkpt>
      <trkpt lat="47.77999" lon="-3.49149">
        <ele>31.86</ele>
        <time>2012-06-17T09:05:36Z</time>
      </trkpt>
      <trkpt lat="47.7802" lon="-3.49058">
        <ele>33.78</ele>
        <time>2012-06-17T09:05:50Z</time>
      </trkpt>
      <trkpt lat="47.78056" lon="-3.48966">
        <ele>31.38</ele>
        <time>2012-06-17T09:06:07Z</time>
      </trkpt>
      <trkpt lat="47.7806" lon="-3.48961">
        <ele>31.38</ele>
        <time>2012-06-17T09:06:08Z</time>
      </trkpt>
      <trkpt lat="47.78068" lon="-3.48951">
        <ele>30.9</ele>
        <time>2012-06-17T09:06:10Z</time>
      </trkpt>
      <trkpt lat="47.7807" lon="-3.48908">
        <ele>31.86</ele>
        <time>2012-06-17T09:06:16Z</time>
      </trkpt>
      <trkpt lat="47.78048" lon="-3.48904">
        <ele>32.82</ele>
        <time>2012-06-17T09:06:22Z</time>
      </trkpt>
      <trkpt lat="47.78019" lon="-3.48895">
        <ele>32.82</ele>
        <time>2012-06-17T09:06:29Z</time>
      </trkpt>
      <trkpt lat="47.78007" lon="-3.48892">
        <ele>32.82</ele>
        <time>2012-06-17T09:06:31Z</time>
      </trkpt>
      <trkpt lat="47.7792" lon="-3.4887">
        <ele>32.82</ele>
        <time>2012-06-17T09:06:42Z</time>
      </trkpt>
      <trkpt lat="47.77873" lon="-3.48855">
        <ele>30.9</ele>
        <time>2012-06-17T09:06:47Z</time>
      </trkpt>
      <trkpt lat="47.77817" lon="-3.48851">
        <ele>25.13</ele>
        <time>2012-06-17T09:06:52Z</time>
      </trkpt>
      <trkpt lat="47.77797" lon="-3.48841">
        <ele>21.77</ele>
        <time>2012-06-17T09:06:59Z</time>
      </trkpt>
      <trkpt lat="47.7782" lon="-3.4879">
        <ele>18.4</ele>
        <time>2012-06-17T09:07:11Z</time>
      </trkpt>
      <trkpt lat="47.77832" lon="-3.48772">
        <ele>18.4</ele>
        <time>2012-06-17T09:07:15Z</time>
      </trkpt>
      <trkpt lat="47.77852" lon="-3.48762">
        <ele>19.36</ele>
        <time>2012-06-17T09:07:20Z</time>
      </trkpt>
      <trkpt lat="47.77881" lon="-3.48762">
        <ele>19.36</ele>
        <time>2012-06-17T09:07:26Z</time>
      </trkpt>
      <trkpt lat="47.77906" lon="-3.48757">
        <ele>17.92</ele>
        <time>2012-06-17T09:07:31Z</time>
      </trkpt>
      <trkpt lat="47.77924" lon="-3.48743">
        <ele>17.92</ele>
        <time>2012-06-17T09:07:35Z</time>
      </trkpt>
      <trkpt lat="47.77937" lon="-3.48724">
        <ele>17.44</ele>
        <time>2012-06-17T09:07:39Z</time>
      </trkpt>
      <trkpt lat="47.7796" lon="-3.48689">
        <ele>19.36</ele>
        <time>2012-06-17T09:07:46Z</time>
      </trkpt>
      <trkpt lat="47.77986" lon="-3.48642">
        <ele>22.25</ele>
        <time>2012-06-17T09:07:54Z</time>
      </trkpt>
      <trkpt lat="47.77994" lon="-3.48624">
        <ele>23.21</ele>
        <time>2012-06-17T09:07:57Z</time>
      </trkpt>
      <trkpt lat="47.78006" lon="-3.48603">
        <ele>23.21</ele>
        <time>2012-06-17T09:08:01Z</time>
      </trkpt>
      <trkpt lat="47.7802" lon="-3.48557">
        <ele>22.73</ele>
        <time>2012-06-17T09:08:08Z</time>
      </trkpt>
      <trkpt lat="47.78059" lon="-3.48521">
        <ele>21.77</ele>
        <time>2012-06-17T09:08:15Z</time>
      </trkpt>
      <trkpt lat="47.78084" lon="-3.48516">
        <ele>22.25</ele>
        <time>2012-06-17T09:08:19Z</time>
      </trkpt>
      <trkpt lat="47.78101" lon="-3.485">
        <ele>22.25</ele>
        <time>2012-06-17T09:08:23Z</time>
      </trkpt>
      <trkpt lat="47.78099" lon="-3.48482">
        <ele>23.69</ele>
        <time>2012-06-17T09:08:25Z</time>
      </trkpt>
      <trkpt lat="47.78099" lon="-3.4846">
        <ele>24.65</ele>
        <time>2012-06-17T09:08:28Z</time>
      </trkpt>
      <trkpt lat="47.78095" lon="-3.48382">
        <ele>28.02</ele>
        <time>2012-06-17T09:08:41Z</time>
      </trkpt>
      <trkpt lat="47.78091" lon="-3.4834">
        <ele>27.53</ele>
        <time>2012-06-17T09:08:49Z</time>
      </trkpt>
      <trkpt lat="47.78071" lon="-3.48312">
        <ele>28.98</ele>
        <time>2012-06-17T09:09:00Z</time>
      </trkpt>
      <trkpt lat="47.78043" lon="-3.48279">
        <ele>35.23</ele>
        <time>2012-06-17T09:09:15Z</time>
      </trkpt>
      <trkpt lat="47.78009" lon="-3.48248">
        <ele>34.26</ele>
        <time>2012-06-17T09:09:29Z</time>
      </trkpt>
      <trkpt lat="47.77965" lon="-3.48213">
        <ele>37.63</ele>
        <time>2012-06-17T09:09:45Z</time>
      </trkpt>
      <trkpt lat="47.77936" lon="-3.48189">
        <ele>37.15</ele>
        <time>2012-06-17T09:09:54Z</time>
      </trkpt>
      <trkpt lat="47.779" lon="-3.48182">
        <ele>39.07</ele>
        <time>2012-06-17T09:10:02Z</time>
      </trkpt>
      <trkpt lat="47.77836" lon="-3.48179">
        <ele>36.67</ele>
        <time>2012-06-17T09:10:17Z</time>
      </trkpt>
      <trkpt lat="47.77758" lon="-3.48174">
        <ele>39.55</ele>
        <time>2012-06-17T09:10:41Z</time>
      </trkpt>
      <trkpt lat="47.77721" lon="-3.48158">
        <ele>36.67</ele>
        <time>2012-06-17T09:10:54Z</time>
      </trkpt>
      <trkpt lat="47.77695" lon="-3.48141">
        <ele>30.9</ele>
        <time>2012-06-17T09:11:04Z</time>
      </trkpt>
      <trkpt lat="47.77688" lon="-3.48132">
        <ele>28.02</ele>
        <time>2012-06-17T09:11:08Z</time>
      </trkpt>
      <trkpt lat="47.77675" lon="-3.4812">
        <ele>24.65</ele>
        <time>2012-06-17T09:11:12Z</time>
      </trkpt>
      <trkpt lat="47.7767" lon="-3.48115">
        <ele>23.21</ele>
        <time>2012-06-17T09:11:14Z</time>
      </trkpt>
      <trkpt lat="47.7764" lon="-3.48091">
        <ele>17.44</ele>
        <time>2012-06-17T09:11:22Z</time>
      </trkpt>
      <trkpt lat="47.77623" lon="-3.48077">
        <ele>15.52</ele>
        <time>2012-06-17T09:11:25Z</time>
      </trkpt>
      <trkpt lat="47.77554" lon="-3.47982">
        <ele>13.6</ele>
        <time>2012-06-17T09:11:36Z</time>
      </trkpt>
      <trkpt lat="47.77507" lon="-3.47893">
        <ele>10.71</ele>
        <time>2012-06-17T09:11:44Z</time>
      </trkpt>
      <trkpt lat="47.7749" lon="-3.47862">
        <ele>10.23</ele>
        <time>2012-06-17T09:11:47Z</time>
      </trkpt>
      <trkpt lat="47.77487" lon="-3.47813">
        <ele>13.6</ele>
        <time>2012-06-17T09:11:51Z</time>
      </trkpt>
      <trkpt lat="47.7749" lon="-3.47782">
        <ele>10.71</ele>
        <time>2012-06-17T09:11:54Z</time>
      </trkpt>
      <trkpt lat="47.77475" lon="-3.4774">
        <ele>11.19</ele>
        <time>2012-06-17T09:11:58Z</time>
      </trkpt>
      <trkpt lat="47.77447" lon="-3.4771">
        <ele>11.67</ele>
        <time>2012-06-17T09:12:06Z</time>
      </trkpt>
      <trkpt lat="47.77449" lon="-3.47695">
        <ele>11.67</ele>
        <time>2012-06-17T09:12:09Z</time>
      </trkpt>
      <trkpt lat="47.77448" lon="-3.47667">
        <ele>10.23</ele>
        <time>2012-06-17T09:12:16Z</time>
      </trkpt>
      <trkpt lat="47.77455" lon="-3.47642">
        <ele>7.35</ele>
        <time>2012-06-17T09:12:24Z</time>
      </trkpt>
      <trkpt lat="47.77457" lon="-3.47639">
        <ele>6.87</ele>
        <time>2012-06-17T09:12:28Z</time>
      </trkpt>
      <trkpt lat="47.77473" lon="-3.47626">
        <ele>8.31</ele>
        <time>2012-06-17T09:12:43Z</time>
      </trkpt>
      <trkpt lat="47.77482" lon="-3.47628">
        <ele>12.15</ele>
        <time>2012-06-17T09:12:52Z</time>
      </trkpt>
      <trkpt lat="47.77483" lon="-3.47633">
        <ele>15.52</ele>
        <time>2012-06-17T09:12:57Z</time>
      </trkpt>
      <trkpt lat="47.77488" lon="-3.47637">
        <ele>18.88</ele>
        <time>2012-06-17T09:13:01Z</time>
      </trkpt>
      <trkpt lat="47.77494" lon="-3.47639">
        <ele>21.77</ele>
        <time>2012-06-17T09:13:05Z</time>
      </trkpt>
      <trkpt lat="47.775" lon="-3.47639">
        <ele>24.65</ele>
        <time>2012-06-17T09:13:09Z</time>
      </trkpt>
      <trkpt lat="47.77504" lon="-3.47646">
        <ele>27.05</ele>
        <time>2012-06-17T09:13:13Z</time>
      </trkpt>
      <trkpt lat="47.77506" lon="-3.4765">
        <ele>28.98</ele>
        <time>2012-06-17T09:13:15Z</time>
      </trkpt>
      <trkpt lat="47.77528" lon="-3.47666">
        <ele>23.21</ele>
        <time>2012-06-17T09:13:26Z</time>
      </trkpt>
      <trkpt lat="47.7753" lon="-3.47665">
        <ele>22.73</ele>
        <time>2012-06-17T09:13:27Z</time>
      </trkpt>
      <trkpt lat="47.77536" lon="-3.47665">
        <ele>21.77</ele>
        <time>2012-06-17T09:13:30Z</time>
      </trkpt>
      <trkpt lat="47.77551" lon="-3.47683">
        <ele>20.81</ele>
        <time>2012-06-17T09:13:39Z</time>
      </trkpt>
      <trkpt lat="47.7756" lon="-3.47684">
        <ele>22.25</ele>
        <time>2012-06-17T09:13:44Z</time>
      </trkpt>
      <trkpt lat="47.77573" lon="-3.4769">
        <ele>27.53</ele>
        <time>2012-06-17T09:13:51Z</time>
      </trkpt>
      <trkpt lat="47.77579" lon="-3.47682">
        <ele>28.02</ele>
        <time>2012-06-17T09:13:56Z</time>
      </trkpt>
      <trkpt lat="47.77588" lon="-3.47687">
        <ele>29.94</ele>
        <time>2012-06-17T09:14:01Z</time>
      </trkpt>
      <trkpt lat="47.77592" lon="-3.47684">
        <ele>30.9</ele>
        <time>2012-06-17T09:14:04Z</time>
      </trkpt>
      <trkpt lat="47.77607" lon="-3.47686">
        <ele>31.86</ele>
        <time>2012-06-17T09:14:11Z</time>
      </trkpt>
      <trkpt lat="47.77613" lon="-3.47683">
        <ele>32.82</ele>
        <time>2012-06-17T09:14:16Z</time>
      </trkpt>
      <trkpt lat="47.77619" lon="-3.47681">
        <ele>33.78</ele>
        <time>2012-06-17T09:14:20Z</time>
      </trkpt>
      <trkpt lat="47.77621" lon="-3.47681">
        <ele>34.74</ele>
        <time>2012-06-17T09:14:22Z</time>
      </trkpt>
      <trkpt lat="47.77634" lon="-3.47693">
        <ele>37.15</ele>
        <time>2012-06-17T09:14:31Z</time>
      </trkpt>
      <trkpt lat="47.77648" lon="-3.47701">
        <ele>39.55</ele>
        <time>2012-06-17T09:14:38Z</time>
      </trkpt>
      <trkpt lat="47.77655" lon="-3.47712">
        <ele>39.55</ele>
        <time>2012-06-17T09:14:43Z</time>
      </trkpt>
      <trkpt lat="47.77662" lon="-3.47713">
        <ele>40.99</ele>
        <time>2012-06-17T09:14:47Z</time>
      </trkpt>
      <trkpt lat="47.77667" lon="-3.4771">
        <ele>41.47</ele>
        <time>2012-06-17T09:14:50Z</time>
      </trkpt>
      <trkpt lat="47.7767" lon="-3.477">
        <ele>42.44</ele>
        <time>2012-06-17T09:14:54Z</time>
      </trkpt>
      <trkpt lat="47.77668" lon="-3.47694">
        <ele>42.92</ele>
        <time>2012-06-17T09:14:57Z</time>
      </trkpt>
      <trkpt lat="47.77667" lon="-3.47669">
        <ele>43.4</ele>
        <time>2012-06-17T09:15:05Z</time>
      </trkpt>
      <trkpt lat="47.77671" lon="-3.47643">
        <ele>43.88</ele>
        <time>2012-06-17T09:15:13Z</time>
      </trkpt>
      <trkpt lat="47.77669" lon="-3.47597">
        <ele>42.92</ele>
        <time>2012-06-17T09:15:21Z</time>
      </trkpt>
      <trkpt lat="47.77668" lon="-3.47592">
        <ele>42.92</ele>
        <time>2012-06-17T09:15:22Z</time>
      </trkpt>
      <trkpt lat="47.77657" lon="-3.47546">
        <ele>45.32</ele>
        <time>2012-06-17T09:15:31Z</time>
      </trkpt>
      <trkpt lat="47.77635" lon="-3.47515">
        <ele>48.2</ele>
        <time>2012-06-17T09:15:39Z</time>
      </trkpt>
      <trkpt lat="47.77607" lon="-3.47492">
        <ele>46.28</ele>
        <time>2012-06-17T09:15:45Z</time>
      </trkpt>
      <trkpt lat="47.77596" lon="-3.47479">
        <ele>45.8</ele>
        <time>2012-06-17T09:15:48Z</time>
      </trkpt>
      <trkpt lat="47.77579" lon="-3.47456">
        <ele>45.32</ele>
        <time>2012-06-17T09:15:54Z</time>
      </trkpt>
      <trkpt lat="47.77578" lon="-3.4743">
        <ele>42.92</ele>
        <time>2012-06-17T09:15:59Z</time>
      </trkpt>
      <trkpt lat="47.77556" lon="-3.47398">
        <ele>40.51</ele>
        <time>2012-06-17T09:16:07Z</time>
      </trkpt>
      <trkpt lat="47.77537" lon="-3.47368">
        <ele>40.99</ele>
        <time>2012-06-17T09:16:13Z</time>
      </trkpt>
      <trkpt lat="47.77529" lon="-3.47336">
        <ele>40.03</ele>
        <time>2012-06-17T09:16:17Z</time>
      </trkpt>
      <trkpt lat="47.77493" lon="-3.47291">
        <ele>39.07</ele>
        <time>2012-06-17T09:16:25Z</time>
      </trkpt>
      <trkpt lat="47.77462" lon="-3.47284">
        <ele>34.74</ele>
        <time>2012-06-17T09:16:31Z</time>
      </trkpt>
      <trkpt lat="47.77459" lon="-3.47292">
        <ele>36.67</ele>
        <time>2012-06-17T09:16:34Z</time>
      </trkpt>
      <trkpt lat="47.77457" lon="-3.47304">
        <ele>38.59</ele>
        <time>2012-06-17T09:16:38Z</time>
      </trkpt>
      <trkpt lat="47.77457" lon="-3.47313">
        <ele>39.55</ele>
        <time>2012-06-17T09:16:40Z</time>
      </trkpt>
      <trkpt lat="47.77454" lon="-3.47355">
        <ele>46.76</ele>
        <time>2012-06-17T09:16:48Z</time>
      </trkpt>
      <trkpt lat="47.77452" lon="-3.47362">
        <ele>44.84</ele>
        <time>2012-06-17T09:16:50Z</time>
      </trkpt>
      <trkpt lat="47.7745" lon="-3.47384">
        <ele>47.72</ele>
        <time>2012-06-17T09:16:57Z</time>
      </trkpt>
      <trkpt lat="47.77452" lon="-3.47414">
        <ele>49.65</ele>
        <time>2012-06-17T09:17:02Z</time>
      </trkpt>
      <trkpt lat="47.77448" lon="-3.47456">
        <ele>52.05</ele>
        <time>2012-06-17T09:17:09Z</time>
      </trkpt>
      <trkpt lat="47.77435" lon="-3.47513">
        <ele>54.93</ele>
        <time>2012-06-17T09:17:20Z</time>
      </trkpt>
      <trkpt lat="47.77434" lon="-3.47519">
        <ele>55.41</ele>
        <time>2012-06-17T09:17:21Z</time>
      </trkpt>
      <trkpt lat="47.7743" lon="-3.47553">
        <ele>53.49</ele>
        <time>2012-06-17T09:17:25Z</time>
      </trkpt>
      <trkpt lat="47.77427" lon="-3.47576">
        <ele>55.41</ele>
        <time>2012-06-17T09:17:28Z</time>
      </trkpt>
      <trkpt lat="47.77425" lon="-3.47601">
        <ele>57.34</ele>
        <time>2012-06-17T09:17:33Z</time>
      </trkpt>
      <trkpt lat="47.77426" lon="-3.47633">
        <ele>60.22</ele>
        <time>2012-06-17T09:17:40Z</time>
      </trkpt>
      <trkpt lat="47.77428" lon="-3.47644">
        <ele>61.66</ele>
        <time>2012-06-17T09:17:43Z</time>
      </trkpt>
      <trkpt lat="47.77428" lon="-3.47665">
        <ele>64.07</ele>
        <time>2012-06-17T09:17:50Z</time>
      </trkpt>
      <trkpt lat="47.77412" lon="-3.47696">
        <ele>63.1</ele>
        <time>2012-06-17T09:17:57Z</time>
      </trkpt>
      <trkpt lat="47.77383" lon="-3.47684">
        <ele>37.63</ele>
        <time>2012-06-17T09:18:11Z</time>
      </trkpt>
      <trkpt lat="47.77363" lon="-3.47682">
        <ele>32.34</ele>
        <time>2012-06-17T09:18:21Z</time>
      </trkpt>
      <trkpt lat="47.77361" lon="-3.47682">
        <ele>31.86</ele>
        <time>2012-06-17T09:18:22Z</time>
      </trkpt>
      <trkpt lat="47.77351" lon="-3.47678">
        <ele>31.38</ele>
        <time>2012-06-17T09:18:27Z</time>
      </trkpt>
      <trkpt lat="47.77346" lon="-3.47676">
        <ele>31.86</ele>
        <time>2012-06-17T09:18:30Z</time>
      </trkpt>
      <trkpt lat="47.77335" lon="-3.47671">
        <ele>30.42</ele>
        <time>2012-06-17T09:18:36Z</time>
      </trkpt>
      <trkpt lat="47.77327" lon="-3.47666">
        <ele>26.57</ele>
        <time>2012-06-17T09:18:40Z</time>
      </trkpt>
      <trkpt lat="47.77297" lon="-3.47656">
        <ele>25.13</ele>
        <time>2012-06-17T09:18:55Z</time>
      </trkpt>
      <trkpt lat="47.77281" lon="-3.47649">
        <ele>27.53</ele>
        <time>2012-06-17T09:19:05Z</time>
      </trkpt>
      <trkpt lat="47.77271" lon="-3.47645">
        <ele>28.5</ele>
        <time>2012-06-17T09:19:11Z</time>
      </trkpt>
      <trkpt lat="47.77231" lon="-3.47635">
        <ele>33.78</ele>
        <time>2012-06-17T09:19:31Z</time>
      </trkpt>
      <trkpt lat="47.77198" lon="-3.47629">
        <ele>38.11</ele>
        <time>2012-06-17T09:19:48Z</time>
      </trkpt>
      <trkpt lat="47.77186" lon="-3.47634">
        <ele>41.47</ele>
        <time>2012-06-17T09:19:54Z</time>
      </trkpt>
      <trkpt lat="47.77168" lon="-3.47715">
        <ele>44.84</ele>
        <time>2012-06-17T09:20:12Z</time>
      </trkpt>
      <trkpt lat="47.77161" lon="-3.47788">
        <ele>46.28</ele>
        <time>2012-06-17T09:20:26Z</time>
      </trkpt>
      <trkpt lat="47.77167" lon="-3.47872">
        <ele>43.4</ele>
        <time>2012-06-17T09:20:40Z</time>
      </trkpt>
      <trkpt lat="47.77158" lon="-3.47885">
        <ele>41.47</ele>
        <time>2012-06-17T09:20:44Z</time>
      </trkpt>
      <trkpt lat="47.77133" lon="-3.47889">
        <ele>42.44</ele>
        <time>2012-06-17T09:20:50Z</time>
      </trkpt>
      <trkpt lat="47.77052" lon="-3.47899">
        <ele>40.99</ele>
        <time>2012-06-17T09:21:07Z</time>
      </trkpt>
      <trkpt lat="47.7695" lon="-3.4791">
        <ele>38.59</ele>
        <time>2012-06-17T09:21:24Z</time>
      </trkpt>
      <trkpt lat="47.7688" lon="-3.47916">
        <ele>36.67</ele>
        <time>2012-06-17T09:21:34Z</time>
      </trkpt>
      <trkpt lat="47.76835" lon="-3.47916">
        <ele>37.15</ele>
        <time>2012-06-17T09:21:44Z</time>
      </trkpt>
      <trkpt lat="47.76733" lon="-3.47928">
        <ele>36.67</ele>
        <time>2012-06-17T09:22:03Z</time>
      </trkpt>
      <trkpt lat="47.76609" lon="-3.47939">
        <ele>30.42</ele>
        <time>2012-06-17T09:22:23Z</time>
      </trkpt>
      <trkpt lat="47.76597" lon="-3.47939">
        <ele>29.94</ele>
        <time>2012-06-17T09:22:25Z</time>
      </trkpt>
      <trkpt lat="47.76579" lon="-3.47969">
        <ele>27.05</ele>
        <time>2012-06-17T09:22:30Z</time>
      </trkpt>
      <trkpt lat="47.76577" lon="-3.47993">
        <ele>26.09</ele>
        <time>2012-06-17T09:22:32Z</time>
      </trkpt>
      <trkpt lat="47.76532" lon="-3.48131">
        <ele>22.73</ele>
        <time>2012-06-17T09:22:45Z</time>
      </trkpt>
      <trkpt lat="47.76518" lon="-3.48244">
        <ele>23.69</ele>
        <time>2012-06-17T09:22:58Z</time>
      </trkpt>
      <trkpt lat="47.76514" lon="-3.4827">
        <ele>23.69</ele>
        <time>2012-06-17T09:23:01Z</time>
      </trkpt>
      <trkpt lat="47.76479" lon="-3.48436">
        <ele>18.88</ele>
        <time>2012-06-17T09:23:18Z</time>
      </trkpt>
      <trkpt lat="47.76449" lon="-3.48589">
        <ele>13.6</ele>
        <time>2012-06-17T09:23:32Z</time>
      </trkpt>
      <trkpt lat="47.76432" lon="-3.48659">
        <ele>9.27</ele>
        <time>2012-06-17T09:23:39Z</time>
      </trkpt>
      <trkpt lat="47.76421" lon="-3.48706">
        <ele>6.87</ele>
        <time>2012-06-17T09:23:47Z</time>
      </trkpt>
      <trkpt lat="47.76409" lon="-3.48712">
        <ele>5.91</ele>
        <time>2012-06-17T09:23:50Z</time>
      </trkpt>
      <trkpt lat="47.76395" lon="-3.48718">
        <ele>4.46</ele>
        <time>2012-06-17T09:23:53Z</time>
      </trkpt>
      <trkpt lat="47.76374" lon="-3.48724">
        <ele>5.42</ele>
        <time>2012-06-17T09:23:57Z</time>
      </trkpt>
      <trkpt lat="47.76365" lon="-3.48759">
        <ele>6.39</ele>
        <time>2012-06-17T09:24:03Z</time>
      </trkpt>
      <trkpt lat="47.76368" lon="-3.48767">
        <ele>6.39</ele>
        <time>2012-06-17T09:24:04Z</time>
      </trkpt>
      <trkpt lat="47.76383" lon="-3.48866">
        <ele>8.31</ele>
        <time>2012-06-17T09:24:16Z</time>
      </trkpt>
      <trkpt lat="47.76387" lon="-3.48906">
        <ele>11.19</ele>
        <time>2012-06-17T09:24:20Z</time>
      </trkpt>
      <trkpt lat="47.76393" lon="-3.48979">
        <ele>15.04</ele>
        <time>2012-06-17T09:24:27Z</time>
      </trkpt>
      <trkpt lat="47.76393" lon="-3.49009">
        <ele>15.52</ele>
        <time>2012-06-17T09:24:32Z</time>
      </trkpt>
      <trkpt lat="47.764" lon="-3.49133">
        <ele>15.04</ele>
        <time>2012-06-17T09:24:45Z</time>
      </trkpt>
      <trkpt lat="47.76401" lon="-3.49164">
        <ele>13.12</ele>
        <time>2012-06-17T09:24:49Z</time>
      </trkpt>
      <trkpt lat="47.76403" lon="-3.49188">
        <ele>13.12</ele>
        <time>2012-06-17T09:24:52Z</time>
      </trkpt>
      <trkpt lat="47.7641" lon="-3.49222">
        <ele>13.6</ele>
        <time>2012-06-17T09:24:57Z</time>
      </trkpt>
      <trkpt lat="47.76425" lon="-3.49258">
        <ele>15.04</ele>
        <time>2012-06-17T09:25:03Z</time>
      </trkpt>
      <trkpt lat="47.76431" lon="-3.49293">
        <ele>15.52</ele>
        <time>2012-06-17T09:25:07Z</time>
      </trkpt>
      <trkpt lat="47.76432" lon="-3.49317">
        <ele>16.48</ele>
        <time>2012-06-17T09:25:11Z</time>
      </trkpt>
      <trkpt lat="47.76429" lon="-3.49345">
        <ele>19.84</ele>
        <time>2012-06-17T09:25:15Z</time>
      </trkpt>
      <trkpt lat="47.76426" lon="-3.4936">
        <ele>20.32</ele>
        <time>2012-06-17T09:25:17Z</time>
      </trkpt>
      <trkpt lat="47.76417" lon="-3.49393">
        <ele>21.29</ele>
        <time>2012-06-17T09:25:22Z</time>
      </trkpt>
      <trkpt lat="47.764" lon="-3.49443">
        <ele>22.25</ele>
        <time>2012-06-17T09:25:31Z</time>
      </trkpt>
      <trkpt lat="47.7639" lon="-3.49447">
        <ele>23.21</ele>
        <time>2012-06-17T09:25:35Z</time>
      </trkpt>
      <trkpt lat="47.76387" lon="-3.49478">
        <ele>25.61</ele>
        <time>2012-06-17T09:25:42Z</time>
      </trkpt>
      <trkpt lat="47.76385" lon="-3.49493">
        <ele>27.05</ele>
        <time>2012-06-17T09:25:44Z</time>
      </trkpt>
      <trkpt lat="47.76382" lon="-3.49507">
        <ele>28.5</ele>
        <time>2012-06-17T09:25:46Z</time>
      </trkpt>
      <trkpt lat="47.76379" lon="-3.49536">
        <ele>30.9</ele>
        <time>2012-06-17T09:25:50Z</time>
      </trkpt>
      <trkpt lat="47.76374" lon="-3.49554">
        <ele>31.38</ele>
        <time>2012-06-17T09:25:53Z</time>
      </trkpt>
      <trkpt lat="47.76357" lon="-3.49557">
        <ele>35.71</ele>
        <time>2012-06-17T09:26:03Z</time>
      </trkpt>
      <trkpt lat="47.7635" lon="-3.49557">
        <ele>36.67</ele>
        <time>2012-06-17T09:26:06Z</time>
      </trkpt>
      <trkpt lat="47.76346" lon="-3.49556">
        <ele>38.59</ele>
        <time>2012-06-17T09:26:09Z</time>
      </trkpt>
      <trkpt lat="47.76323" lon="-3.4953">
        <ele>28.02</ele>
        <time>2012-06-17T09:26:22Z</time>
      </trkpt>
      <trkpt lat="47.76286" lon="-3.495">
        <ele>15.04</ele>
        <time>2012-06-17T09:26:37Z</time>
      </trkpt>
      <trkpt lat="47.7624" lon="-3.49468">
        <ele>16</ele>
        <time>2012-06-17T09:26:57Z</time>
      </trkpt>
      <trkpt lat="47.76204" lon="-3.49443">
        <ele>16.96</ele>
        <time>2012-06-17T09:27:15Z</time>
      </trkpt>
      <trkpt lat="47.76199" lon="-3.49443">
        <ele>17.44</ele>
        <time>2012-06-17T09:27:17Z</time>
      </trkpt>
      <trkpt lat="47.7619" lon="-3.49452">
        <ele>17.44</ele>
        <time>2012-06-17T09:27:21Z</time>
      </trkpt>
      <trkpt lat="47.76169" lon="-3.49507">
        <ele>20.32</ele>
        <time>2012-06-17T09:27:35Z</time>
      </trkpt>
      <trkpt lat="47.76143" lon="-3.49573">
        <ele>23.21</ele>
        <time>2012-06-17T09:27:53Z</time>
      </trkpt>
      <trkpt lat="47.76131" lon="-3.49575">
        <ele>23.69</ele>
        <time>2012-06-17T09:27:57Z</time>
      </trkpt>
      <trkpt lat="47.761" lon="-3.49566">
        <ele>23.21</ele>
        <time>2012-06-17T09:28:06Z</time>
      </trkpt>
      <trkpt lat="47.76093" lon="-3.49575">
        <ele>23.69</ele>
        <time>2012-06-17T09:28:10Z</time>
      </trkpt>
      <trkpt lat="47.76075" lon="-3.4966">
        <ele>19.84</ele>
        <time>2012-06-17T09:28:23Z</time>
      </trkpt>
      <trkpt lat="47.76064" lon="-3.49705">
        <ele>17.92</ele>
        <time>2012-06-17T09:28:28Z</time>
      </trkpt>
      <trkpt lat="47.76056" lon="-3.49749">
        <ele>16</ele>
        <time>2012-06-17T09:28:33Z</time>
      </trkpt>
      <trkpt lat="47.76052" lon="-3.49816">
        <ele>15.04</ele>
        <time>2012-06-17T09:28:41Z</time>
      </trkpt>
      <trkpt lat="47.76052" lon="-3.49808">
        <ele>13.6</ele>
        <time>2012-06-17T09:28:59Z</time>
      </trkpt>
      <trkpt lat="47.76051" lon="-3.49819">
        <ele>12.15</ele>
        <time>2012-06-17T09:29:16Z</time>
      </trkpt>
      <trkpt lat="47.7605" lon="-3.49856">
        <ele>10.23</ele>
        <time>2012-06-17T09:29:26Z</time>
      </trkpt>
      <trkpt lat="47.76052" lon="-3.49935">
        <ele>4.46</ele>
        <time>2012-06-17T09:29:37Z</time>
      </trkpt>
      <trkpt lat="47.76053" lon="-3.4996">
        <ele>3.02</ele>
        <time>2012-06-17T09:29:40Z</time>
      </trkpt>
      <trkpt lat="47.76044" lon="-3.49989">
        <ele>1.58</ele>
        <time>2012-06-17T09:29:44Z</time>
      </trkpt>
      <trkpt lat="47.76015" lon="-3.50022">
        <ele>3.02</ele>
        <time>2012-06-17T09:29:54Z</time>
      </trkpt>
      <trkpt lat="47.75977" lon="-3.5007">
        <ele>3.98</ele>
        <time>2012-06-17T09:30:10Z</time>
      </trkpt>
      <trkpt lat="47.7594" lon="-3.50119">
        <ele>2.06</ele>
        <time>2012-06-17T09:30:22Z</time>
      </trkpt>
      <trkpt lat="47.7592" lon="-3.50142">
        <ele>0.62</ele>
        <time>2012-06-17T09:30:27Z</time>
      </trkpt>
      <trkpt lat="47.75918" lon="-3.50178">
        <ele>-1.3</ele>
        <time>2012-06-17T09:30:34Z</time>
      </trkpt>
      <trkpt lat="47.75917" lon="-3.50182">
        <ele>-1.79</ele>
        <time>2012-06-17T09:30:35Z</time>
      </trkpt>
      <trkpt lat="47.75911" lon="-3.50195">
        <ele>-2.27</ele>
        <time>2012-06-17T09:30:38Z</time>
      </trkpt>
      <trkpt lat="47.7591" lon="-3.50214">
        <ele>-3.23</ele>
        <time>2012-06-17T09:30:42Z</time>
      </trkpt>
      <trkpt lat="47.75912" lon="-3.50246">
        <ele>-3.71</ele>
        <time>2012-06-17T09:30:47Z</time>
      </trkpt>
      <trkpt lat="47.75917" lon="-3.50266">
        <ele>-3.23</ele>
        <time>2012-06-17T09:30:50Z</time>
      </trkpt>
      <trkpt lat="47.7591" lon="-3.50316">
        <ele>-1.79</ele>
        <time>2012-06-17T09:30:58Z</time>
      </trkpt>
      <trkpt lat="47.75888" lon="-3.5042">
        <ele>2.06</ele>
        <time>2012-06-17T09:31:15Z</time>
      </trkpt>
      <trkpt lat="47.75881" lon="-3.50439">
        <ele>2.54</ele>
        <time>2012-06-17T09:31:18Z</time>
      </trkpt>
      <trkpt lat="47.75839" lon="-3.50489">
        <ele>3.02</ele>
        <time>2012-06-17T09:31:29Z</time>
      </trkpt>
      <trkpt lat="47.75827" lon="-3.50497">
        <ele>4.46</ele>
        <time>2012-06-17T09:31:35Z</time>
      </trkpt>
      <trkpt lat="47.75828" lon="-3.50494">
        <ele>5.91</ele>
        <time>2012-06-17T09:31:48Z</time>
      </trkpt>
      <trkpt lat="47.75826" lon="-3.50492">
        <ele>6.39</ele>
        <time>2012-06-17T09:31:50Z</time>
      </trkpt>
      <trkpt lat="47.7582" lon="-3.50493">
        <ele>6.87</ele>
        <time>2012-06-17T09:31:55Z</time>
      </trkpt>
      <trkpt lat="47.75817" lon="-3.50496">
        <ele>7.35</ele>
        <time>2012-06-17T09:32:01Z</time>
      </trkpt>
      <trkpt lat="47.75796" lon="-3.50519">
        <ele>7.35</ele>
        <time>2012-06-17T09:32:12Z</time>
      </trkpt>
      <trkpt lat="47.75763" lon="-3.50559">
        <ele>6.87</ele>
        <time>2012-06-17T09:32:24Z</time>
      </trkpt>
      <trkpt lat="47.75755" lon="-3.50571">
        <ele>6.87</ele>
        <time>2012-06-17T09:32:27Z</time>
      </trkpt>
      <trkpt lat="47.75737" lon="-3.50602">
        <ele>5.42</ele>
        <time>2012-06-17T09:32:33Z</time>
      </trkpt>
      <trkpt lat="47.75705" lon="-3.50614">
        <ele>3.5</ele>
        <time>2012-06-17T09:32:39Z</time>
      </trkpt>
      <trkpt lat="47.75689" lon="-3.50608">
        <ele>1.58</ele>
        <time>2012-06-17T09:32:43Z</time>
      </trkpt>
      <trkpt lat="47.75674" lon="-3.50586">
        <ele>1.1</ele>
        <time>2012-06-17T09:32:49Z</time>
      </trkpt>
      <trkpt lat="47.75642" lon="-3.50618">
        <ele>0.62</ele>
        <time>2012-06-17T09:33:01Z</time>
      </trkpt>
      <trkpt lat="47.75587" lon="-3.50679">
        <ele>2.54</ele>
        <time>2012-06-17T09:33:19Z</time>
      </trkpt>
      <trkpt lat="47.75574" lon="-3.50726">
        <ele>3.02</ele>
        <time>2012-06-17T09:33:30Z</time>
      </trkpt>
      <trkpt lat="47.75536" lon="-3.50876">
        <ele>4.46</ele>
        <time>2012-06-17T09:33:54Z</time>
      </trkpt>
      <trkpt lat="47.75532" lon="-3.50901">
        <ele>4.46</ele>
        <time>2012-06-17T09:34:00Z</time>
      </trkpt>
      <trkpt lat="47.75535" lon="-3.5091">
        <ele>3.98</ele>
        <time>2012-06-17T09:34:04Z</time>
      </trkpt>
      <trkpt lat="47.75601" lon="-3.50931">
        <ele>1.58</ele>
        <time>2012-06-17T09:34:21Z</time>
      </trkpt>
      <trkpt lat="47.75665" lon="-3.50948">
        <ele>0.62</ele>
        <time>2012-06-17T09:34:36Z</time>
      </trkpt>
      <trkpt lat="47.75685" lon="-3.50955">
        <ele>0.62</ele>
        <time>2012-06-17T09:34:41Z</time>
      </trkpt>
      <trkpt lat="47.75694" lon="-3.50979">
        <ele>1.1</ele>
        <time>2012-06-17T09:34:49Z</time>
      </trkpt>
      <trkpt lat="47.75691" lon="-3.50981">
        <ele>1.58</ele>
        <time>2012-06-17T09:34:51Z</time>
      </trkpt>
      <trkpt lat="47.75677" lon="-3.51042">
        <ele>-0.82</ele>
        <time>2012-06-17T09:35:02Z</time>
      </trkpt>
      <trkpt lat="47.75674" lon="-3.5105">
        <ele>-0.82</ele>
        <time>2012-06-17T09:35:03Z</time>
      </trkpt>
      <trkpt lat="47.75644" lon="-3.51101">
        <ele>-0.82</ele>
        <time>2012-06-17T09:35:11Z</time>
      </trkpt>
      <trkpt lat="47.75583" lon="-3.51172">
        <ele>-0.34</ele>
        <time>2012-06-17T09:35:25Z</time>
      </trkpt>
      <trkpt lat="47.75576" lon="-3.51181">
        <ele>-0.34</ele>
        <time>2012-06-17T09:35:31Z</time>
      </trkpt>
      <trkpt lat="47.75578" lon="-3.5119">
        <ele>0.62</ele>
        <time>2012-06-17T09:35:36Z</time>
      </trkpt>
      <trkpt lat="47.75581" lon="-3.51199">
        <ele>1.1</ele>
        <time>2012-06-17T09:35:38Z</time>
      </trkpt>
      <trkpt lat="47.75598" lon="-3.5124">
        <ele>2.06</ele>
        <time>2012-06-17T09:35:44Z</time>
      </trkpt>
      <trkpt lat="47.75609" lon="-3.51338">
        <ele>4.94</ele>
        <time>2012-06-17T09:35:59Z</time>
      </trkpt>
      <trkpt lat="47.75612" lon="-3.51357">
        <ele>4.46</ele>
        <time>2012-06-17T09:36:02Z</time>
      </trkpt>
      <trkpt lat="47.75618" lon="-3.5138">
        <ele>3.5</ele>
        <time>2012-06-17T09:36:06Z</time>
      </trkpt>
      <trkpt lat="47.75633" lon="-3.5142">
        <ele>3.5</ele>
        <time>2012-06-17T09:36:13Z</time>
      </trkpt>
      <trkpt lat="47.75646" lon="-3.51432">
        <ele>3.5</ele>
        <time>2012-06-17T09:36:17Z</time>
      </trkpt>
      <trkpt lat="47.75673" lon="-3.51444">
        <ele>2.54</ele>
        <time>2012-06-17T09:36:25Z</time>
      </trkpt>
      <trkpt lat="47.75693" lon="-3.51488">
        <ele>-0.82</ele>
        <time>2012-06-17T09:36:31Z</time>
      </trkpt>
      <trkpt lat="47.75702" lon="-3.51523">
        <ele>-0.82</ele>
        <time>2012-06-17T09:36:37Z</time>
      </trkpt>
      <trkpt lat="47.75716" lon="-3.51522">
        <ele>-0.34</ele>
        <time>2012-06-17T09:36:41Z</time>
      </trkpt>
      <trkpt lat="47.7575" lon="-3.51555">
        <ele>5.42</ele>
        <time>2012-06-17T09:36:55Z</time>
      </trkpt>
      <trkpt lat="47.75756" lon="-3.51563">
        <ele>6.87</ele>
        <time>2012-06-17T09:37:00Z</time>
      </trkpt>
      <trkpt lat="47.75789" lon="-3.51581">
        <ele>9.75</ele>
        <time>2012-06-17T09:37:17Z</time>
      </trkpt>
      <trkpt lat="47.75815" lon="-3.51587">
        <ele>10.23</ele>
        <time>2012-06-17T09:37:31Z</time>
      </trkpt>
      <trkpt lat="47.75867" lon="-3.51585">
        <ele>11.67</ele>
        <time>2012-06-17T09:37:51Z</time>
      </trkpt>
      <trkpt lat="47.75914" lon="-3.51582">
        <ele>12.63</ele>
        <time>2012-06-17T09:38:07Z</time>
      </trkpt>
      <trkpt lat="47.75951" lon="-3.51578">
        <ele>11.67</ele>
        <time>2012-06-17T09:38:16Z</time>
      </trkpt>
      <trkpt lat="47.75971" lon="-3.51577">
        <ele>11.67</ele>
        <time>2012-06-17T09:38:21Z</time>
      </trkpt>
      <trkpt lat="47.76001" lon="-3.51585">
        <ele>12.63</ele>
        <time>2012-06-17T09:38:28Z</time>
      </trkpt>
      <trkpt lat="47.7601" lon="-3.51592">
        <ele>12.63</ele>
        <time>2012-06-17T09:38:30Z</time>
      </trkpt>
      <trkpt lat="47.76032" lon="-3.51619">
        <ele>16</ele>
        <time>2012-06-17T09:38:37Z</time>
      </trkpt>
      <trkpt lat="47.76056" lon="-3.51642">
        <ele>19.36</ele>
        <time>2012-06-17T09:38:45Z</time>
      </trkpt>
      <trkpt lat="47.76065" lon="-3.5165">
        <ele>18.88</ele>
        <time>2012-06-17T09:38:48Z</time>
      </trkpt>
      <trkpt lat="47.76074" lon="-3.51658">
        <ele>19.84</ele>
        <time>2012-06-17T09:38:51Z</time>
      </trkpt>
      <trkpt lat="47.76086" lon="-3.51714">
        <ele>20.32</ele>
        <time>2012-06-17T09:39:04Z</time>
      </trkpt>
      <trkpt lat="47.76087" lon="-3.51724">
        <ele>19.84</ele>
        <time>2012-06-17T09:39:06Z</time>
      </trkpt>
      <trkpt lat="47.76101" lon="-3.51779">
        <ele>19.84</ele>
        <time>2012-06-17T09:39:17Z</time>
      </trkpt>
      <trkpt lat="47.7612" lon="-3.51764">
        <ele>19.36</ele>
        <time>2012-06-17T09:39:25Z</time>
      </trkpt>
      <trkpt lat="47.76124" lon="-3.51762">
        <ele>19.36</ele>
        <time>2012-06-17T09:39:26Z</time>
      </trkpt>
      <trkpt lat="47.76174" lon="-3.51725">
        <ele>19.84</ele>
        <time>2012-06-17T09:39:41Z</time>
      </trkpt>
      <trkpt lat="47.76206" lon="-3.51763">
        <ele>20.81</ele>
        <time>2012-06-17T09:39:52Z</time>
      </trkpt>
      <trkpt lat="47.76209" lon="-3.51774">
        <ele>20.81</ele>
        <time>2012-06-17T09:39:56Z</time>
      </trkpt>
      <trkpt lat="47.76217" lon="-3.51777">
        <ele>20.81</ele>
        <time>2012-06-17T09:40:00Z</time>
      </trkpt>
      <trkpt lat="47.7625" lon="-3.51758">
        <ele>21.77</ele>
        <time>2012-06-17T09:40:08Z</time>
      </trkpt>
      <trkpt lat="47.76267" lon="-3.51746">
        <ele>21.77</ele>
        <time>2012-06-17T09:40:12Z</time>
      </trkpt>
      <trkpt lat="47.76281" lon="-3.51727">
        <ele>21.29</ele>
        <time>2012-06-17T09:40:16Z</time>
      </trkpt>
      <trkpt lat="47.76294" lon="-3.51674">
        <ele>20.32</ele>
        <time>2012-06-17T09:40:23Z</time>
      </trkpt>
      <trkpt lat="47.76301" lon="-3.51645">
        <ele>19.84</ele>
        <time>2012-06-17T09:40:27Z</time>
      </trkpt>
      <trkpt lat="47.76321" lon="-3.51621">
        <ele>19.36</ele>
        <time>2012-06-17T09:40:32Z</time>
      </trkpt>
      <trkpt lat="47.76422" lon="-3.51625">
        <ele>16</ele>
        <time>2012-06-17T09:40:49Z</time>
      </trkpt>
      <trkpt lat="47.76448" lon="-3.51623">
        <ele>15.52</ele>
        <time>2012-06-17T09:40:53Z</time>
      </trkpt>
      <trkpt lat="47.7647" lon="-3.51637">
        <ele>15.04</ele>
        <time>2012-06-17T09:40:59Z</time>
      </trkpt>
      <trkpt lat="47.7649" lon="-3.51637">
        <ele>14.08</ele>
        <time>2012-06-17T09:41:04Z</time>
      </trkpt>
      <trkpt lat="47.765" lon="-3.51639">
        <ele>14.08</ele>
        <time>2012-06-17T09:41:06Z</time>
      </trkpt>
      <trkpt lat="47.76552" lon="-3.51639">
        <ele>15.04</ele>
        <time>2012-06-17T09:41:18Z</time>
      </trkpt>
      <trkpt lat="47.76625" lon="-3.51642">
        <ele>15.52</ele>
        <time>2012-06-17T09:41:32Z</time>
      </trkpt>
      <trkpt lat="47.76719" lon="-3.51661">
        <ele>16.96</ele>
        <time>2012-06-17T09:41:49Z</time>
      </trkpt>
      <trkpt lat="47.76765" lon="-3.51673">
        <ele>17.92</ele>
        <time>2012-06-17T09:41:57Z</time>
      </trkpt>
      <trkpt lat="47.76832" lon="-3.5169">
        <ele>16.48</ele>
        <time>2012-06-17T09:42:10Z</time>
      </trkpt>
      <trkpt lat="47.76852" lon="-3.51741">
        <ele>17.92</ele>
        <time>2012-06-17T09:42:21Z</time>
      </trkpt>
      <trkpt lat="47.76865" lon="-3.51791">
        <ele>18.4</ele>
        <time>2012-06-17T09:42:30Z</time>
      </trkpt>
      <trkpt lat="47.76876" lon="-3.51796">
        <ele>19.36</ele>
        <time>2012-06-17T09:42:37Z</time>
      </trkpt>
      <trkpt lat="47.76883" lon="-3.51787">
        <ele>20.32</ele>
        <time>2012-06-17T09:42:42Z</time>
      </trkpt>
      <trkpt lat="47.76907" lon="-3.51756">
        <ele>22.25</ele>
        <time>2012-06-17T09:42:53Z</time>
      </trkpt>
      <trkpt lat="47.76943" lon="-3.51748">
        <ele>20.32</ele>
        <time>2012-06-17T09:43:02Z</time>
      </trkpt>
      <trkpt lat="47.76979" lon="-3.51744">
        <ele>18.4</ele>
        <time>2012-06-17T09:43:10Z</time>
      </trkpt>
      <trkpt lat="47.76989" lon="-3.51733">
        <ele>18.88</ele>
        <time>2012-06-17T09:43:14Z</time>
      </trkpt>
      <trkpt lat="47.77001" lon="-3.51716">
        <ele>19.36</ele>
        <time>2012-06-17T09:43:22Z</time>
      </trkpt>
      <trkpt lat="47.77004" lon="-3.51711">
        <ele>19.36</ele>
        <time>2012-06-17T09:43:24Z</time>
      </trkpt>
      <trkpt lat="47.77036" lon="-3.51711">
        <ele>21.77</ele>
        <time>2012-06-17T09:43:39Z</time>
      </trkpt>
      <trkpt lat="47.77059" lon="-3.51715">
        <ele>24.65</ele>
        <time>2012-06-17T09:43:49Z</time>
      </trkpt>
      <trkpt lat="47.7707" lon="-3.51722">
        <ele>27.53</ele>
        <time>2012-06-17T09:43:55Z</time>
      </trkpt>
      <trkpt lat="47.77075" lon="-3.51734">
        <ele>29.46</ele>
        <time>2012-06-17T09:44:02Z</time>
      </trkpt>
      <trkpt lat="47.7707" lon="-3.51758">
        <ele>32.82</ele>
        <time>2012-06-17T09:44:13Z</time>
      </trkpt>
      <trkpt lat="47.7707" lon="-3.5176">
        <ele>32.82</ele>
        <time>2012-06-17T09:44:14Z</time>
      </trkpt>
      <trkpt lat="47.77068" lon="-3.51773">
        <ele>33.3</ele>
        <time>2012-06-17T09:44:19Z</time>
      </trkpt>
      <trkpt lat="47.77067" lon="-3.5178">
        <ele>33.3</ele>
        <time>2012-06-17T09:44:22Z</time>
      </trkpt>
      <trkpt lat="47.77064" lon="-3.51797">
        <ele>29.94</ele>
        <time>2012-06-17T09:44:40Z</time>
      </trkpt>
      <trkpt lat="47.77064" lon="-3.51798">
        <ele>29.94</ele>
        <time>2012-06-17T09:44:46Z</time>
      </trkpt>
    </trkseg>
  </trk>
</gpx>